<?xml version="1.0" encoding="UTF-8" standalone="no" ?>
<gpx xmlns="http://www.topografix.com/GPX/1/1" xmlns:xsi="http://www.w3.org/2001/XMLSchema-instance" xsi:schemaLocation="http://www.topografix.com/GPX/1/1 http://www.topografix.com/GPX/1/1/gpx.xsd" version="1.1" creator="VisuGPX - https://www.visugpx.com">
  <metadata>
    <name>81 - St Quintin le réservoir de Fonroque</name>
    <desc><![CDATA[Cet itinéraire fait partie de la collection de EquiLiberté : www.equiliberte.org
Circuit NON (??) ACCESSIBLE aux attelages
Itinéraire vallonné sans difficultés. ]]></desc>
  </metadata>
  <trk>
    <name><![CDATA[81 - St Quintin le réservoir de Fonroque]]></name>
    <trkseg>
      <trkpt lat="43.97211" lon="2.12514">
        <ele>251</ele>
        <time>2010-07-25T06:51:22Z</time>
      </trkpt>
      <trkpt lat="43.97212" lon="2.12518">
        <ele>253</ele>
        <time>2010-07-25T06:51:39Z</time>
      </trkpt>
      <trkpt lat="43.97215" lon="2.12518">
        <ele>252</ele>
        <time>2010-07-25T06:52:12Z</time>
      </trkpt>
      <trkpt lat="43.97217" lon="2.12515">
        <ele>254</ele>
        <time>2010-07-25T06:52:41Z</time>
      </trkpt>
      <trkpt lat="43.97217" lon="2.12513">
        <ele>255</ele>
        <time>2010-07-25T06:52:51Z</time>
      </trkpt>
      <trkpt lat="43.97219" lon="2.12503">
        <ele>256</ele>
        <time>2010-07-25T06:52:58Z</time>
      </trkpt>
      <trkpt lat="43.97218" lon="2.12497">
        <ele>257</ele>
        <time>2010-07-25T06:53:02Z</time>
      </trkpt>
      <trkpt lat="43.97217" lon="2.12492">
        <ele>256</ele>
        <time>2010-07-25T06:53:19Z</time>
      </trkpt>
      <trkpt lat="43.97218" lon="2.12489">
        <ele>254</ele>
        <time>2010-07-25T06:53:45Z</time>
      </trkpt>
      <trkpt lat="43.97222" lon="2.12485">
        <ele>255</ele>
        <time>2010-07-25T06:54:00Z</time>
      </trkpt>
      <trkpt lat="43.97225" lon="2.12482">
        <ele>255</ele>
        <time>2010-07-25T06:54:15Z</time>
      </trkpt>
      <trkpt lat="43.97224" lon="2.12482">
        <ele>257</ele>
        <time>2010-07-25T06:54:31Z</time>
      </trkpt>
      <trkpt lat="43.97224" lon="2.1248">
        <ele>255</ele>
        <time>2010-07-25T06:54:52Z</time>
      </trkpt>
      <trkpt lat="43.97223" lon="2.12479">
        <ele>255</ele>
        <time>2010-07-25T06:55:20Z</time>
      </trkpt>
      <trkpt lat="43.97222" lon="2.12464">
        <ele>254</ele>
        <time>2010-07-25T06:55:39Z</time>
      </trkpt>
      <trkpt lat="43.97218" lon="2.1246">
        <ele>255</ele>
        <time>2010-07-25T06:55:54Z</time>
      </trkpt>
      <trkpt lat="43.97219" lon="2.12459">
        <ele>257</ele>
        <time>2010-07-25T06:56:28Z</time>
      </trkpt>
      <trkpt lat="43.97225" lon="2.12464">
        <ele>254</ele>
        <time>2010-07-25T06:56:41Z</time>
      </trkpt>
      <trkpt lat="43.97237" lon="2.1246">
        <ele>256</ele>
        <time>2010-07-25T06:56:55Z</time>
      </trkpt>
      <trkpt lat="43.97244" lon="2.12452">
        <ele>254</ele>
        <time>2010-07-25T06:57:10Z</time>
      </trkpt>
      <trkpt lat="43.97246" lon="2.12451">
        <ele>252</ele>
        <time>2010-07-25T06:57:22Z</time>
      </trkpt>
      <trkpt lat="43.97242" lon="2.12479">
        <ele>255</ele>
        <time>2010-07-25T06:57:41Z</time>
      </trkpt>
      <trkpt lat="43.97228" lon="2.12504">
        <ele>255</ele>
        <time>2010-07-25T06:57:58Z</time>
      </trkpt>
      <trkpt lat="43.97221" lon="2.12526">
        <ele>258</ele>
        <time>2010-07-25T06:58:16Z</time>
      </trkpt>
      <trkpt lat="43.97215" lon="2.12527">
        <ele>257</ele>
        <time>2010-07-25T06:58:41Z</time>
      </trkpt>
      <trkpt lat="43.97215" lon="2.12527">
        <ele>257</ele>
        <time>2010-07-25T06:58:56Z</time>
      </trkpt>
      <trkpt lat="43.97215" lon="2.12527">
        <ele>257</ele>
        <time>2010-07-25T06:59:03Z</time>
      </trkpt>
      <trkpt lat="43.97219" lon="2.12509">
        <ele>256</ele>
        <time>2010-07-25T06:59:13Z</time>
      </trkpt>
      <trkpt lat="43.9723" lon="2.12487">
        <ele>256</ele>
        <time>2010-07-25T06:59:30Z</time>
      </trkpt>
      <trkpt lat="43.9724" lon="2.12472">
        <ele>258</ele>
        <time>2010-07-25T06:59:41Z</time>
      </trkpt>
      <trkpt lat="43.97246" lon="2.12455">
        <ele>260</ele>
        <time>2010-07-25T06:59:55Z</time>
      </trkpt>
      <trkpt lat="43.97248" lon="2.12461">
        <ele>259</ele>
        <time>2010-07-25T07:00:15Z</time>
      </trkpt>
      <trkpt lat="43.97248" lon="2.12464">
        <ele>257</ele>
        <time>2010-07-25T07:00:32Z</time>
      </trkpt>
      <trkpt lat="43.97251" lon="2.12463">
        <ele>256</ele>
        <time>2010-07-25T07:00:47Z</time>
      </trkpt>
      <trkpt lat="43.97251" lon="2.12466">
        <ele>257</ele>
        <time>2010-07-25T07:01:00Z</time>
      </trkpt>
      <trkpt lat="43.97248" lon="2.12461">
        <ele>257</ele>
        <time>2010-07-25T07:01:19Z</time>
      </trkpt>
      <trkpt lat="43.97246" lon="2.1246">
        <ele>257</ele>
        <time>2010-07-25T07:01:49Z</time>
      </trkpt>
      <trkpt lat="43.97245" lon="2.12456">
        <ele>258</ele>
        <time>2010-07-25T07:02:15Z</time>
      </trkpt>
      <trkpt lat="43.97246" lon="2.12449">
        <ele>260</ele>
        <time>2010-07-25T07:02:32Z</time>
      </trkpt>
      <trkpt lat="43.97248" lon="2.12448">
        <ele>260</ele>
        <time>2010-07-25T07:03:02Z</time>
      </trkpt>
      <trkpt lat="43.97245" lon="2.12457">
        <ele>261</ele>
        <time>2010-07-25T07:04:11Z</time>
      </trkpt>
      <trkpt lat="43.97245" lon="2.12453">
        <ele>260</ele>
        <time>2010-07-25T07:04:26Z</time>
      </trkpt>
      <trkpt lat="43.97246" lon="2.12448">
        <ele>258</ele>
        <time>2010-07-25T07:04:59Z</time>
      </trkpt>
      <trkpt lat="43.97247" lon="2.12451">
        <ele>262</ele>
        <time>2010-07-25T07:05:37Z</time>
      </trkpt>
      <trkpt lat="43.97248" lon="2.1246">
        <ele>258</ele>
        <time>2010-07-25T07:05:56Z</time>
      </trkpt>
      <trkpt lat="43.97246" lon="2.12455">
        <ele>260</ele>
        <time>2010-07-25T07:06:54Z</time>
      </trkpt>
      <trkpt lat="43.9725" lon="2.12455">
        <ele>262</ele>
        <time>2010-07-25T07:07:16Z</time>
      </trkpt>
      <trkpt lat="43.97247" lon="2.12456">
        <ele>262</ele>
        <time>2010-07-25T07:07:44Z</time>
      </trkpt>
      <trkpt lat="43.97244" lon="2.12471">
        <ele>262</ele>
        <time>2010-07-25T07:07:56Z</time>
      </trkpt>
      <trkpt lat="43.97242" lon="2.12473">
        <ele>262</ele>
        <time>2010-07-25T07:07:58Z</time>
      </trkpt>
      <trkpt lat="43.97217" lon="2.1248">
        <ele>261</ele>
        <time>2010-07-25T07:08:19Z</time>
      </trkpt>
      <trkpt lat="43.97199" lon="2.12475">
        <ele>260</ele>
        <time>2010-07-25T07:08:37Z</time>
      </trkpt>
      <trkpt lat="43.97198" lon="2.12474">
        <ele>258</ele>
        <time>2010-07-25T07:09:04Z</time>
      </trkpt>
      <trkpt lat="43.97201" lon="2.12475">
        <ele>257</ele>
        <time>2010-07-25T07:09:23Z</time>
      </trkpt>
      <trkpt lat="43.97202" lon="2.12482">
        <ele>257</ele>
        <time>2010-07-25T07:09:39Z</time>
      </trkpt>
      <trkpt lat="43.97204" lon="2.12482">
        <ele>257</ele>
        <time>2010-07-25T07:09:42Z</time>
      </trkpt>
      <trkpt lat="43.97218" lon="2.12467">
        <ele>259</ele>
        <time>2010-07-25T07:10:01Z</time>
      </trkpt>
      <trkpt lat="43.97222" lon="2.12457">
        <ele>259</ele>
        <time>2010-07-25T07:10:14Z</time>
      </trkpt>
      <trkpt lat="43.9722" lon="2.1246">
        <ele>258</ele>
        <time>2010-07-25T07:10:52Z</time>
      </trkpt>
      <trkpt lat="43.97222" lon="2.12459">
        <ele>256</ele>
        <time>2010-07-25T07:11:26Z</time>
      </trkpt>
      <trkpt lat="43.97224" lon="2.1246">
        <ele>254</ele>
        <time>2010-07-25T07:12:10Z</time>
      </trkpt>
      <trkpt lat="43.97225" lon="2.12461">
        <ele>253</ele>
        <time>2010-07-25T07:12:23Z</time>
      </trkpt>
      <trkpt lat="43.97228" lon="2.1246">
        <ele>253</ele>
        <time>2010-07-25T07:12:38Z</time>
      </trkpt>
      <trkpt lat="43.9723" lon="2.12458">
        <ele>254</ele>
        <time>2010-07-25T07:13:04Z</time>
      </trkpt>
      <trkpt lat="43.97226" lon="2.12462">
        <ele>256</ele>
        <time>2010-07-25T07:13:56Z</time>
      </trkpt>
      <trkpt lat="43.97227" lon="2.12461">
        <ele>256</ele>
        <time>2010-07-25T07:14:13Z</time>
      </trkpt>
      <trkpt lat="43.97215" lon="2.12468">
        <ele>258</ele>
        <time>2010-07-25T07:14:25Z</time>
      </trkpt>
      <trkpt lat="43.97198" lon="2.12473">
        <ele>259</ele>
        <time>2010-07-25T07:14:40Z</time>
      </trkpt>
      <trkpt lat="43.97197" lon="2.12474">
        <ele>257</ele>
        <time>2010-07-25T07:15:04Z</time>
      </trkpt>
      <trkpt lat="43.97195" lon="2.12471">
        <ele>255</ele>
        <time>2010-07-25T07:15:21Z</time>
      </trkpt>
      <trkpt lat="43.97198" lon="2.12475">
        <ele>255</ele>
        <time>2010-07-25T07:15:49Z</time>
      </trkpt>
      <trkpt lat="43.97182" lon="2.12486">
        <ele>255</ele>
        <time>2010-07-25T07:16:04Z</time>
      </trkpt>
      <trkpt lat="43.97156" lon="2.12484">
        <ele>255</ele>
        <time>2010-07-25T07:16:22Z</time>
      </trkpt>
      <trkpt lat="43.97147" lon="2.12468">
        <ele>253</ele>
        <time>2010-07-25T07:16:35Z</time>
      </trkpt>
      <trkpt lat="43.97146" lon="2.12463">
        <ele>252</ele>
        <time>2010-07-25T07:16:40Z</time>
      </trkpt>
      <trkpt lat="43.9715" lon="2.12457">
        <ele>252</ele>
        <time>2010-07-25T07:16:54Z</time>
      </trkpt>
      <trkpt lat="43.9715" lon="2.12457">
        <ele>252</ele>
        <time>2010-07-25T07:17:02Z</time>
      </trkpt>
      <trkpt lat="43.97162" lon="2.12448">
        <ele>253</ele>
        <time>2010-07-25T07:17:15Z</time>
      </trkpt>
      <trkpt lat="43.97182" lon="2.12434">
        <ele>252</ele>
        <time>2010-07-25T07:17:32Z</time>
      </trkpt>
      <trkpt lat="43.97203" lon="2.12422">
        <ele>253</ele>
        <time>2010-07-25T07:17:50Z</time>
      </trkpt>
      <trkpt lat="43.97217" lon="2.12413">
        <ele>254</ele>
        <time>2010-07-25T07:18:02Z</time>
      </trkpt>
      <trkpt lat="43.97236" lon="2.12402">
        <ele>256</ele>
        <time>2010-07-25T07:18:18Z</time>
      </trkpt>
      <trkpt lat="43.97253" lon="2.12392">
        <ele>257</ele>
        <time>2010-07-25T07:18:34Z</time>
      </trkpt>
      <trkpt lat="43.97259" lon="2.12392">
        <ele>257</ele>
        <time>2010-07-25T07:18:48Z</time>
      </trkpt>
      <trkpt lat="43.97263" lon="2.12388">
        <ele>257</ele>
        <time>2010-07-25T07:18:52Z</time>
      </trkpt>
      <trkpt lat="43.97278" lon="2.12376">
        <ele>257</ele>
        <time>2010-07-25T07:19:08Z</time>
      </trkpt>
      <trkpt lat="43.97277" lon="2.12375">
        <ele>256</ele>
        <time>2010-07-25T07:19:25Z</time>
      </trkpt>
      <trkpt lat="43.97279" lon="2.12375">
        <ele>255</ele>
        <time>2010-07-25T07:20:02Z</time>
      </trkpt>
      <trkpt lat="43.97279" lon="2.12375">
        <ele>256</ele>
        <time>2010-07-25T07:20:18Z</time>
      </trkpt>
      <trkpt lat="43.97278" lon="2.12375">
        <ele>256</ele>
        <time>2010-07-25T07:20:49Z</time>
      </trkpt>
      <trkpt lat="43.97279" lon="2.12374">
        <ele>256</ele>
        <time>2010-07-25T07:21:11Z</time>
      </trkpt>
      <trkpt lat="43.9729" lon="2.12371">
        <ele>256</ele>
        <time>2010-07-25T07:21:34Z</time>
      </trkpt>
      <trkpt lat="43.97322" lon="2.12352">
        <ele>255</ele>
        <time>2010-07-25T07:21:55Z</time>
      </trkpt>
      <trkpt lat="43.97342" lon="2.12342">
        <ele>254</ele>
        <time>2010-07-25T07:22:09Z</time>
      </trkpt>
      <trkpt lat="43.97365" lon="2.12327">
        <ele>255</ele>
        <time>2010-07-25T07:22:26Z</time>
      </trkpt>
      <trkpt lat="43.97369" lon="2.12322">
        <ele>255</ele>
        <time>2010-07-25T07:22:37Z</time>
      </trkpt>
      <trkpt lat="43.97389" lon="2.12313">
        <ele>254</ele>
        <time>2010-07-25T07:22:53Z</time>
      </trkpt>
      <trkpt lat="43.97402" lon="2.12305">
        <ele>254</ele>
        <time>2010-07-25T07:23:06Z</time>
      </trkpt>
      <trkpt lat="43.97441" lon="2.12285">
        <ele>253</ele>
        <time>2010-07-25T07:23:32Z</time>
      </trkpt>
      <trkpt lat="43.97479" lon="2.12262">
        <ele>251</ele>
        <time>2010-07-25T07:23:59Z</time>
      </trkpt>
      <trkpt lat="43.97482" lon="2.12259">
        <ele>252</ele>
        <time>2010-07-25T07:24:04Z</time>
      </trkpt>
      <trkpt lat="43.97508" lon="2.12245">
        <ele>252</ele>
        <time>2010-07-25T07:24:24Z</time>
      </trkpt>
      <trkpt lat="43.97547" lon="2.12219">
        <ele>252</ele>
        <time>2010-07-25T07:24:51Z</time>
      </trkpt>
      <trkpt lat="43.97572" lon="2.12208">
        <ele>252</ele>
        <time>2010-07-25T07:25:09Z</time>
      </trkpt>
      <trkpt lat="43.97588" lon="2.12196">
        <ele>254</ele>
        <time>2010-07-25T07:25:21Z</time>
      </trkpt>
      <trkpt lat="43.97592" lon="2.12201">
        <ele>253</ele>
        <time>2010-07-25T07:25:29Z</time>
      </trkpt>
      <trkpt lat="43.9759" lon="2.12218">
        <ele>250</ele>
        <time>2010-07-25T07:25:36Z</time>
      </trkpt>
      <trkpt lat="43.97596" lon="2.12239">
        <ele>248</ele>
        <time>2010-07-25T07:25:46Z</time>
      </trkpt>
      <trkpt lat="43.97598" lon="2.12257">
        <ele>247</ele>
        <time>2010-07-25T07:25:55Z</time>
      </trkpt>
      <trkpt lat="43.97589" lon="2.12277">
        <ele>243</ele>
        <time>2010-07-25T07:26:05Z</time>
      </trkpt>
      <trkpt lat="43.97583" lon="2.12298">
        <ele>243</ele>
        <time>2010-07-25T07:26:16Z</time>
      </trkpt>
      <trkpt lat="43.97582" lon="2.123">
        <ele>243</ele>
        <time>2010-07-25T07:26:17Z</time>
      </trkpt>
      <trkpt lat="43.97581" lon="2.12303">
        <ele>243</ele>
        <time>2010-07-25T07:26:19Z</time>
      </trkpt>
      <trkpt lat="43.97576" lon="2.12313">
        <ele>243</ele>
        <time>2010-07-25T07:26:24Z</time>
      </trkpt>
      <trkpt lat="43.97575" lon="2.1232">
        <ele>242</ele>
        <time>2010-07-25T07:26:27Z</time>
      </trkpt>
      <trkpt lat="43.97579" lon="2.12346">
        <ele>241</ele>
        <time>2010-07-25T07:26:43Z</time>
      </trkpt>
      <trkpt lat="43.97579" lon="2.12347">
        <ele>241</ele>
        <time>2010-07-25T07:26:44Z</time>
      </trkpt>
      <trkpt lat="43.97579" lon="2.12351">
        <ele>241</ele>
        <time>2010-07-25T07:26:47Z</time>
      </trkpt>
      <trkpt lat="43.9758" lon="2.12357">
        <ele>242</ele>
        <time>2010-07-25T07:26:51Z</time>
      </trkpt>
      <trkpt lat="43.97581" lon="2.12366">
        <ele>242</ele>
        <time>2010-07-25T07:26:55Z</time>
      </trkpt>
      <trkpt lat="43.97586" lon="2.12395">
        <ele>239</ele>
        <time>2010-07-25T07:27:08Z</time>
      </trkpt>
      <trkpt lat="43.97587" lon="2.124">
        <ele>239</ele>
        <time>2010-07-25T07:27:11Z</time>
      </trkpt>
      <trkpt lat="43.97588" lon="2.12418">
        <ele>236</ele>
        <time>2010-07-25T07:27:22Z</time>
      </trkpt>
      <trkpt lat="43.97591" lon="2.12446">
        <ele>233</ele>
        <time>2010-07-25T07:27:34Z</time>
      </trkpt>
      <trkpt lat="43.97591" lon="2.12448">
        <ele>233</ele>
        <time>2010-07-25T07:27:35Z</time>
      </trkpt>
      <trkpt lat="43.97592" lon="2.12453">
        <ele>234</ele>
        <time>2010-07-25T07:27:38Z</time>
      </trkpt>
      <trkpt lat="43.97591" lon="2.12465">
        <ele>235</ele>
        <time>2010-07-25T07:27:44Z</time>
      </trkpt>
      <trkpt lat="43.97592" lon="2.12471">
        <ele>235</ele>
        <time>2010-07-25T07:27:47Z</time>
      </trkpt>
      <trkpt lat="43.97603" lon="2.12497">
        <ele>239</ele>
        <time>2010-07-25T07:27:59Z</time>
      </trkpt>
      <trkpt lat="43.97614" lon="2.12486">
        <ele>243</ele>
        <time>2010-07-25T07:28:10Z</time>
      </trkpt>
      <trkpt lat="43.97612" lon="2.12472">
        <ele>243</ele>
        <time>2010-07-25T07:28:18Z</time>
      </trkpt>
      <trkpt lat="43.97612" lon="2.12446">
        <ele>244</ele>
        <time>2010-07-25T07:28:34Z</time>
      </trkpt>
      <trkpt lat="43.97614" lon="2.12414">
        <ele>247</ele>
        <time>2010-07-25T07:28:46Z</time>
      </trkpt>
      <trkpt lat="43.97617" lon="2.12387">
        <ele>249</ele>
        <time>2010-07-25T07:28:57Z</time>
      </trkpt>
      <trkpt lat="43.97623" lon="2.12355">
        <ele>251</ele>
        <time>2010-07-25T07:29:13Z</time>
      </trkpt>
      <trkpt lat="43.97632" lon="2.12329">
        <ele>253</ele>
        <time>2010-07-25T07:29:26Z</time>
      </trkpt>
      <trkpt lat="43.97646" lon="2.12292">
        <ele>257</ele>
        <time>2010-07-25T07:29:44Z</time>
      </trkpt>
      <trkpt lat="43.97651" lon="2.12281">
        <ele>258</ele>
        <time>2010-07-25T07:29:50Z</time>
      </trkpt>
      <trkpt lat="43.97655" lon="2.12274">
        <ele>258</ele>
        <time>2010-07-25T07:29:54Z</time>
      </trkpt>
      <trkpt lat="43.97675" lon="2.12247">
        <ele>258</ele>
        <time>2010-07-25T07:30:12Z</time>
      </trkpt>
      <trkpt lat="43.97692" lon="2.12223">
        <ele>258</ele>
        <time>2010-07-25T07:30:28Z</time>
      </trkpt>
      <trkpt lat="43.9771" lon="2.12202">
        <ele>258</ele>
        <time>2010-07-25T07:30:41Z</time>
      </trkpt>
      <trkpt lat="43.97737" lon="2.12189">
        <ele>260</ele>
        <time>2010-07-25T07:30:53Z</time>
      </trkpt>
      <trkpt lat="43.97755" lon="2.12179">
        <ele>261</ele>
        <time>2010-07-25T07:31:05Z</time>
      </trkpt>
      <trkpt lat="43.97759" lon="2.12176">
        <ele>260</ele>
        <time>2010-07-25T07:31:08Z</time>
      </trkpt>
      <trkpt lat="43.97775" lon="2.12177">
        <ele>260</ele>
        <time>2010-07-25T07:31:21Z</time>
      </trkpt>
      <trkpt lat="43.97786" lon="2.12179">
        <ele>262</ele>
        <time>2010-07-25T07:31:27Z</time>
      </trkpt>
      <trkpt lat="43.97794" lon="2.12177">
        <ele>261</ele>
        <time>2010-07-25T07:31:32Z</time>
      </trkpt>
      <trkpt lat="43.97809" lon="2.12176">
        <ele>262</ele>
        <time>2010-07-25T07:31:42Z</time>
      </trkpt>
      <trkpt lat="43.9783" lon="2.12172">
        <ele>262</ele>
        <time>2010-07-25T07:31:55Z</time>
      </trkpt>
      <trkpt lat="43.97851" lon="2.12163">
        <ele>261</ele>
        <time>2010-07-25T07:32:09Z</time>
      </trkpt>
      <trkpt lat="43.97854" lon="2.12162">
        <ele>260</ele>
        <time>2010-07-25T07:32:11Z</time>
      </trkpt>
      <trkpt lat="43.97858" lon="2.12161">
        <ele>260</ele>
        <time>2010-07-25T07:32:14Z</time>
      </trkpt>
      <trkpt lat="43.97872" lon="2.1217">
        <ele>259</ele>
        <time>2010-07-25T07:32:23Z</time>
      </trkpt>
      <trkpt lat="43.97894" lon="2.12169">
        <ele>260</ele>
        <time>2010-07-25T07:32:38Z</time>
      </trkpt>
      <trkpt lat="43.97909" lon="2.12167">
        <ele>261</ele>
        <time>2010-07-25T07:32:48Z</time>
      </trkpt>
      <trkpt lat="43.9792" lon="2.12159">
        <ele>261</ele>
        <time>2010-07-25T07:32:56Z</time>
      </trkpt>
      <trkpt lat="43.97935" lon="2.12146">
        <ele>261</ele>
        <time>2010-07-25T07:33:07Z</time>
      </trkpt>
      <trkpt lat="43.97957" lon="2.12169">
        <ele>255</ele>
        <time>2010-07-25T07:33:22Z</time>
      </trkpt>
      <trkpt lat="43.97979" lon="2.1218">
        <ele>253</ele>
        <time>2010-07-25T07:33:36Z</time>
      </trkpt>
      <trkpt lat="43.98016" lon="2.12164">
        <ele>259</ele>
        <time>2010-07-25T07:33:59Z</time>
      </trkpt>
      <trkpt lat="43.98041" lon="2.12156">
        <ele>257</ele>
        <time>2010-07-25T07:34:17Z</time>
      </trkpt>
      <trkpt lat="43.98072" lon="2.12142">
        <ele>256</ele>
        <time>2010-07-25T07:34:36Z</time>
      </trkpt>
      <trkpt lat="43.981" lon="2.12128">
        <ele>260</ele>
        <time>2010-07-25T07:34:53Z</time>
      </trkpt>
      <trkpt lat="43.98134" lon="2.12112">
        <ele>263</ele>
        <time>2010-07-25T07:35:14Z</time>
      </trkpt>
      <trkpt lat="43.98172" lon="2.121">
        <ele>261</ele>
        <time>2010-07-25T07:35:39Z</time>
      </trkpt>
      <trkpt lat="43.982" lon="2.12093">
        <ele>257</ele>
        <time>2010-07-25T07:35:58Z</time>
      </trkpt>
      <trkpt lat="43.98237" lon="2.12079">
        <ele>253</ele>
        <time>2010-07-25T07:36:20Z</time>
      </trkpt>
      <trkpt lat="43.98257" lon="2.12055">
        <ele>253</ele>
        <time>2010-07-25T07:36:29Z</time>
      </trkpt>
      <trkpt lat="43.98259" lon="2.1205">
        <ele>252</ele>
        <time>2010-07-25T07:36:32Z</time>
      </trkpt>
      <trkpt lat="43.98255" lon="2.12022">
        <ele>252</ele>
        <time>2010-07-25T07:36:44Z</time>
      </trkpt>
      <trkpt lat="43.9826" lon="2.11994">
        <ele>252</ele>
        <time>2010-07-25T07:36:58Z</time>
      </trkpt>
      <trkpt lat="43.98282" lon="2.11985">
        <ele>252</ele>
        <time>2010-07-25T07:37:10Z</time>
      </trkpt>
      <trkpt lat="43.98287" lon="2.11983">
        <ele>251</ele>
        <time>2010-07-25T07:37:13Z</time>
      </trkpt>
      <trkpt lat="43.98308" lon="2.11973">
        <ele>254</ele>
        <time>2010-07-25T07:37:29Z</time>
      </trkpt>
      <trkpt lat="43.98331" lon="2.11959">
        <ele>256</ele>
        <time>2010-07-25T07:37:46Z</time>
      </trkpt>
      <trkpt lat="43.98355" lon="2.11948">
        <ele>254</ele>
        <time>2010-07-25T07:38:03Z</time>
      </trkpt>
      <trkpt lat="43.98382" lon="2.11935">
        <ele>254</ele>
        <time>2010-07-25T07:38:23Z</time>
      </trkpt>
      <trkpt lat="43.98408" lon="2.11913">
        <ele>255</ele>
        <time>2010-07-25T07:38:44Z</time>
      </trkpt>
      <trkpt lat="43.98431" lon="2.11898">
        <ele>256</ele>
        <time>2010-07-25T07:39:01Z</time>
      </trkpt>
      <trkpt lat="43.98456" lon="2.11885">
        <ele>255</ele>
        <time>2010-07-25T07:39:18Z</time>
      </trkpt>
      <trkpt lat="43.98485" lon="2.11865">
        <ele>252</ele>
        <time>2010-07-25T07:39:30Z</time>
      </trkpt>
      <trkpt lat="43.98522" lon="2.11837">
        <ele>254</ele>
        <time>2010-07-25T07:39:43Z</time>
      </trkpt>
      <trkpt lat="43.98558" lon="2.11815">
        <ele>252</ele>
        <time>2010-07-25T07:39:56Z</time>
      </trkpt>
      <trkpt lat="43.98583" lon="2.11786">
        <ele>253</ele>
        <time>2010-07-25T07:40:08Z</time>
      </trkpt>
      <trkpt lat="43.98609" lon="2.1177">
        <ele>256</ele>
        <time>2010-07-25T07:40:28Z</time>
      </trkpt>
      <trkpt lat="43.98628" lon="2.11749">
        <ele>260</ele>
        <time>2010-07-25T07:40:45Z</time>
      </trkpt>
      <trkpt lat="43.98651" lon="2.11716">
        <ele>261</ele>
        <time>2010-07-25T07:41:07Z</time>
      </trkpt>
      <trkpt lat="43.98677" lon="2.11678">
        <ele>260</ele>
        <time>2010-07-25T07:41:31Z</time>
      </trkpt>
      <trkpt lat="43.98696" lon="2.11654">
        <ele>259</ele>
        <time>2010-07-25T07:41:47Z</time>
      </trkpt>
      <trkpt lat="43.98723" lon="2.11615">
        <ele>260</ele>
        <time>2010-07-25T07:42:12Z</time>
      </trkpt>
      <trkpt lat="43.98732" lon="2.11605">
        <ele>260</ele>
        <time>2010-07-25T07:42:25Z</time>
      </trkpt>
      <trkpt lat="43.98746" lon="2.11582">
        <ele>260</ele>
        <time>2010-07-25T07:42:41Z</time>
      </trkpt>
      <trkpt lat="43.98775" lon="2.11541">
        <ele>261</ele>
        <time>2010-07-25T07:42:57Z</time>
      </trkpt>
      <trkpt lat="43.98794" lon="2.11515">
        <ele>263</ele>
        <time>2010-07-25T07:43:18Z</time>
      </trkpt>
      <trkpt lat="43.98805" lon="2.11495">
        <ele>263</ele>
        <time>2010-07-25T07:43:29Z</time>
      </trkpt>
      <trkpt lat="43.98815" lon="2.1148">
        <ele>264</ele>
        <time>2010-07-25T07:43:44Z</time>
      </trkpt>
      <trkpt lat="43.98829" lon="2.11459">
        <ele>264</ele>
        <time>2010-07-25T07:43:58Z</time>
      </trkpt>
      <trkpt lat="43.98829" lon="2.11459">
        <ele>264</ele>
        <time>2010-07-25T07:43:59Z</time>
      </trkpt>
      <trkpt lat="43.98838" lon="2.11443">
        <ele>264</ele>
        <time>2010-07-25T07:44:15Z</time>
      </trkpt>
      <trkpt lat="43.98841" lon="2.11435">
        <ele>264</ele>
        <time>2010-07-25T07:44:30Z</time>
      </trkpt>
      <trkpt lat="43.9885" lon="2.11424">
        <ele>264</ele>
        <time>2010-07-25T07:44:44Z</time>
      </trkpt>
      <trkpt lat="43.9886" lon="2.11406">
        <ele>264</ele>
        <time>2010-07-25T07:44:58Z</time>
      </trkpt>
      <trkpt lat="43.98872" lon="2.11377">
        <ele>264</ele>
        <time>2010-07-25T07:45:10Z</time>
      </trkpt>
      <trkpt lat="43.98882" lon="2.11329">
        <ele>264</ele>
        <time>2010-07-25T07:45:29Z</time>
      </trkpt>
      <trkpt lat="43.98878" lon="2.11274">
        <ele>262</ele>
        <time>2010-07-25T07:45:41Z</time>
      </trkpt>
      <trkpt lat="43.98867" lon="2.11249">
        <ele>260</ele>
        <time>2010-07-25T07:45:54Z</time>
      </trkpt>
      <trkpt lat="43.98854" lon="2.11208">
        <ele>258</ele>
        <time>2010-07-25T07:46:13Z</time>
      </trkpt>
      <trkpt lat="43.98841" lon="2.11162">
        <ele>254</ele>
        <time>2010-07-25T07:46:35Z</time>
      </trkpt>
      <trkpt lat="43.98832" lon="2.11119">
        <ele>250</ele>
        <time>2010-07-25T07:46:57Z</time>
      </trkpt>
      <trkpt lat="43.98822" lon="2.11073">
        <ele>244</ele>
        <time>2010-07-25T07:47:18Z</time>
      </trkpt>
      <trkpt lat="43.98825" lon="2.11012">
        <ele>243</ele>
        <time>2010-07-25T07:47:28Z</time>
      </trkpt>
      <trkpt lat="43.98826" lon="2.10981">
        <ele>244</ele>
        <time>2010-07-25T07:47:33Z</time>
      </trkpt>
      <trkpt lat="43.98834" lon="2.10923">
        <ele>247</ele>
        <time>2010-07-25T07:47:45Z</time>
      </trkpt>
      <trkpt lat="43.98832" lon="2.10912">
        <ele>248</ele>
        <time>2010-07-25T07:47:49Z</time>
      </trkpt>
      <trkpt lat="43.9883" lon="2.10907">
        <ele>249</ele>
        <time>2010-07-25T07:47:52Z</time>
      </trkpt>
      <trkpt lat="43.98819" lon="2.10862">
        <ele>253</ele>
        <time>2010-07-25T07:48:03Z</time>
      </trkpt>
      <trkpt lat="43.98818" lon="2.10847">
        <ele>255</ele>
        <time>2010-07-25T07:48:11Z</time>
      </trkpt>
      <trkpt lat="43.98816" lon="2.10813">
        <ele>254</ele>
        <time>2010-07-25T07:48:18Z</time>
      </trkpt>
      <trkpt lat="43.98814" lon="2.10754">
        <ele>255</ele>
        <time>2010-07-25T07:48:26Z</time>
      </trkpt>
      <trkpt lat="43.98822" lon="2.10668">
        <ele>260</ele>
        <time>2010-07-25T07:48:42Z</time>
      </trkpt>
      <trkpt lat="43.98831" lon="2.10556">
        <ele>267</ele>
        <time>2010-07-25T07:49:05Z</time>
      </trkpt>
      <trkpt lat="43.98839" lon="2.10492">
        <ele>271</ele>
        <time>2010-07-25T07:49:18Z</time>
      </trkpt>
      <trkpt lat="43.98859" lon="2.10429">
        <ele>274</ele>
        <time>2010-07-25T07:49:31Z</time>
      </trkpt>
      <trkpt lat="43.98894" lon="2.10337">
        <ele>278</ele>
        <time>2010-07-25T07:49:51Z</time>
      </trkpt>
      <trkpt lat="43.98921" lon="2.10289">
        <ele>282</ele>
        <time>2010-07-25T07:50:03Z</time>
      </trkpt>
      <trkpt lat="43.98934" lon="2.10244">
        <ele>286</ele>
        <time>2010-07-25T07:50:14Z</time>
      </trkpt>
      <trkpt lat="43.98973" lon="2.10191">
        <ele>292</ele>
        <time>2010-07-25T07:50:30Z</time>
      </trkpt>
      <trkpt lat="43.9898" lon="2.10178">
        <ele>294</ele>
        <time>2010-07-25T07:50:34Z</time>
      </trkpt>
      <trkpt lat="43.98992" lon="2.10129">
        <ele>297</ele>
        <time>2010-07-25T07:50:46Z</time>
      </trkpt>
      <trkpt lat="43.9901" lon="2.10103">
        <ele>300</ele>
        <time>2010-07-25T07:51:02Z</time>
      </trkpt>
      <trkpt lat="43.99033" lon="2.10081">
        <ele>301</ele>
        <time>2010-07-25T07:51:19Z</time>
      </trkpt>
      <trkpt lat="43.99038" lon="2.10077">
        <ele>301</ele>
        <time>2010-07-25T07:51:24Z</time>
      </trkpt>
      <trkpt lat="43.99044" lon="2.10065">
        <ele>301</ele>
        <time>2010-07-25T07:51:31Z</time>
      </trkpt>
      <trkpt lat="43.99056" lon="2.1007">
        <ele>302</ele>
        <time>2010-07-25T07:51:40Z</time>
      </trkpt>
      <trkpt lat="43.99074" lon="2.10067">
        <ele>304</ele>
        <time>2010-07-25T07:51:54Z</time>
      </trkpt>
      <trkpt lat="43.99091" lon="2.10062">
        <ele>305</ele>
        <time>2010-07-25T07:52:11Z</time>
      </trkpt>
      <trkpt lat="43.99117" lon="2.1005">
        <ele>307</ele>
        <time>2010-07-25T07:52:27Z</time>
      </trkpt>
      <trkpt lat="43.99144" lon="2.10038">
        <ele>307</ele>
        <time>2010-07-25T07:52:40Z</time>
      </trkpt>
      <trkpt lat="43.9917" lon="2.10007">
        <ele>310</ele>
        <time>2010-07-25T07:52:51Z</time>
      </trkpt>
      <trkpt lat="43.99196" lon="2.09942">
        <ele>313</ele>
        <time>2010-07-25T07:53:07Z</time>
      </trkpt>
      <trkpt lat="43.99211" lon="2.09905">
        <ele>316</ele>
        <time>2010-07-25T07:53:20Z</time>
      </trkpt>
      <trkpt lat="43.9923" lon="2.09882">
        <ele>318</ele>
        <time>2010-07-25T07:53:33Z</time>
      </trkpt>
      <trkpt lat="43.99252" lon="2.09849">
        <ele>317</ele>
        <time>2010-07-25T07:53:49Z</time>
      </trkpt>
      <trkpt lat="43.99281" lon="2.09803">
        <ele>317</ele>
        <time>2010-07-25T07:54:09Z</time>
      </trkpt>
      <trkpt lat="43.99303" lon="2.09767">
        <ele>317</ele>
        <time>2010-07-25T07:54:31Z</time>
      </trkpt>
      <trkpt lat="43.99323" lon="2.09741">
        <ele>316</ele>
        <time>2010-07-25T07:54:49Z</time>
      </trkpt>
      <trkpt lat="43.9935" lon="2.09703">
        <ele>316</ele>
        <time>2010-07-25T07:55:14Z</time>
      </trkpt>
      <trkpt lat="43.99369" lon="2.09673">
        <ele>315</ele>
        <time>2010-07-25T07:55:33Z</time>
      </trkpt>
      <trkpt lat="43.99387" lon="2.09642">
        <ele>311</ele>
        <time>2010-07-25T07:55:49Z</time>
      </trkpt>
      <trkpt lat="43.99414" lon="2.09596">
        <ele>309</ele>
        <time>2010-07-25T07:56:04Z</time>
      </trkpt>
      <trkpt lat="43.99429" lon="2.09567">
        <ele>308</ele>
        <time>2010-07-25T07:56:22Z</time>
      </trkpt>
      <trkpt lat="43.99447" lon="2.09548">
        <ele>307</ele>
        <time>2010-07-25T07:56:37Z</time>
      </trkpt>
      <trkpt lat="43.99454" lon="2.09546">
        <ele>306</ele>
        <time>2010-07-25T07:56:43Z</time>
      </trkpt>
      <trkpt lat="43.99453" lon="2.09517">
        <ele>300</ele>
        <time>2010-07-25T07:56:59Z</time>
      </trkpt>
      <trkpt lat="43.99446" lon="2.09481">
        <ele>292</ele>
        <time>2010-07-25T07:57:17Z</time>
      </trkpt>
      <trkpt lat="43.9944" lon="2.09452">
        <ele>286</ele>
        <time>2010-07-25T07:57:29Z</time>
      </trkpt>
      <trkpt lat="43.99432" lon="2.09411">
        <ele>281</ele>
        <time>2010-07-25T07:57:42Z</time>
      </trkpt>
      <trkpt lat="43.99424" lon="2.09373">
        <ele>280</ele>
        <time>2010-07-25T07:57:59Z</time>
      </trkpt>
      <trkpt lat="43.99415" lon="2.09325">
        <ele>279</ele>
        <time>2010-07-25T07:58:22Z</time>
      </trkpt>
      <trkpt lat="43.99429" lon="2.09303">
        <ele>282</ele>
        <time>2010-07-25T07:58:36Z</time>
      </trkpt>
      <trkpt lat="43.99452" lon="2.09297">
        <ele>282</ele>
        <time>2010-07-25T07:58:49Z</time>
      </trkpt>
      <trkpt lat="43.9949" lon="2.09291">
        <ele>281</ele>
        <time>2010-07-25T07:59:13Z</time>
      </trkpt>
      <trkpt lat="43.99512" lon="2.09255">
        <ele>281</ele>
        <time>2010-07-25T07:59:36Z</time>
      </trkpt>
      <trkpt lat="43.99531" lon="2.0922">
        <ele>276</ele>
        <time>2010-07-25T07:59:56Z</time>
      </trkpt>
      <trkpt lat="43.99553" lon="2.09168">
        <ele>272</ele>
        <time>2010-07-25T08:00:24Z</time>
      </trkpt>
      <trkpt lat="43.99574" lon="2.09126">
        <ele>269</ele>
        <time>2010-07-25T08:00:47Z</time>
      </trkpt>
      <trkpt lat="43.99581" lon="2.09123">
        <ele>269</ele>
        <time>2010-07-25T08:00:52Z</time>
      </trkpt>
      <trkpt lat="43.99591" lon="2.09128">
        <ele>268</ele>
        <time>2010-07-25T08:00:58Z</time>
      </trkpt>
      <trkpt lat="43.99613" lon="2.0914">
        <ele>269</ele>
        <time>2010-07-25T08:01:13Z</time>
      </trkpt>
      <trkpt lat="43.99634" lon="2.09172">
        <ele>267</ele>
        <time>2010-07-25T08:01:31Z</time>
      </trkpt>
      <trkpt lat="43.99654" lon="2.09205">
        <ele>266</ele>
        <time>2010-07-25T08:01:50Z</time>
      </trkpt>
      <trkpt lat="43.99666" lon="2.0923">
        <ele>267</ele>
        <time>2010-07-25T08:02:04Z</time>
      </trkpt>
      <trkpt lat="43.99691" lon="2.09269">
        <ele>266</ele>
        <time>2010-07-25T08:02:26Z</time>
      </trkpt>
      <trkpt lat="43.99706" lon="2.09298">
        <ele>266</ele>
        <time>2010-07-25T08:02:42Z</time>
      </trkpt>
      <trkpt lat="43.99716" lon="2.0933">
        <ele>266</ele>
        <time>2010-07-25T08:02:58Z</time>
      </trkpt>
      <trkpt lat="43.99721" lon="2.09344">
        <ele>264</ele>
        <time>2010-07-25T08:03:05Z</time>
      </trkpt>
      <trkpt lat="43.99735" lon="2.09388">
        <ele>264</ele>
        <time>2010-07-25T08:03:28Z</time>
      </trkpt>
      <trkpt lat="43.99741" lon="2.0943">
        <ele>264</ele>
        <time>2010-07-25T08:03:47Z</time>
      </trkpt>
      <trkpt lat="43.99746" lon="2.09482">
        <ele>264</ele>
        <time>2010-07-25T08:04:11Z</time>
      </trkpt>
      <trkpt lat="43.9975" lon="2.09525">
        <ele>264</ele>
        <time>2010-07-25T08:04:31Z</time>
      </trkpt>
      <trkpt lat="43.99754" lon="2.09557">
        <ele>264</ele>
        <time>2010-07-25T08:04:48Z</time>
      </trkpt>
      <trkpt lat="43.99749" lon="2.09569">
        <ele>262</ele>
        <time>2010-07-25T08:04:56Z</time>
      </trkpt>
      <trkpt lat="43.99745" lon="2.09594">
        <ele>263</ele>
        <time>2010-07-25T08:05:11Z</time>
      </trkpt>
      <trkpt lat="43.99763" lon="2.09615">
        <ele>265</ele>
        <time>2010-07-25T08:05:29Z</time>
      </trkpt>
      <trkpt lat="43.99776" lon="2.09635">
        <ele>266</ele>
        <time>2010-07-25T08:05:43Z</time>
      </trkpt>
      <trkpt lat="43.99784" lon="2.09646">
        <ele>265</ele>
        <time>2010-07-25T08:05:50Z</time>
      </trkpt>
      <trkpt lat="43.99799" lon="2.09678">
        <ele>265</ele>
        <time>2010-07-25T08:06:08Z</time>
      </trkpt>
      <trkpt lat="43.99814" lon="2.09726">
        <ele>265</ele>
        <time>2010-07-25T08:06:31Z</time>
      </trkpt>
      <trkpt lat="43.99821" lon="2.09767">
        <ele>265</ele>
        <time>2010-07-25T08:06:50Z</time>
      </trkpt>
      <trkpt lat="43.99827" lon="2.09798">
        <ele>266</ele>
        <time>2010-07-25T08:07:06Z</time>
      </trkpt>
      <trkpt lat="43.99841" lon="2.09832">
        <ele>265</ele>
        <time>2010-07-25T08:07:24Z</time>
      </trkpt>
      <trkpt lat="43.99843" lon="2.09835">
        <ele>264</ele>
        <time>2010-07-25T08:07:26Z</time>
      </trkpt>
      <trkpt lat="43.99845" lon="2.09843">
        <ele>264</ele>
        <time>2010-07-25T08:07:30Z</time>
      </trkpt>
      <trkpt lat="43.99849" lon="2.09849">
        <ele>265</ele>
        <time>2010-07-25T08:07:35Z</time>
      </trkpt>
      <trkpt lat="43.99867" lon="2.09846">
        <ele>266</ele>
        <time>2010-07-25T08:07:49Z</time>
      </trkpt>
      <trkpt lat="43.99897" lon="2.0984">
        <ele>269</ele>
        <time>2010-07-25T08:08:08Z</time>
      </trkpt>
      <trkpt lat="43.9993" lon="2.09832">
        <ele>269</ele>
        <time>2010-07-25T08:08:26Z</time>
      </trkpt>
      <trkpt lat="43.99967" lon="2.09822">
        <ele>268</ele>
        <time>2010-07-25T08:08:41Z</time>
      </trkpt>
      <trkpt lat="43.99969" lon="2.09785">
        <ele>267</ele>
        <time>2010-07-25T08:08:58Z</time>
      </trkpt>
      <trkpt lat="43.99968" lon="2.09758">
        <ele>266</ele>
        <time>2010-07-25T08:09:14Z</time>
      </trkpt>
      <trkpt lat="43.99969" lon="2.09742">
        <ele>266</ele>
        <time>2010-07-25T08:09:29Z</time>
      </trkpt>
      <trkpt lat="43.99969" lon="2.09714">
        <ele>267</ele>
        <time>2010-07-25T08:09:42Z</time>
      </trkpt>
      <trkpt lat="43.99968" lon="2.09672">
        <ele>266</ele>
        <time>2010-07-25T08:10:02Z</time>
      </trkpt>
      <trkpt lat="43.99965" lon="2.09629">
        <ele>265</ele>
        <time>2010-07-25T08:10:22Z</time>
      </trkpt>
      <trkpt lat="43.99962" lon="2.09578">
        <ele>266</ele>
        <time>2010-07-25T08:10:44Z</time>
      </trkpt>
      <trkpt lat="43.99961" lon="2.09529">
        <ele>265</ele>
        <time>2010-07-25T08:11:05Z</time>
      </trkpt>
      <trkpt lat="43.99946" lon="2.0948">
        <ele>265</ele>
        <time>2010-07-25T08:11:28Z</time>
      </trkpt>
      <trkpt lat="43.99937" lon="2.09432">
        <ele>264</ele>
        <time>2010-07-25T08:11:52Z</time>
      </trkpt>
      <trkpt lat="43.99935" lon="2.09382">
        <ele>262</ele>
        <time>2010-07-25T08:12:15Z</time>
      </trkpt>
      <trkpt lat="43.99934" lon="2.09337">
        <ele>263</ele>
        <time>2010-07-25T08:12:36Z</time>
      </trkpt>
      <trkpt lat="43.99924" lon="2.09294">
        <ele>263</ele>
        <time>2010-07-25T08:12:57Z</time>
      </trkpt>
      <trkpt lat="43.99914" lon="2.0925">
        <ele>263</ele>
        <time>2010-07-25T08:13:14Z</time>
      </trkpt>
      <trkpt lat="43.99902" lon="2.09194">
        <ele>264</ele>
        <time>2010-07-25T08:13:39Z</time>
      </trkpt>
      <trkpt lat="43.99891" lon="2.09139">
        <ele>264</ele>
        <time>2010-07-25T08:14:04Z</time>
      </trkpt>
      <trkpt lat="43.99897" lon="2.09094">
        <ele>264</ele>
        <time>2010-07-25T08:14:25Z</time>
      </trkpt>
      <trkpt lat="43.99924" lon="2.09055">
        <ele>264</ele>
        <time>2010-07-25T08:14:49Z</time>
      </trkpt>
      <trkpt lat="43.99951" lon="2.09029">
        <ele>265</ele>
        <time>2010-07-25T08:15:10Z</time>
      </trkpt>
      <trkpt lat="43.99981" lon="2.09004">
        <ele>266</ele>
        <time>2010-07-25T08:15:32Z</time>
      </trkpt>
      <trkpt lat="44.00002" lon="2.08988">
        <ele>265</ele>
        <time>2010-07-25T08:15:48Z</time>
      </trkpt>
      <trkpt lat="44.00027" lon="2.08964">
        <ele>266</ele>
        <time>2010-07-25T08:16:07Z</time>
      </trkpt>
      <trkpt lat="44.00059" lon="2.08944">
        <ele>264</ele>
        <time>2010-07-25T08:16:28Z</time>
      </trkpt>
      <trkpt lat="44.00075" lon="2.08934">
        <ele>266</ele>
        <time>2010-07-25T08:16:42Z</time>
      </trkpt>
      <trkpt lat="44.00096" lon="2.08923">
        <ele>267</ele>
        <time>2010-07-25T08:16:56Z</time>
      </trkpt>
      <trkpt lat="44.00096" lon="2.08908">
        <ele>267</ele>
        <time>2010-07-25T08:17:07Z</time>
      </trkpt>
      <trkpt lat="44.00093" lon="2.08898">
        <ele>266</ele>
        <time>2010-07-25T08:17:23Z</time>
      </trkpt>
      <trkpt lat="44.00096" lon="2.08895">
        <ele>268</ele>
        <time>2010-07-25T08:17:47Z</time>
      </trkpt>
      <trkpt lat="44.00096" lon="2.08895">
        <ele>268</ele>
        <time>2010-07-25T08:17:48Z</time>
      </trkpt>
      <trkpt lat="44.00067" lon="2.08898">
        <ele>267</ele>
        <time>2010-07-25T08:18:03Z</time>
      </trkpt>
      <trkpt lat="44.00017" lon="2.0891">
        <ele>263</ele>
        <time>2010-07-25T08:18:18Z</time>
      </trkpt>
      <trkpt lat="43.99967" lon="2.08915">
        <ele>263</ele>
        <time>2010-07-25T08:18:33Z</time>
      </trkpt>
      <trkpt lat="43.99929" lon="2.0892">
        <ele>263</ele>
        <time>2010-07-25T08:18:45Z</time>
      </trkpt>
      <trkpt lat="43.99887" lon="2.08926">
        <ele>263</ele>
        <time>2010-07-25T08:19:01Z</time>
      </trkpt>
      <trkpt lat="43.9987" lon="2.0891">
        <ele>264</ele>
        <time>2010-07-25T08:19:11Z</time>
      </trkpt>
      <trkpt lat="43.99869" lon="2.0891">
        <ele>264</ele>
        <time>2010-07-25T08:19:12Z</time>
      </trkpt>
      <trkpt lat="43.99877" lon="2.08886">
        <ele>266</ele>
        <time>2010-07-25T08:19:27Z</time>
      </trkpt>
      <trkpt lat="43.99894" lon="2.0885">
        <ele>271</ele>
        <time>2010-07-25T08:19:48Z</time>
      </trkpt>
      <trkpt lat="43.99912" lon="2.08815">
        <ele>274</ele>
        <time>2010-07-25T08:20:10Z</time>
      </trkpt>
      <trkpt lat="43.99935" lon="2.08779">
        <ele>276</ele>
        <time>2010-07-25T08:20:31Z</time>
      </trkpt>
      <trkpt lat="43.99961" lon="2.08749">
        <ele>277</ele>
        <time>2010-07-25T08:20:53Z</time>
      </trkpt>
      <trkpt lat="43.99973" lon="2.08729">
        <ele>279</ele>
        <time>2010-07-25T08:21:06Z</time>
      </trkpt>
      <trkpt lat="43.99976" lon="2.0871">
        <ele>278</ele>
        <time>2010-07-25T08:21:16Z</time>
      </trkpt>
      <trkpt lat="44.00002" lon="2.08683">
        <ele>278</ele>
        <time>2010-07-25T08:21:33Z</time>
      </trkpt>
      <trkpt lat="44.00017" lon="2.08649">
        <ele>278</ele>
        <time>2010-07-25T08:21:49Z</time>
      </trkpt>
      <trkpt lat="44.00007" lon="2.08565">
        <ele>277</ele>
        <time>2010-07-25T08:22:05Z</time>
      </trkpt>
      <trkpt lat="43.99997" lon="2.08439">
        <ele>275</ele>
        <time>2010-07-25T08:22:15Z</time>
      </trkpt>
      <trkpt lat="43.99998" lon="2.08296">
        <ele>274</ele>
        <time>2010-07-25T08:22:26Z</time>
      </trkpt>
      <trkpt lat="43.99999" lon="2.0827">
        <ele>274</ele>
        <time>2010-07-25T08:22:28Z</time>
      </trkpt>
      <trkpt lat="44.00001" lon="2.08163">
        <ele>271</ele>
        <time>2010-07-25T08:22:37Z</time>
      </trkpt>
      <trkpt lat="44.0001" lon="2.08117">
        <ele>270</ele>
        <time>2010-07-25T08:22:41Z</time>
      </trkpt>
      <trkpt lat="44.00027" lon="2.07998">
        <ele>269</ele>
        <time>2010-07-25T08:22:51Z</time>
      </trkpt>
      <trkpt lat="44.00028" lon="2.07986">
        <ele>269</ele>
        <time>2010-07-25T08:22:52Z</time>
      </trkpt>
      <trkpt lat="44.00026" lon="2.07946">
        <ele>272</ele>
        <time>2010-07-25T08:22:56Z</time>
      </trkpt>
      <trkpt lat="44.00024" lon="2.07913">
        <ele>274</ele>
        <time>2010-07-25T08:23:05Z</time>
      </trkpt>
      <trkpt lat="44.00013" lon="2.07907">
        <ele>277</ele>
        <time>2010-07-25T08:23:15Z</time>
      </trkpt>
      <trkpt lat="44.00011" lon="2.07903">
        <ele>277</ele>
        <time>2010-07-25T08:23:18Z</time>
      </trkpt>
      <trkpt lat="44.00009" lon="2.07902">
        <ele>277</ele>
        <time>2010-07-25T08:23:31Z</time>
      </trkpt>
      <trkpt lat="44.00007" lon="2.07907">
        <ele>277</ele>
        <time>2010-07-25T08:23:44Z</time>
      </trkpt>
      <trkpt lat="44.00009" lon="2.07906">
        <ele>279</ele>
        <time>2010-07-25T08:24:00Z</time>
      </trkpt>
      <trkpt lat="44.00012" lon="2.07902">
        <ele>280</ele>
        <time>2010-07-25T08:24:20Z</time>
      </trkpt>
      <trkpt lat="44.00009" lon="2.07902">
        <ele>281</ele>
        <time>2010-07-25T08:24:40Z</time>
      </trkpt>
      <trkpt lat="44.00008" lon="2.07905">
        <ele>280</ele>
        <time>2010-07-25T08:25:05Z</time>
      </trkpt>
      <trkpt lat="44.00008" lon="2.0791">
        <ele>281</ele>
        <time>2010-07-25T08:25:21Z</time>
      </trkpt>
      <trkpt lat="44.00008" lon="2.07912">
        <ele>282</ele>
        <time>2010-07-25T08:25:46Z</time>
      </trkpt>
      <trkpt lat="44.00008" lon="2.07912">
        <ele>281</ele>
        <time>2010-07-25T08:25:55Z</time>
      </trkpt>
      <trkpt lat="44.0002" lon="2.07891">
        <ele>282</ele>
        <time>2010-07-25T08:26:08Z</time>
      </trkpt>
      <trkpt lat="44.00033" lon="2.07876">
        <ele>284</ele>
        <time>2010-07-25T08:26:20Z</time>
      </trkpt>
      <trkpt lat="44.00059" lon="2.0785">
        <ele>285</ele>
        <time>2010-07-25T08:26:34Z</time>
      </trkpt>
      <trkpt lat="44.00105" lon="2.07822">
        <ele>290</ele>
        <time>2010-07-25T08:26:49Z</time>
      </trkpt>
      <trkpt lat="44.00136" lon="2.07805">
        <ele>295</ele>
        <time>2010-07-25T08:26:59Z</time>
      </trkpt>
      <trkpt lat="44.00176" lon="2.07785">
        <ele>300</ele>
        <time>2010-07-25T08:27:12Z</time>
      </trkpt>
      <trkpt lat="44.00191" lon="2.07778">
        <ele>301</ele>
        <time>2010-07-25T08:27:16Z</time>
      </trkpt>
      <trkpt lat="44.00209" lon="2.07765">
        <ele>303</ele>
        <time>2010-07-25T08:27:21Z</time>
      </trkpt>
      <trkpt lat="44.00222" lon="2.07717">
        <ele>305</ele>
        <time>2010-07-25T08:27:33Z</time>
      </trkpt>
      <trkpt lat="44.00249" lon="2.07649">
        <ele>307</ele>
        <time>2010-07-25T08:27:47Z</time>
      </trkpt>
      <trkpt lat="44.00277" lon="2.07589">
        <ele>305</ele>
        <time>2010-07-25T08:27:54Z</time>
      </trkpt>
      <trkpt lat="44.00285" lon="2.07577">
        <ele>306</ele>
        <time>2010-07-25T08:27:56Z</time>
      </trkpt>
      <trkpt lat="44.00305" lon="2.07539">
        <ele>303</ele>
        <time>2010-07-25T08:28:05Z</time>
      </trkpt>
      <trkpt lat="44.00326" lon="2.07497">
        <ele>303</ele>
        <time>2010-07-25T08:28:16Z</time>
      </trkpt>
      <trkpt lat="44.0033" lon="2.07493">
        <ele>303</ele>
        <time>2010-07-25T08:28:18Z</time>
      </trkpt>
      <trkpt lat="44.00341" lon="2.07496">
        <ele>304</ele>
        <time>2010-07-25T08:28:22Z</time>
      </trkpt>
      <trkpt lat="44.00387" lon="2.07515">
        <ele>310</ele>
        <time>2010-07-25T08:28:37Z</time>
      </trkpt>
      <trkpt lat="44.00427" lon="2.07531">
        <ele>313</ele>
        <time>2010-07-25T08:28:49Z</time>
      </trkpt>
      <trkpt lat="44.0045" lon="2.07537">
        <ele>313</ele>
        <time>2010-07-25T08:28:55Z</time>
      </trkpt>
      <trkpt lat="44.00494" lon="2.07544">
        <ele>318</ele>
        <time>2010-07-25T08:29:05Z</time>
      </trkpt>
      <trkpt lat="44.00513" lon="2.07539">
        <ele>316</ele>
        <time>2010-07-25T08:29:14Z</time>
      </trkpt>
      <trkpt lat="44.00526" lon="2.07513">
        <ele>311</ele>
        <time>2010-07-25T08:29:28Z</time>
      </trkpt>
      <trkpt lat="44.00535" lon="2.07485">
        <ele>310</ele>
        <time>2010-07-25T08:29:42Z</time>
      </trkpt>
      <trkpt lat="44.00542" lon="2.07454">
        <ele>308</ele>
        <time>2010-07-25T08:29:59Z</time>
      </trkpt>
      <trkpt lat="44.00543" lon="2.0745">
        <ele>307</ele>
        <time>2010-07-25T08:30:01Z</time>
      </trkpt>
      <trkpt lat="44.00551" lon="2.07442">
        <ele>305</ele>
        <time>2010-07-25T08:30:07Z</time>
      </trkpt>
      <trkpt lat="44.00551" lon="2.07433">
        <ele>303</ele>
        <time>2010-07-25T08:30:11Z</time>
      </trkpt>
      <trkpt lat="44.00556" lon="2.07423">
        <ele>300</ele>
        <time>2010-07-25T08:30:17Z</time>
      </trkpt>
      <trkpt lat="44.0056" lon="2.07387">
        <ele>300</ele>
        <time>2010-07-25T08:30:34Z</time>
      </trkpt>
      <trkpt lat="44.00567" lon="2.07338">
        <ele>299</ele>
        <time>2010-07-25T08:30:58Z</time>
      </trkpt>
      <trkpt lat="44.0057" lon="2.07297">
        <ele>299</ele>
        <time>2010-07-25T08:31:19Z</time>
      </trkpt>
      <trkpt lat="44.00572" lon="2.07274">
        <ele>298</ele>
        <time>2010-07-25T08:31:32Z</time>
      </trkpt>
      <trkpt lat="44.00575" lon="2.07243">
        <ele>297</ele>
        <time>2010-07-25T08:31:47Z</time>
      </trkpt>
      <trkpt lat="44.00577" lon="2.07229">
        <ele>296</ele>
        <time>2010-07-25T08:31:55Z</time>
      </trkpt>
      <trkpt lat="44.0058" lon="2.0722">
        <ele>293</ele>
        <time>2010-07-25T08:32:01Z</time>
      </trkpt>
      <trkpt lat="44.0058" lon="2.07207">
        <ele>291</ele>
        <time>2010-07-25T08:32:09Z</time>
      </trkpt>
      <trkpt lat="44.00579" lon="2.07197">
        <ele>290</ele>
        <time>2010-07-25T08:32:15Z</time>
      </trkpt>
      <trkpt lat="44.00578" lon="2.07192">
        <ele>289</ele>
        <time>2010-07-25T08:32:18Z</time>
      </trkpt>
      <trkpt lat="44.0057" lon="2.0717">
        <ele>287</ele>
        <time>2010-07-25T08:32:31Z</time>
      </trkpt>
      <trkpt lat="44.00546" lon="2.0713">
        <ele>282</ele>
        <time>2010-07-25T08:32:57Z</time>
      </trkpt>
      <trkpt lat="44.00548" lon="2.07111">
        <ele>281</ele>
        <time>2010-07-25T08:33:06Z</time>
      </trkpt>
      <trkpt lat="44.00555" lon="2.07071">
        <ele>285</ele>
        <time>2010-07-25T08:33:24Z</time>
      </trkpt>
      <trkpt lat="44.00555" lon="2.07063">
        <ele>286</ele>
        <time>2010-07-25T08:33:27Z</time>
      </trkpt>
      <trkpt lat="44.00557" lon="2.07051">
        <ele>286</ele>
        <time>2010-07-25T08:33:33Z</time>
      </trkpt>
      <trkpt lat="44.00552" lon="2.07019">
        <ele>283</ele>
        <time>2010-07-25T08:33:50Z</time>
      </trkpt>
      <trkpt lat="44.00545" lon="2.07006">
        <ele>283</ele>
        <time>2010-07-25T08:33:59Z</time>
      </trkpt>
      <trkpt lat="44.00535" lon="2.07">
        <ele>283</ele>
        <time>2010-07-25T08:34:09Z</time>
      </trkpt>
      <trkpt lat="44.00532" lon="2.06999">
        <ele>284</ele>
        <time>2010-07-25T08:34:13Z</time>
      </trkpt>
      <trkpt lat="44.00511" lon="2.07">
        <ele>279</ele>
        <time>2010-07-25T08:34:31Z</time>
      </trkpt>
      <trkpt lat="44.00495" lon="2.06998">
        <ele>277</ele>
        <time>2010-07-25T08:34:46Z</time>
      </trkpt>
      <trkpt lat="44.00491" lon="2.06991">
        <ele>279</ele>
        <time>2010-07-25T08:34:51Z</time>
      </trkpt>
      <trkpt lat="44.00498" lon="2.06953">
        <ele>277</ele>
        <time>2010-07-25T08:35:10Z</time>
      </trkpt>
      <trkpt lat="44.00493" lon="2.06956">
        <ele>274</ele>
        <time>2010-07-25T08:35:18Z</time>
      </trkpt>
      <trkpt lat="44.00474" lon="2.06971">
        <ele>269</ele>
        <time>2010-07-25T08:35:34Z</time>
      </trkpt>
      <trkpt lat="44.00456" lon="2.06965">
        <ele>268</ele>
        <time>2010-07-25T08:35:47Z</time>
      </trkpt>
      <trkpt lat="44.0044" lon="2.06944">
        <ele>268</ele>
        <time>2010-07-25T08:35:59Z</time>
      </trkpt>
      <trkpt lat="44.00417" lon="2.06929">
        <ele>265</ele>
        <time>2010-07-25T08:36:14Z</time>
      </trkpt>
      <trkpt lat="44.00381" lon="2.06916">
        <ele>264</ele>
        <time>2010-07-25T08:36:37Z</time>
      </trkpt>
      <trkpt lat="44.00368" lon="2.06907">
        <ele>264</ele>
        <time>2010-07-25T08:36:48Z</time>
      </trkpt>
      <trkpt lat="44.00366" lon="2.06886">
        <ele>264</ele>
        <time>2010-07-25T08:36:57Z</time>
      </trkpt>
      <trkpt lat="44.00364" lon="2.06851">
        <ele>266</ele>
        <time>2010-07-25T08:37:11Z</time>
      </trkpt>
      <trkpt lat="44.00363" lon="2.06794">
        <ele>267</ele>
        <time>2010-07-25T08:37:24Z</time>
      </trkpt>
      <trkpt lat="44.00345" lon="2.06774">
        <ele>266</ele>
        <time>2010-07-25T08:37:33Z</time>
      </trkpt>
      <trkpt lat="44.00329" lon="2.06766">
        <ele>267</ele>
        <time>2010-07-25T08:37:47Z</time>
      </trkpt>
      <trkpt lat="44.00308" lon="2.06769">
        <ele>269</ele>
        <time>2010-07-25T08:38:03Z</time>
      </trkpt>
      <trkpt lat="44.0028" lon="2.06763">
        <ele>271</ele>
        <time>2010-07-25T08:38:23Z</time>
      </trkpt>
      <trkpt lat="44.00252" lon="2.06747">
        <ele>271</ele>
        <time>2010-07-25T08:38:42Z</time>
      </trkpt>
      <trkpt lat="44.00229" lon="2.06702">
        <ele>266</ele>
        <time>2010-07-25T08:39:05Z</time>
      </trkpt>
      <trkpt lat="44.00195" lon="2.06674">
        <ele>266</ele>
        <time>2010-07-25T08:39:20Z</time>
      </trkpt>
      <trkpt lat="44.00148" lon="2.06665">
        <ele>270</ele>
        <time>2010-07-25T08:39:36Z</time>
      </trkpt>
      <trkpt lat="44.00119" lon="2.06658">
        <ele>274</ele>
        <time>2010-07-25T08:39:47Z</time>
      </trkpt>
      <trkpt lat="44.00067" lon="2.06638">
        <ele>272</ele>
        <time>2010-07-25T08:40:04Z</time>
      </trkpt>
      <trkpt lat="44.00045" lon="2.06617">
        <ele>271</ele>
        <time>2010-07-25T08:40:18Z</time>
      </trkpt>
      <trkpt lat="44.00015" lon="2.06584">
        <ele>270</ele>
        <time>2010-07-25T08:40:43Z</time>
      </trkpt>
      <trkpt lat="44.00014" lon="2.0658">
        <ele>270</ele>
        <time>2010-07-25T08:40:46Z</time>
      </trkpt>
      <trkpt lat="44.00035" lon="2.06561">
        <ele>271</ele>
        <time>2010-07-25T08:41:05Z</time>
      </trkpt>
      <trkpt lat="44.00061" lon="2.06547">
        <ele>271</ele>
        <time>2010-07-25T08:41:24Z</time>
      </trkpt>
      <trkpt lat="44.00074" lon="2.06542">
        <ele>272</ele>
        <time>2010-07-25T08:41:38Z</time>
      </trkpt>
      <trkpt lat="44.00091" lon="2.06532">
        <ele>274</ele>
        <time>2010-07-25T08:41:51Z</time>
      </trkpt>
      <trkpt lat="44.00115" lon="2.06519">
        <ele>276</ele>
        <time>2010-07-25T08:42:08Z</time>
      </trkpt>
      <trkpt lat="44.00139" lon="2.06507">
        <ele>277</ele>
        <time>2010-07-25T08:42:23Z</time>
      </trkpt>
      <trkpt lat="44.00159" lon="2.06495">
        <ele>279</ele>
        <time>2010-07-25T08:42:38Z</time>
      </trkpt>
      <trkpt lat="44.00165" lon="2.06491">
        <ele>278</ele>
        <time>2010-07-25T08:42:42Z</time>
      </trkpt>
      <trkpt lat="44.00194" lon="2.06473">
        <ele>280</ele>
        <time>2010-07-25T08:43:03Z</time>
      </trkpt>
      <trkpt lat="44.00222" lon="2.06453">
        <ele>280</ele>
        <time>2010-07-25T08:43:24Z</time>
      </trkpt>
      <trkpt lat="44.00241" lon="2.06438">
        <ele>281</ele>
        <time>2010-07-25T08:43:36Z</time>
      </trkpt>
      <trkpt lat="44.00267" lon="2.0642">
        <ele>284</ele>
        <time>2010-07-25T08:43:54Z</time>
      </trkpt>
      <trkpt lat="44.00285" lon="2.06411">
        <ele>287</ele>
        <time>2010-07-25T08:44:07Z</time>
      </trkpt>
      <trkpt lat="44.00301" lon="2.06407">
        <ele>289</ele>
        <time>2010-07-25T08:44:21Z</time>
      </trkpt>
      <trkpt lat="44.00313" lon="2.06403">
        <ele>289</ele>
        <time>2010-07-25T08:44:32Z</time>
      </trkpt>
      <trkpt lat="44.00341" lon="2.06389">
        <ele>290</ele>
        <time>2010-07-25T08:44:52Z</time>
      </trkpt>
      <trkpt lat="44.00372" lon="2.06385">
        <ele>290</ele>
        <time>2010-07-25T08:45:12Z</time>
      </trkpt>
      <trkpt lat="44.00395" lon="2.06384">
        <ele>292</ele>
        <time>2010-07-25T08:45:29Z</time>
      </trkpt>
      <trkpt lat="44.00421" lon="2.06385">
        <ele>292</ele>
        <time>2010-07-25T08:45:45Z</time>
      </trkpt>
      <trkpt lat="44.00441" lon="2.06386">
        <ele>295</ele>
        <time>2010-07-25T08:46:01Z</time>
      </trkpt>
      <trkpt lat="44.0047" lon="2.06388">
        <ele>295</ele>
        <time>2010-07-25T08:46:21Z</time>
      </trkpt>
      <trkpt lat="44.00495" lon="2.06388">
        <ele>297</ele>
        <time>2010-07-25T08:46:37Z</time>
      </trkpt>
      <trkpt lat="44.00523" lon="2.06391">
        <ele>298</ele>
        <time>2010-07-25T08:46:55Z</time>
      </trkpt>
      <trkpt lat="44.00545" lon="2.06389">
        <ele>299</ele>
        <time>2010-07-25T08:47:10Z</time>
      </trkpt>
      <trkpt lat="44.00567" lon="2.06386">
        <ele>300</ele>
        <time>2010-07-25T08:47:25Z</time>
      </trkpt>
      <trkpt lat="44.00588" lon="2.06385">
        <ele>302</ele>
        <time>2010-07-25T08:47:39Z</time>
      </trkpt>
      <trkpt lat="44.00612" lon="2.06384">
        <ele>300</ele>
        <time>2010-07-25T08:47:54Z</time>
      </trkpt>
      <trkpt lat="44.00634" lon="2.06363">
        <ele>298</ele>
        <time>2010-07-25T08:48:14Z</time>
      </trkpt>
      <trkpt lat="44.0064" lon="2.06327">
        <ele>299</ele>
        <time>2010-07-25T08:48:32Z</time>
      </trkpt>
      <trkpt lat="44.00643" lon="2.06312">
        <ele>298</ele>
        <time>2010-07-25T08:48:39Z</time>
      </trkpt>
      <trkpt lat="44.00648" lon="2.0628">
        <ele>298</ele>
        <time>2010-07-25T08:48:55Z</time>
      </trkpt>
      <trkpt lat="44.0066" lon="2.06235">
        <ele>298</ele>
        <time>2010-07-25T08:49:18Z</time>
      </trkpt>
      <trkpt lat="44.00674" lon="2.06214">
        <ele>299</ele>
        <time>2010-07-25T08:49:32Z</time>
      </trkpt>
      <trkpt lat="44.00698" lon="2.06191">
        <ele>298</ele>
        <time>2010-07-25T08:49:51Z</time>
      </trkpt>
      <trkpt lat="44.00719" lon="2.06173">
        <ele>297</ele>
        <time>2010-07-25T08:50:07Z</time>
      </trkpt>
      <trkpt lat="44.00719" lon="2.06146">
        <ele>296</ele>
        <time>2010-07-25T08:50:21Z</time>
      </trkpt>
      <trkpt lat="44.00711" lon="2.06122">
        <ele>296</ele>
        <time>2010-07-25T08:50:35Z</time>
      </trkpt>
      <trkpt lat="44.00692" lon="2.06089">
        <ele>291</ele>
        <time>2010-07-25T08:50:54Z</time>
      </trkpt>
      <trkpt lat="44.0068" lon="2.06077">
        <ele>289</ele>
        <time>2010-07-25T08:51:05Z</time>
      </trkpt>
      <trkpt lat="44.00661" lon="2.06062">
        <ele>288</ele>
        <time>2010-07-25T08:51:22Z</time>
      </trkpt>
      <trkpt lat="44.00646" lon="2.06047">
        <ele>289</ele>
        <time>2010-07-25T08:51:36Z</time>
      </trkpt>
      <trkpt lat="44.00641" lon="2.06042">
        <ele>290</ele>
        <time>2010-07-25T08:51:40Z</time>
      </trkpt>
      <trkpt lat="44.0063" lon="2.06009">
        <ele>289</ele>
        <time>2010-07-25T08:51:57Z</time>
      </trkpt>
      <trkpt lat="44.00624" lon="2.05987">
        <ele>284</ele>
        <time>2010-07-25T08:52:11Z</time>
      </trkpt>
      <trkpt lat="44.0061" lon="2.05939">
        <ele>277</ele>
        <time>2010-07-25T08:52:36Z</time>
      </trkpt>
      <trkpt lat="44.00598" lon="2.05899">
        <ele>274</ele>
        <time>2010-07-25T08:52:58Z</time>
      </trkpt>
      <trkpt lat="44.00589" lon="2.05854">
        <ele>275</ele>
        <time>2010-07-25T08:53:20Z</time>
      </trkpt>
      <trkpt lat="44.00584" lon="2.05801">
        <ele>280</ele>
        <time>2010-07-25T08:53:44Z</time>
      </trkpt>
      <trkpt lat="44.00579" lon="2.05741">
        <ele>285</ele>
        <time>2010-07-25T08:54:13Z</time>
      </trkpt>
      <trkpt lat="44.00579" lon="2.05713">
        <ele>287</ele>
        <time>2010-07-25T08:54:27Z</time>
      </trkpt>
      <trkpt lat="44.00576" lon="2.057">
        <ele>288</ele>
        <time>2010-07-25T08:54:33Z</time>
      </trkpt>
      <trkpt lat="44.00572" lon="2.05659">
        <ele>291</ele>
        <time>2010-07-25T08:54:53Z</time>
      </trkpt>
      <trkpt lat="44.00569" lon="2.05621">
        <ele>292</ele>
        <time>2010-07-25T08:55:11Z</time>
      </trkpt>
      <trkpt lat="44.00567" lon="2.05575">
        <ele>293</ele>
        <time>2010-07-25T08:55:33Z</time>
      </trkpt>
      <trkpt lat="44.00565" lon="2.05555">
        <ele>296</ele>
        <time>2010-07-25T08:55:43Z</time>
      </trkpt>
      <trkpt lat="44.00545" lon="2.05563">
        <ele>295</ele>
        <time>2010-07-25T08:55:58Z</time>
      </trkpt>
      <trkpt lat="44.00518" lon="2.05584">
        <ele>292</ele>
        <time>2010-07-25T08:56:18Z</time>
      </trkpt>
      <trkpt lat="44.00486" lon="2.05607">
        <ele>290</ele>
        <time>2010-07-25T08:56:36Z</time>
      </trkpt>
      <trkpt lat="44.00437" lon="2.05646">
        <ele>287</ele>
        <time>2010-07-25T08:56:50Z</time>
      </trkpt>
      <trkpt lat="44.00414" lon="2.05666">
        <ele>285</ele>
        <time>2010-07-25T08:56:53Z</time>
      </trkpt>
      <trkpt lat="44.00392" lon="2.05684">
        <ele>283</ele>
        <time>2010-07-25T08:56:57Z</time>
      </trkpt>
      <trkpt lat="44.00377" lon="2.05701">
        <ele>282</ele>
        <time>2010-07-25T08:57:00Z</time>
      </trkpt>
      <trkpt lat="44.00362" lon="2.05716">
        <ele>281</ele>
        <time>2010-07-25T08:57:03Z</time>
      </trkpt>
      <trkpt lat="44.00334" lon="2.0575">
        <ele>281</ele>
        <time>2010-07-25T08:57:12Z</time>
      </trkpt>
      <trkpt lat="44.0033" lon="2.05748">
        <ele>285</ele>
        <time>2010-07-25T08:57:27Z</time>
      </trkpt>
      <trkpt lat="44.00311" lon="2.05759">
        <ele>284</ele>
        <time>2010-07-25T08:57:37Z</time>
      </trkpt>
      <trkpt lat="44.00278" lon="2.05776">
        <ele>281</ele>
        <time>2010-07-25T08:57:57Z</time>
      </trkpt>
      <trkpt lat="44.00255" lon="2.05791">
        <ele>278</ele>
        <time>2010-07-25T08:58:12Z</time>
      </trkpt>
      <trkpt lat="44.00231" lon="2.05805">
        <ele>276</ele>
        <time>2010-07-25T08:58:24Z</time>
      </trkpt>
      <trkpt lat="44.00187" lon="2.05812">
        <ele>270</ele>
        <time>2010-07-25T08:58:40Z</time>
      </trkpt>
      <trkpt lat="44.00161" lon="2.05798">
        <ele>267</ele>
        <time>2010-07-25T08:58:56Z</time>
      </trkpt>
      <trkpt lat="44.00143" lon="2.05788">
        <ele>268</ele>
        <time>2010-07-25T08:59:08Z</time>
      </trkpt>
      <trkpt lat="44.00117" lon="2.05775">
        <ele>267</ele>
        <time>2010-07-25T08:59:24Z</time>
      </trkpt>
      <trkpt lat="44.00112" lon="2.05776">
        <ele>266</ele>
        <time>2010-07-25T08:59:27Z</time>
      </trkpt>
      <trkpt lat="44.00106" lon="2.05774">
        <ele>266</ele>
        <time>2010-07-25T08:59:42Z</time>
      </trkpt>
      <trkpt lat="44.00107" lon="2.05776">
        <ele>269</ele>
        <time>2010-07-25T08:59:55Z</time>
      </trkpt>
      <trkpt lat="44.00107" lon="2.05774">
        <ele>269</ele>
        <time>2010-07-25T08:59:56Z</time>
      </trkpt>
      <trkpt lat="44.00112" lon="2.05739">
        <ele>271</ele>
        <time>2010-07-25T09:00:13Z</time>
      </trkpt>
      <trkpt lat="44.0012" lon="2.05714">
        <ele>271</ele>
        <time>2010-07-25T09:00:29Z</time>
      </trkpt>
      <trkpt lat="44.0013" lon="2.05683">
        <ele>271</ele>
        <time>2010-07-25T09:00:42Z</time>
      </trkpt>
      <trkpt lat="44.00131" lon="2.05682">
        <ele>271</ele>
        <time>2010-07-25T09:00:43Z</time>
      </trkpt>
      <trkpt lat="44.00141" lon="2.05655">
        <ele>272</ele>
        <time>2010-07-25T09:00:56Z</time>
      </trkpt>
      <trkpt lat="44.00163" lon="2.05596">
        <ele>270</ele>
        <time>2010-07-25T09:01:09Z</time>
      </trkpt>
      <trkpt lat="44.00177" lon="2.05562">
        <ele>268</ele>
        <time>2010-07-25T09:01:20Z</time>
      </trkpt>
      <trkpt lat="44.00179" lon="2.05555">
        <ele>266</ele>
        <time>2010-07-25T09:01:23Z</time>
      </trkpt>
      <trkpt lat="44.00173" lon="2.05544">
        <ele>262</ele>
        <time>2010-07-25T09:01:28Z</time>
      </trkpt>
      <trkpt lat="44.00142" lon="2.05512">
        <ele>254</ele>
        <time>2010-07-25T09:01:46Z</time>
      </trkpt>
      <trkpt lat="44.00115" lon="2.05483">
        <ele>246</ele>
        <time>2010-07-25T09:02:00Z</time>
      </trkpt>
      <trkpt lat="44.00074" lon="2.05491">
        <ele>242</ele>
        <time>2010-07-25T09:02:13Z</time>
      </trkpt>
      <trkpt lat="44.00056" lon="2.05476">
        <ele>243</ele>
        <time>2010-07-25T09:02:25Z</time>
      </trkpt>
      <trkpt lat="44.00046" lon="2.05447">
        <ele>243</ele>
        <time>2010-07-25T09:02:41Z</time>
      </trkpt>
      <trkpt lat="44.00021" lon="2.05432">
        <ele>243</ele>
        <time>2010-07-25T09:03:01Z</time>
      </trkpt>
      <trkpt lat="44.00001" lon="2.05449">
        <ele>242</ele>
        <time>2010-07-25T09:03:18Z</time>
      </trkpt>
      <trkpt lat="43.99982" lon="2.05461">
        <ele>242</ele>
        <time>2010-07-25T09:03:33Z</time>
      </trkpt>
      <trkpt lat="43.99956" lon="2.05486">
        <ele>242</ele>
        <time>2010-07-25T09:03:50Z</time>
      </trkpt>
      <trkpt lat="43.99927" lon="2.0551">
        <ele>243</ele>
        <time>2010-07-25T09:04:02Z</time>
      </trkpt>
      <trkpt lat="43.99892" lon="2.05498">
        <ele>243</ele>
        <time>2010-07-25T09:04:15Z</time>
      </trkpt>
      <trkpt lat="43.99876" lon="2.05426">
        <ele>245</ele>
        <time>2010-07-25T09:04:30Z</time>
      </trkpt>
      <trkpt lat="43.99866" lon="2.05401">
        <ele>246</ele>
        <time>2010-07-25T09:04:35Z</time>
      </trkpt>
      <trkpt lat="43.99863" lon="2.05391">
        <ele>247</ele>
        <time>2010-07-25T09:04:37Z</time>
      </trkpt>
      <trkpt lat="43.99854" lon="2.05298">
        <ele>253</ele>
        <time>2010-07-25T09:04:54Z</time>
      </trkpt>
      <trkpt lat="43.99834" lon="2.05244">
        <ele>259</ele>
        <time>2010-07-25T09:05:06Z</time>
      </trkpt>
      <trkpt lat="43.9982" lon="2.05238">
        <ele>262</ele>
        <time>2010-07-25T09:05:10Z</time>
      </trkpt>
      <trkpt lat="43.998" lon="2.05224">
        <ele>268</ele>
        <time>2010-07-25T09:05:17Z</time>
      </trkpt>
      <trkpt lat="43.99776" lon="2.05161">
        <ele>264</ele>
        <time>2010-07-25T09:05:31Z</time>
      </trkpt>
      <trkpt lat="43.99761" lon="2.05118">
        <ele>261</ele>
        <time>2010-07-25T09:05:47Z</time>
      </trkpt>
      <trkpt lat="43.99731" lon="2.05053">
        <ele>260</ele>
        <time>2010-07-25T09:06:02Z</time>
      </trkpt>
      <trkpt lat="43.99727" lon="2.05023">
        <ele>263</ele>
        <time>2010-07-25T09:06:08Z</time>
      </trkpt>
      <trkpt lat="43.99725" lon="2.05006">
        <ele>264</ele>
        <time>2010-07-25T09:06:11Z</time>
      </trkpt>
      <trkpt lat="43.99723" lon="2.04964">
        <ele>271</ele>
        <time>2010-07-25T09:06:20Z</time>
      </trkpt>
      <trkpt lat="43.9972" lon="2.04959">
        <ele>276</ele>
        <time>2010-07-25T09:06:30Z</time>
      </trkpt>
      <trkpt lat="43.99722" lon="2.04963">
        <ele>272</ele>
        <time>2010-07-25T09:06:44Z</time>
      </trkpt>
      <trkpt lat="43.99713" lon="2.04931">
        <ele>276</ele>
        <time>2010-07-25T09:07:00Z</time>
      </trkpt>
      <trkpt lat="43.99698" lon="2.0489">
        <ele>275</ele>
        <time>2010-07-25T09:07:11Z</time>
      </trkpt>
      <trkpt lat="43.99682" lon="2.04856">
        <ele>277</ele>
        <time>2010-07-25T09:07:20Z</time>
      </trkpt>
      <trkpt lat="43.99671" lon="2.04843">
        <ele>278</ele>
        <time>2010-07-25T09:07:25Z</time>
      </trkpt>
      <trkpt lat="43.99667" lon="2.04824">
        <ele>288</ele>
        <time>2010-07-25T09:07:31Z</time>
      </trkpt>
      <trkpt lat="43.99663" lon="2.04798">
        <ele>292</ele>
        <time>2010-07-25T09:07:42Z</time>
      </trkpt>
      <trkpt lat="43.99647" lon="2.04753">
        <ele>293</ele>
        <time>2010-07-25T09:08:04Z</time>
      </trkpt>
      <trkpt lat="43.99617" lon="2.04686">
        <ele>294</ele>
        <time>2010-07-25T09:08:20Z</time>
      </trkpt>
      <trkpt lat="43.99605" lon="2.04678">
        <ele>291</ele>
        <time>2010-07-25T09:08:30Z</time>
      </trkpt>
      <trkpt lat="43.99601" lon="2.04663">
        <ele>293</ele>
        <time>2010-07-25T09:08:35Z</time>
      </trkpt>
      <trkpt lat="43.99555" lon="2.04622">
        <ele>292</ele>
        <time>2010-07-25T09:08:44Z</time>
      </trkpt>
      <trkpt lat="43.99539" lon="2.0461">
        <ele>293</ele>
        <time>2010-07-25T09:08:47Z</time>
      </trkpt>
      <trkpt lat="43.99487" lon="2.04572">
        <ele>290</ele>
        <time>2010-07-25T09:08:56Z</time>
      </trkpt>
      <trkpt lat="43.99442" lon="2.04549">
        <ele>289</ele>
        <time>2010-07-25T09:09:04Z</time>
      </trkpt>
      <trkpt lat="43.99414" lon="2.04533">
        <ele>288</ele>
        <time>2010-07-25T09:09:16Z</time>
      </trkpt>
      <trkpt lat="43.99392" lon="2.04545">
        <ele>284</ele>
        <time>2010-07-25T09:09:31Z</time>
      </trkpt>
      <trkpt lat="43.99391" lon="2.04546">
        <ele>283</ele>
        <time>2010-07-25T09:09:32Z</time>
      </trkpt>
      <trkpt lat="43.99384" lon="2.04556">
        <ele>280</ele>
        <time>2010-07-25T09:09:39Z</time>
      </trkpt>
      <trkpt lat="43.99374" lon="2.04571">
        <ele>277</ele>
        <time>2010-07-25T09:09:52Z</time>
      </trkpt>
      <trkpt lat="43.99374" lon="2.04572">
        <ele>277</ele>
        <time>2010-07-25T09:09:53Z</time>
      </trkpt>
      <trkpt lat="43.99366" lon="2.0458">
        <ele>280</ele>
        <time>2010-07-25T09:10:00Z</time>
      </trkpt>
      <trkpt lat="43.99351" lon="2.04596">
        <ele>281</ele>
        <time>2010-07-25T09:10:13Z</time>
      </trkpt>
      <trkpt lat="43.9933" lon="2.04589">
        <ele>278</ele>
        <time>2010-07-25T09:10:26Z</time>
      </trkpt>
      <trkpt lat="43.99311" lon="2.04574">
        <ele>277</ele>
        <time>2010-07-25T09:10:39Z</time>
      </trkpt>
      <trkpt lat="43.99309" lon="2.04572">
        <ele>277</ele>
        <time>2010-07-25T09:10:40Z</time>
      </trkpt>
      <trkpt lat="43.99296" lon="2.04562">
        <ele>276</ele>
        <time>2010-07-25T09:10:50Z</time>
      </trkpt>
      <trkpt lat="43.99288" lon="2.04556">
        <ele>277</ele>
        <time>2010-07-25T09:10:56Z</time>
      </trkpt>
      <trkpt lat="43.99282" lon="2.04551">
        <ele>277</ele>
        <time>2010-07-25T09:11:01Z</time>
      </trkpt>
      <trkpt lat="43.99272" lon="2.04538">
        <ele>279</ele>
        <time>2010-07-25T09:11:12Z</time>
      </trkpt>
      <trkpt lat="43.99262" lon="2.04525">
        <ele>280</ele>
        <time>2010-07-25T09:11:24Z</time>
      </trkpt>
      <trkpt lat="43.99254" lon="2.04514">
        <ele>279</ele>
        <time>2010-07-25T09:11:32Z</time>
      </trkpt>
      <trkpt lat="43.9923" lon="2.04484">
        <ele>275</ele>
        <time>2010-07-25T09:11:48Z</time>
      </trkpt>
      <trkpt lat="43.99218" lon="2.04461">
        <ele>278</ele>
        <time>2010-07-25T09:12:00Z</time>
      </trkpt>
      <trkpt lat="43.99199" lon="2.04423">
        <ele>282</ele>
        <time>2010-07-25T09:12:16Z</time>
      </trkpt>
      <trkpt lat="43.99195" lon="2.04414">
        <ele>283</ele>
        <time>2010-07-25T09:12:20Z</time>
      </trkpt>
      <trkpt lat="43.99205" lon="2.04386">
        <ele>287</ele>
        <time>2010-07-25T09:12:35Z</time>
      </trkpt>
      <trkpt lat="43.99212" lon="2.04377">
        <ele>290</ele>
        <time>2010-07-25T09:12:43Z</time>
      </trkpt>
      <trkpt lat="43.99209" lon="2.04352">
        <ele>290</ele>
        <time>2010-07-25T09:12:56Z</time>
      </trkpt>
      <trkpt lat="43.99193" lon="2.04331">
        <ele>292</ele>
        <time>2010-07-25T09:13:12Z</time>
      </trkpt>
      <trkpt lat="43.99171" lon="2.0431">
        <ele>291</ele>
        <time>2010-07-25T09:13:33Z</time>
      </trkpt>
      <trkpt lat="43.99149" lon="2.04282">
        <ele>288</ele>
        <time>2010-07-25T09:13:52Z</time>
      </trkpt>
      <trkpt lat="43.9914" lon="2.04256">
        <ele>289</ele>
        <time>2010-07-25T09:14:07Z</time>
      </trkpt>
      <trkpt lat="43.99128" lon="2.04226">
        <ele>291</ele>
        <time>2010-07-25T09:14:21Z</time>
      </trkpt>
      <trkpt lat="43.99117" lon="2.04195">
        <ele>293</ele>
        <time>2010-07-25T09:14:36Z</time>
      </trkpt>
      <trkpt lat="43.9911" lon="2.04164">
        <ele>292</ele>
        <time>2010-07-25T09:14:51Z</time>
      </trkpt>
      <trkpt lat="43.99092" lon="2.04111">
        <ele>290</ele>
        <time>2010-07-25T09:15:17Z</time>
      </trkpt>
      <trkpt lat="43.99075" lon="2.04055">
        <ele>293</ele>
        <time>2010-07-25T09:15:46Z</time>
      </trkpt>
      <trkpt lat="43.99059" lon="2.04012">
        <ele>294</ele>
        <time>2010-07-25T09:16:08Z</time>
      </trkpt>
      <trkpt lat="43.99037" lon="2.04036">
        <ele>292</ele>
        <time>2010-07-25T09:16:24Z</time>
      </trkpt>
      <trkpt lat="43.99027" lon="2.04051">
        <ele>292</ele>
        <time>2010-07-25T09:16:30Z</time>
      </trkpt>
      <trkpt lat="43.99006" lon="2.0402">
        <ele>291</ele>
        <time>2010-07-25T09:16:48Z</time>
      </trkpt>
      <trkpt lat="43.98987" lon="2.03981">
        <ele>293</ele>
        <time>2010-07-25T09:17:00Z</time>
      </trkpt>
      <trkpt lat="43.98941" lon="2.03887">
        <ele>293</ele>
        <time>2010-07-25T09:17:13Z</time>
      </trkpt>
      <trkpt lat="43.98937" lon="2.03881">
        <ele>293</ele>
        <time>2010-07-25T09:17:14Z</time>
      </trkpt>
      <trkpt lat="43.98932" lon="2.03866">
        <ele>295</ele>
        <time>2010-07-25T09:17:16Z</time>
      </trkpt>
      <trkpt lat="43.98929" lon="2.03836">
        <ele>294</ele>
        <time>2010-07-25T09:17:20Z</time>
      </trkpt>
      <trkpt lat="43.98944" lon="2.03769">
        <ele>293</ele>
        <time>2010-07-25T09:17:29Z</time>
      </trkpt>
      <trkpt lat="43.98948" lon="2.03712">
        <ele>292</ele>
        <time>2010-07-25T09:17:36Z</time>
      </trkpt>
      <trkpt lat="43.98945" lon="2.03654">
        <ele>292</ele>
        <time>2010-07-25T09:17:43Z</time>
      </trkpt>
      <trkpt lat="43.98945" lon="2.03638">
        <ele>292</ele>
        <time>2010-07-25T09:17:45Z</time>
      </trkpt>
      <trkpt lat="43.98981" lon="2.03594">
        <ele>294</ele>
        <time>2010-07-25T09:17:53Z</time>
      </trkpt>
      <trkpt lat="43.99017" lon="2.03556">
        <ele>299</ele>
        <time>2010-07-25T09:17:59Z</time>
      </trkpt>
      <trkpt lat="43.99084" lon="2.03416">
        <ele>311</ele>
        <time>2010-07-25T09:18:14Z</time>
      </trkpt>
      <trkpt lat="43.99109" lon="2.03355">
        <ele>313</ele>
        <time>2010-07-25T09:18:24Z</time>
      </trkpt>
      <trkpt lat="43.99119" lon="2.0333">
        <ele>311</ele>
        <time>2010-07-25T09:18:30Z</time>
      </trkpt>
      <trkpt lat="43.99115" lon="2.03319">
        <ele>310</ele>
        <time>2010-07-25T09:18:34Z</time>
      </trkpt>
      <trkpt lat="43.99071" lon="2.0328">
        <ele>301</ele>
        <time>2010-07-25T09:18:51Z</time>
      </trkpt>
      <trkpt lat="43.99038" lon="2.03228">
        <ele>295</ele>
        <time>2010-07-25T09:19:04Z</time>
      </trkpt>
      <trkpt lat="43.99028" lon="2.03192">
        <ele>297</ele>
        <time>2010-07-25T09:19:08Z</time>
      </trkpt>
      <trkpt lat="43.99018" lon="2.03159">
        <ele>298</ele>
        <time>2010-07-25T09:19:11Z</time>
      </trkpt>
      <trkpt lat="43.98995" lon="2.03127">
        <ele>300</ele>
        <time>2010-07-25T09:19:16Z</time>
      </trkpt>
      <trkpt lat="43.98937" lon="2.03087">
        <ele>290</ele>
        <time>2010-07-25T09:19:32Z</time>
      </trkpt>
      <trkpt lat="43.98929" lon="2.03083">
        <ele>289</ele>
        <time>2010-07-25T09:19:35Z</time>
      </trkpt>
      <trkpt lat="43.98928" lon="2.03059">
        <ele>289</ele>
        <time>2010-07-25T09:19:45Z</time>
      </trkpt>
      <trkpt lat="43.98929" lon="2.03049">
        <ele>290</ele>
        <time>2010-07-25T09:19:47Z</time>
      </trkpt>
      <trkpt lat="43.98942" lon="2.02952">
        <ele>289</ele>
        <time>2010-07-25T09:19:58Z</time>
      </trkpt>
      <trkpt lat="43.98954" lon="2.0289">
        <ele>287</ele>
        <time>2010-07-25T09:20:05Z</time>
      </trkpt>
      <trkpt lat="43.9898" lon="2.02778">
        <ele>286</ele>
        <time>2010-07-25T09:20:18Z</time>
      </trkpt>
      <trkpt lat="43.98986" lon="2.02762">
        <ele>285</ele>
        <time>2010-07-25T09:20:20Z</time>
      </trkpt>
      <trkpt lat="43.98995" lon="2.02719">
        <ele>288</ele>
        <time>2010-07-25T09:20:25Z</time>
      </trkpt>
      <trkpt lat="43.99012" lon="2.02665">
        <ele>289</ele>
        <time>2010-07-25T09:20:31Z</time>
      </trkpt>
      <trkpt lat="43.99018" lon="2.02639">
        <ele>290</ele>
        <time>2010-07-25T09:20:34Z</time>
      </trkpt>
      <trkpt lat="43.99043" lon="2.02601">
        <ele>290</ele>
        <time>2010-07-25T09:20:41Z</time>
      </trkpt>
      <trkpt lat="43.99055" lon="2.02565">
        <ele>287</ele>
        <time>2010-07-25T09:20:50Z</time>
      </trkpt>
      <trkpt lat="43.99063" lon="2.02535">
        <ele>289</ele>
        <time>2010-07-25T09:21:02Z</time>
      </trkpt>
      <trkpt lat="43.99073" lon="2.02524">
        <ele>290</ele>
        <time>2010-07-25T09:21:10Z</time>
      </trkpt>
      <trkpt lat="43.99066" lon="2.02503">
        <ele>291</ele>
        <time>2010-07-25T09:21:20Z</time>
      </trkpt>
      <trkpt lat="43.99057" lon="2.02491">
        <ele>291</ele>
        <time>2010-07-25T09:21:24Z</time>
      </trkpt>
      <trkpt lat="43.99046" lon="2.0248">
        <ele>291</ele>
        <time>2010-07-25T09:21:27Z</time>
      </trkpt>
      <trkpt lat="43.9902" lon="2.02463">
        <ele>293</ele>
        <time>2010-07-25T09:21:32Z</time>
      </trkpt>
      <trkpt lat="43.98986" lon="2.02417">
        <ele>297</ele>
        <time>2010-07-25T09:21:40Z</time>
      </trkpt>
      <trkpt lat="43.98975" lon="2.02395">
        <ele>298</ele>
        <time>2010-07-25T09:21:44Z</time>
      </trkpt>
      <trkpt lat="43.98968" lon="2.02373">
        <ele>297</ele>
        <time>2010-07-25T09:21:48Z</time>
      </trkpt>
      <trkpt lat="43.98965" lon="2.02364">
        <ele>296</ele>
        <time>2010-07-25T09:21:50Z</time>
      </trkpt>
      <trkpt lat="43.98955" lon="2.02344">
        <ele>295</ele>
        <time>2010-07-25T09:21:54Z</time>
      </trkpt>
      <trkpt lat="43.98942" lon="2.0233">
        <ele>294</ele>
        <time>2010-07-25T09:21:58Z</time>
      </trkpt>
      <trkpt lat="43.9892" lon="2.02326">
        <ele>291</ele>
        <time>2010-07-25T09:22:03Z</time>
      </trkpt>
      <trkpt lat="43.98905" lon="2.02328">
        <ele>290</ele>
        <time>2010-07-25T09:22:06Z</time>
      </trkpt>
      <trkpt lat="43.98886" lon="2.0233">
        <ele>290</ele>
        <time>2010-07-25T09:22:10Z</time>
      </trkpt>
      <trkpt lat="43.98856" lon="2.02327">
        <ele>289</ele>
        <time>2010-07-25T09:22:18Z</time>
      </trkpt>
      <trkpt lat="43.98848" lon="2.02324">
        <ele>288</ele>
        <time>2010-07-25T09:22:20Z</time>
      </trkpt>
      <trkpt lat="43.98777" lon="2.02274">
        <ele>282</ele>
        <time>2010-07-25T09:22:36Z</time>
      </trkpt>
      <trkpt lat="43.98758" lon="2.02258">
        <ele>281</ele>
        <time>2010-07-25T09:22:41Z</time>
      </trkpt>
      <trkpt lat="43.98747" lon="2.02251">
        <ele>280</ele>
        <time>2010-07-25T09:22:44Z</time>
      </trkpt>
      <trkpt lat="43.98692" lon="2.02203">
        <ele>277</ele>
        <time>2010-07-25T09:22:58Z</time>
      </trkpt>
      <trkpt lat="43.98653" lon="2.02161">
        <ele>277</ele>
        <time>2010-07-25T09:23:10Z</time>
      </trkpt>
      <trkpt lat="43.98628" lon="2.02132">
        <ele>277</ele>
        <time>2010-07-25T09:23:22Z</time>
      </trkpt>
      <trkpt lat="43.98606" lon="2.02114">
        <ele>275</ele>
        <time>2010-07-25T09:23:34Z</time>
      </trkpt>
      <trkpt lat="43.98586" lon="2.02127">
        <ele>274</ele>
        <time>2010-07-25T09:23:47Z</time>
      </trkpt>
      <trkpt lat="43.98558" lon="2.0214">
        <ele>273</ele>
        <time>2010-07-25T09:24:03Z</time>
      </trkpt>
      <trkpt lat="43.98534" lon="2.02128">
        <ele>273</ele>
        <time>2010-07-25T09:24:19Z</time>
      </trkpt>
      <trkpt lat="43.98507" lon="2.02116">
        <ele>272</ele>
        <time>2010-07-25T09:24:37Z</time>
      </trkpt>
      <trkpt lat="43.98476" lon="2.02111">
        <ele>272</ele>
        <time>2010-07-25T09:24:57Z</time>
      </trkpt>
      <trkpt lat="43.98452" lon="2.02112">
        <ele>270</ele>
        <time>2010-07-25T09:25:12Z</time>
      </trkpt>
      <trkpt lat="43.98419" lon="2.02127">
        <ele>270</ele>
        <time>2010-07-25T09:25:34Z</time>
      </trkpt>
      <trkpt lat="43.98403" lon="2.02164">
        <ele>269</ele>
        <time>2010-07-25T09:25:53Z</time>
      </trkpt>
      <trkpt lat="43.98385" lon="2.0219">
        <ele>266</ele>
        <time>2010-07-25T09:26:09Z</time>
      </trkpt>
      <trkpt lat="43.98361" lon="2.0218">
        <ele>263</ele>
        <time>2010-07-25T09:26:25Z</time>
      </trkpt>
      <trkpt lat="43.98359" lon="2.0218">
        <ele>264</ele>
        <time>2010-07-25T09:26:36Z</time>
      </trkpt>
      <trkpt lat="43.98359" lon="2.02181">
        <ele>264</ele>
        <time>2010-07-25T09:26:38Z</time>
      </trkpt>
      <trkpt lat="43.98355" lon="2.02186">
        <ele>262</ele>
        <time>2010-07-25T09:26:42Z</time>
      </trkpt>
      <trkpt lat="43.98333" lon="2.02193">
        <ele>258</ele>
        <time>2010-07-25T09:26:56Z</time>
      </trkpt>
      <trkpt lat="43.98304" lon="2.02202">
        <ele>254</ele>
        <time>2010-07-25T09:27:15Z</time>
      </trkpt>
      <trkpt lat="43.98282" lon="2.02208">
        <ele>254</ele>
        <time>2010-07-25T09:27:30Z</time>
      </trkpt>
      <trkpt lat="43.98281" lon="2.02208">
        <ele>254</ele>
        <time>2010-07-25T09:27:31Z</time>
      </trkpt>
      <trkpt lat="43.98253" lon="2.02223">
        <ele>251</ele>
        <time>2010-07-25T09:27:53Z</time>
      </trkpt>
      <trkpt lat="43.98232" lon="2.02233">
        <ele>248</ele>
        <time>2010-07-25T09:28:09Z</time>
      </trkpt>
      <trkpt lat="43.98208" lon="2.02259">
        <ele>245</ele>
        <time>2010-07-25T09:28:29Z</time>
      </trkpt>
      <trkpt lat="43.98184" lon="2.02289">
        <ele>240</ele>
        <time>2010-07-25T09:28:50Z</time>
      </trkpt>
      <trkpt lat="43.98159" lon="2.02315">
        <ele>237</ele>
        <time>2010-07-25T09:29:08Z</time>
      </trkpt>
      <trkpt lat="43.98129" lon="2.02338">
        <ele>232</ele>
        <time>2010-07-25T09:29:27Z</time>
      </trkpt>
      <trkpt lat="43.98101" lon="2.02357">
        <ele>229</ele>
        <time>2010-07-25T09:29:45Z</time>
      </trkpt>
      <trkpt lat="43.98071" lon="2.02355">
        <ele>226</ele>
        <time>2010-07-25T09:30:03Z</time>
      </trkpt>
      <trkpt lat="43.98056" lon="2.02358">
        <ele>224</ele>
        <time>2010-07-25T09:30:15Z</time>
      </trkpt>
      <trkpt lat="43.98056" lon="2.02363">
        <ele>224</ele>
        <time>2010-07-25T09:30:19Z</time>
      </trkpt>
      <trkpt lat="43.98053" lon="2.02408">
        <ele>224</ele>
        <time>2010-07-25T09:30:39Z</time>
      </trkpt>
      <trkpt lat="43.98049" lon="2.02448">
        <ele>222</ele>
        <time>2010-07-25T09:30:56Z</time>
      </trkpt>
      <trkpt lat="43.98045" lon="2.02499">
        <ele>220</ele>
        <time>2010-07-25T09:31:16Z</time>
      </trkpt>
      <trkpt lat="43.98042" lon="2.02524">
        <ele>220</ele>
        <time>2010-07-25T09:31:30Z</time>
      </trkpt>
      <trkpt lat="43.98036" lon="2.0258">
        <ele>221</ele>
        <time>2010-07-25T09:31:50Z</time>
      </trkpt>
      <trkpt lat="43.98034" lon="2.02614">
        <ele>221</ele>
        <time>2010-07-25T09:31:58Z</time>
      </trkpt>
      <trkpt lat="43.98024" lon="2.02618">
        <ele>221</ele>
        <time>2010-07-25T09:32:06Z</time>
      </trkpt>
      <trkpt lat="43.97981" lon="2.02614">
        <ele>221</ele>
        <time>2010-07-25T09:32:22Z</time>
      </trkpt>
      <trkpt lat="43.97928" lon="2.02619">
        <ele>229</ele>
        <time>2010-07-25T09:32:30Z</time>
      </trkpt>
      <trkpt lat="43.979" lon="2.02665">
        <ele>238</ele>
        <time>2010-07-25T09:32:42Z</time>
      </trkpt>
      <trkpt lat="43.97887" lon="2.02691">
        <ele>241</ele>
        <time>2010-07-25T09:32:49Z</time>
      </trkpt>
      <trkpt lat="43.97868" lon="2.02713">
        <ele>244</ele>
        <time>2010-07-25T09:32:58Z</time>
      </trkpt>
      <trkpt lat="43.97839" lon="2.02748">
        <ele>246</ele>
        <time>2010-07-25T09:33:08Z</time>
      </trkpt>
      <trkpt lat="43.97823" lon="2.02778">
        <ele>250</ele>
        <time>2010-07-25T09:33:17Z</time>
      </trkpt>
      <trkpt lat="43.97781" lon="2.02825">
        <ele>253</ele>
        <time>2010-07-25T09:33:32Z</time>
      </trkpt>
      <trkpt lat="43.97768" lon="2.02836">
        <ele>255</ele>
        <time>2010-07-25T09:33:38Z</time>
      </trkpt>
      <trkpt lat="43.97758" lon="2.02882">
        <ele>260</ele>
        <time>2010-07-25T09:33:49Z</time>
      </trkpt>
      <trkpt lat="43.97756" lon="2.02892">
        <ele>262</ele>
        <time>2010-07-25T09:33:53Z</time>
      </trkpt>
      <trkpt lat="43.97758" lon="2.02913">
        <ele>264</ele>
        <time>2010-07-25T09:34:00Z</time>
      </trkpt>
      <trkpt lat="43.97759" lon="2.02922">
        <ele>267</ele>
        <time>2010-07-25T09:34:04Z</time>
      </trkpt>
      <trkpt lat="43.97758" lon="2.02913">
        <ele>271</ele>
        <time>2010-07-25T09:34:09Z</time>
      </trkpt>
      <trkpt lat="43.97754" lon="2.02902">
        <ele>273</ele>
        <time>2010-07-25T09:34:14Z</time>
      </trkpt>
      <trkpt lat="43.97754" lon="2.02898">
        <ele>274</ele>
        <time>2010-07-25T09:34:16Z</time>
      </trkpt>
      <trkpt lat="43.97744" lon="2.02881">
        <ele>278</ele>
        <time>2010-07-25T09:34:27Z</time>
      </trkpt>
      <trkpt lat="43.97725" lon="2.02888">
        <ele>278</ele>
        <time>2010-07-25T09:34:39Z</time>
      </trkpt>
      <trkpt lat="43.97702" lon="2.02899">
        <ele>277</ele>
        <time>2010-07-25T09:34:53Z</time>
      </trkpt>
      <trkpt lat="43.97687" lon="2.02907">
        <ele>273</ele>
        <time>2010-07-25T09:35:04Z</time>
      </trkpt>
      <trkpt lat="43.9767" lon="2.02927">
        <ele>271</ele>
        <time>2010-07-25T09:35:17Z</time>
      </trkpt>
      <trkpt lat="43.9765" lon="2.02953">
        <ele>272</ele>
        <time>2010-07-25T09:35:32Z</time>
      </trkpt>
      <trkpt lat="43.97634" lon="2.02965">
        <ele>272</ele>
        <time>2010-07-25T09:35:43Z</time>
      </trkpt>
      <trkpt lat="43.9763" lon="2.02967">
        <ele>272</ele>
        <time>2010-07-25T09:35:47Z</time>
      </trkpt>
      <trkpt lat="43.97602" lon="2.02975">
        <ele>274</ele>
        <time>2010-07-25T09:36:03Z</time>
      </trkpt>
      <trkpt lat="43.9757" lon="2.02975">
        <ele>276</ele>
        <time>2010-07-25T09:36:22Z</time>
      </trkpt>
      <trkpt lat="43.9756" lon="2.0297">
        <ele>277</ele>
        <time>2010-07-25T09:36:28Z</time>
      </trkpt>
      <trkpt lat="43.97535" lon="2.02948">
        <ele>278</ele>
        <time>2010-07-25T09:36:47Z</time>
      </trkpt>
      <trkpt lat="43.97509" lon="2.02929">
        <ele>277</ele>
        <time>2010-07-25T09:37:06Z</time>
      </trkpt>
      <trkpt lat="43.97501" lon="2.02916">
        <ele>277</ele>
        <time>2010-07-25T09:37:20Z</time>
      </trkpt>
      <trkpt lat="43.975" lon="2.02917">
        <ele>277</ele>
        <time>2010-07-25T09:37:32Z</time>
      </trkpt>
      <trkpt lat="43.97495" lon="2.02908">
        <ele>277</ele>
        <time>2010-07-25T09:37:46Z</time>
      </trkpt>
      <trkpt lat="43.97493" lon="2.02907">
        <ele>277</ele>
        <time>2010-07-25T09:38:23Z</time>
      </trkpt>
      <trkpt lat="43.97495" lon="2.02911">
        <ele>277</ele>
        <time>2010-07-25T09:38:36Z</time>
      </trkpt>
      <trkpt lat="43.97499" lon="2.02911">
        <ele>278</ele>
        <time>2010-07-25T09:38:45Z</time>
      </trkpt>
      <trkpt lat="43.97497" lon="2.02912">
        <ele>279</ele>
        <time>2010-07-25T09:39:03Z</time>
      </trkpt>
      <trkpt lat="43.97497" lon="2.02912">
        <ele>279</ele>
        <time>2010-07-25T09:39:14Z</time>
      </trkpt>
      <trkpt lat="43.97497" lon="2.02911">
        <ele>279</ele>
        <time>2010-07-25T09:39:32Z</time>
      </trkpt>
      <trkpt lat="43.97495" lon="2.02915">
        <ele>277</ele>
        <time>2010-07-25T09:39:43Z</time>
      </trkpt>
      <trkpt lat="43.97495" lon="2.02909">
        <ele>278</ele>
        <time>2010-07-25T09:39:58Z</time>
      </trkpt>
      <trkpt lat="43.97497" lon="2.02911">
        <ele>278</ele>
        <time>2010-07-25T09:40:06Z</time>
      </trkpt>
      <trkpt lat="43.97486" lon="2.02889">
        <ele>279</ele>
        <time>2010-07-25T09:40:21Z</time>
      </trkpt>
      <trkpt lat="43.97486" lon="2.02883">
        <ele>279</ele>
        <time>2010-07-25T09:40:48Z</time>
      </trkpt>
      <trkpt lat="43.97486" lon="2.02881">
        <ele>279</ele>
        <time>2010-07-25T09:41:05Z</time>
      </trkpt>
      <trkpt lat="43.97484" lon="2.02881">
        <ele>280</ele>
        <time>2010-07-25T09:41:59Z</time>
      </trkpt>
      <trkpt lat="43.97485" lon="2.0288">
        <ele>281</ele>
        <time>2010-07-25T09:42:46Z</time>
      </trkpt>
      <trkpt lat="43.97487" lon="2.02878">
        <ele>284</ele>
        <time>2010-07-25T09:42:50Z</time>
      </trkpt>
      <trkpt lat="43.97481" lon="2.0287">
        <ele>283</ele>
        <time>2010-07-25T09:43:07Z</time>
      </trkpt>
      <trkpt lat="43.97484" lon="2.02872">
        <ele>284</ele>
        <time>2010-07-25T09:44:20Z</time>
      </trkpt>
      <trkpt lat="43.97482" lon="2.02878">
        <ele>281</ele>
        <time>2010-07-25T09:45:26Z</time>
      </trkpt>
      <trkpt lat="43.97484" lon="2.02881">
        <ele>283</ele>
        <time>2010-07-25T09:45:52Z</time>
      </trkpt>
      <trkpt lat="43.97492" lon="2.02896">
        <ele>284</ele>
        <time>2010-07-25T09:46:07Z</time>
      </trkpt>
      <trkpt lat="43.97496" lon="2.02899">
        <ele>284</ele>
        <time>2010-07-25T09:46:31Z</time>
      </trkpt>
      <trkpt lat="43.97496" lon="2.02905">
        <ele>281</ele>
        <time>2010-07-25T09:47:01Z</time>
      </trkpt>
      <trkpt lat="43.97496" lon="2.02909">
        <ele>281</ele>
        <time>2010-07-25T09:47:11Z</time>
      </trkpt>
      <trkpt lat="43.97497" lon="2.02909">
        <ele>278</ele>
        <time>2010-07-25T09:47:24Z</time>
      </trkpt>
      <trkpt lat="43.97499" lon="2.02912">
        <ele>279</ele>
        <time>2010-07-25T09:47:51Z</time>
      </trkpt>
      <trkpt lat="43.97498" lon="2.02914">
        <ele>278</ele>
        <time>2010-07-25T09:49:16Z</time>
      </trkpt>
      <trkpt lat="43.97497" lon="2.02915">
        <ele>278</ele>
        <time>2010-07-25T09:51:00Z</time>
      </trkpt>
      <trkpt lat="43.97495" lon="2.02913">
        <ele>277</ele>
        <time>2010-07-25T09:52:14Z</time>
      </trkpt>
      <trkpt lat="43.97497" lon="2.02912">
        <ele>279</ele>
        <time>2010-07-25T09:52:50Z</time>
      </trkpt>
      <trkpt lat="43.97498" lon="2.02914">
        <ele>279</ele>
        <time>2010-07-25T09:52:54Z</time>
      </trkpt>
      <trkpt lat="43.97499" lon="2.02921">
        <ele>279</ele>
        <time>2010-07-25T09:53:01Z</time>
      </trkpt>
      <trkpt lat="43.97495" lon="2.02922">
        <ele>280</ele>
        <time>2010-07-25T09:53:22Z</time>
      </trkpt>
      <trkpt lat="43.97493" lon="2.02922">
        <ele>281</ele>
        <time>2010-07-25T09:53:42Z</time>
      </trkpt>
      <trkpt lat="43.97487" lon="2.02951">
        <ele>285</ele>
        <time>2010-07-25T09:53:58Z</time>
      </trkpt>
      <trkpt lat="43.9748" lon="2.02991">
        <ele>280</ele>
        <time>2010-07-25T09:54:19Z</time>
      </trkpt>
      <trkpt lat="43.97471" lon="2.03033">
        <ele>276</ele>
        <time>2010-07-25T09:54:39Z</time>
      </trkpt>
      <trkpt lat="43.97458" lon="2.03071">
        <ele>277</ele>
        <time>2010-07-25T09:54:59Z</time>
      </trkpt>
      <trkpt lat="43.97449" lon="2.03114">
        <ele>279</ele>
        <time>2010-07-25T09:55:19Z</time>
      </trkpt>
      <trkpt lat="43.97439" lon="2.03155">
        <ele>278</ele>
        <time>2010-07-25T09:55:39Z</time>
      </trkpt>
      <trkpt lat="43.97432" lon="2.0318">
        <ele>277</ele>
        <time>2010-07-25T09:55:52Z</time>
      </trkpt>
      <trkpt lat="43.97406" lon="2.03194">
        <ele>277</ele>
        <time>2010-07-25T09:56:09Z</time>
      </trkpt>
      <trkpt lat="43.97395" lon="2.03217">
        <ele>274</ele>
        <time>2010-07-25T09:56:22Z</time>
      </trkpt>
      <trkpt lat="43.97403" lon="2.03263">
        <ele>270</ele>
        <time>2010-07-25T09:56:42Z</time>
      </trkpt>
      <trkpt lat="43.97408" lon="2.03296">
        <ele>269</ele>
        <time>2010-07-25T09:56:56Z</time>
      </trkpt>
      <trkpt lat="43.97415" lon="2.03334">
        <ele>265</ele>
        <time>2010-07-25T09:57:15Z</time>
      </trkpt>
      <trkpt lat="43.97416" lon="2.03383">
        <ele>261</ele>
        <time>2010-07-25T09:57:37Z</time>
      </trkpt>
      <trkpt lat="43.9742" lon="2.03413">
        <ele>258</ele>
        <time>2010-07-25T09:57:51Z</time>
      </trkpt>
      <trkpt lat="43.9742" lon="2.03456">
        <ele>254</ele>
        <time>2010-07-25T09:58:05Z</time>
      </trkpt>
      <trkpt lat="43.97406" lon="2.03501">
        <ele>252</ele>
        <time>2010-07-25T09:58:19Z</time>
      </trkpt>
      <trkpt lat="43.97406" lon="2.03505">
        <ele>252</ele>
        <time>2010-07-25T09:58:21Z</time>
      </trkpt>
      <trkpt lat="43.97401" lon="2.03541">
        <ele>251</ele>
        <time>2010-07-25T09:58:35Z</time>
      </trkpt>
      <trkpt lat="43.97397" lon="2.03568">
        <ele>250</ele>
        <time>2010-07-25T09:58:46Z</time>
      </trkpt>
      <trkpt lat="43.97398" lon="2.03602">
        <ele>249</ele>
        <time>2010-07-25T09:59:00Z</time>
      </trkpt>
      <trkpt lat="43.97383" lon="2.03626">
        <ele>245</ele>
        <time>2010-07-25T09:59:12Z</time>
      </trkpt>
      <trkpt lat="43.97354" lon="2.03657">
        <ele>243</ele>
        <time>2010-07-25T09:59:27Z</time>
      </trkpt>
      <trkpt lat="43.9733" lon="2.03686">
        <ele>239</ele>
        <time>2010-07-25T09:59:47Z</time>
      </trkpt>
      <trkpt lat="43.9731" lon="2.03714">
        <ele>236</ele>
        <time>2010-07-25T10:00:04Z</time>
      </trkpt>
      <trkpt lat="43.97282" lon="2.03743">
        <ele>234</ele>
        <time>2010-07-25T10:00:20Z</time>
      </trkpt>
      <trkpt lat="43.97251" lon="2.03728">
        <ele>232</ele>
        <time>2010-07-25T10:00:41Z</time>
      </trkpt>
      <trkpt lat="43.97227" lon="2.03716">
        <ele>230</ele>
        <time>2010-07-25T10:00:57Z</time>
      </trkpt>
      <trkpt lat="43.97206" lon="2.03694">
        <ele>230</ele>
        <time>2010-07-25T10:01:13Z</time>
      </trkpt>
      <trkpt lat="43.97188" lon="2.0369">
        <ele>229</ele>
        <time>2010-07-25T10:01:18Z</time>
      </trkpt>
      <trkpt lat="43.97135" lon="2.03727">
        <ele>229</ele>
        <time>2010-07-25T10:01:32Z</time>
      </trkpt>
      <trkpt lat="43.9709" lon="2.03751">
        <ele>227</ele>
        <time>2010-07-25T10:01:45Z</time>
      </trkpt>
      <trkpt lat="43.97087" lon="2.03752">
        <ele>227</ele>
        <time>2010-07-25T10:01:46Z</time>
      </trkpt>
      <trkpt lat="43.97081" lon="2.03759">
        <ele>225</ele>
        <time>2010-07-25T10:01:50Z</time>
      </trkpt>
      <trkpt lat="43.97075" lon="2.03814">
        <ele>217</ele>
        <time>2010-07-25T10:02:01Z</time>
      </trkpt>
      <trkpt lat="43.97046" lon="2.03847">
        <ele>215</ele>
        <time>2010-07-25T10:02:07Z</time>
      </trkpt>
      <trkpt lat="43.97022" lon="2.03862">
        <ele>216</ele>
        <time>2010-07-25T10:02:13Z</time>
      </trkpt>
      <trkpt lat="43.96998" lon="2.03899">
        <ele>216</ele>
        <time>2010-07-25T10:02:19Z</time>
      </trkpt>
      <trkpt lat="43.96986" lon="2.03916">
        <ele>215</ele>
        <time>2010-07-25T10:02:22Z</time>
      </trkpt>
      <trkpt lat="43.96981" lon="2.03927">
        <ele>215</ele>
        <time>2010-07-25T10:02:24Z</time>
      </trkpt>
      <trkpt lat="43.96956" lon="2.03995">
        <ele>209</ele>
        <time>2010-07-25T10:02:36Z</time>
      </trkpt>
      <trkpt lat="43.96956" lon="2.04002">
        <ele>208</ele>
        <time>2010-07-25T10:02:37Z</time>
      </trkpt>
      <trkpt lat="43.96968" lon="2.04049">
        <ele>203</ele>
        <time>2010-07-25T10:02:45Z</time>
      </trkpt>
      <trkpt lat="43.96984" lon="2.04094">
        <ele>202</ele>
        <time>2010-07-25T10:02:50Z</time>
      </trkpt>
      <trkpt lat="43.96963" lon="2.04137">
        <ele>201</ele>
        <time>2010-07-25T10:02:55Z</time>
      </trkpt>
      <trkpt lat="43.96915" lon="2.04188">
        <ele>202</ele>
        <time>2010-07-25T10:03:04Z</time>
      </trkpt>
      <trkpt lat="43.96911" lon="2.04193">
        <ele>202</ele>
        <time>2010-07-25T10:03:05Z</time>
      </trkpt>
      <trkpt lat="43.969" lon="2.04205">
        <ele>202</ele>
        <time>2010-07-25T10:03:09Z</time>
      </trkpt>
      <trkpt lat="43.96895" lon="2.04214">
        <ele>202</ele>
        <time>2010-07-25T10:03:11Z</time>
      </trkpt>
      <trkpt lat="43.9689" lon="2.04226">
        <ele>202</ele>
        <time>2010-07-25T10:03:13Z</time>
      </trkpt>
      <trkpt lat="43.96863" lon="2.0432">
        <ele>201</ele>
        <time>2010-07-25T10:03:25Z</time>
      </trkpt>
      <trkpt lat="43.96843" lon="2.04418">
        <ele>202</ele>
        <time>2010-07-25T10:03:37Z</time>
      </trkpt>
      <trkpt lat="43.96841" lon="2.04452">
        <ele>205</ele>
        <time>2010-07-25T10:03:48Z</time>
      </trkpt>
      <trkpt lat="43.9684" lon="2.04486">
        <ele>206</ele>
        <time>2010-07-25T10:04:04Z</time>
      </trkpt>
      <trkpt lat="43.9686" lon="2.04516">
        <ele>206</ele>
        <time>2010-07-25T10:04:15Z</time>
      </trkpt>
      <trkpt lat="43.96882" lon="2.04527">
        <ele>208</ele>
        <time>2010-07-25T10:04:20Z</time>
      </trkpt>
      <trkpt lat="43.96911" lon="2.04548">
        <ele>207</ele>
        <time>2010-07-25T10:04:25Z</time>
      </trkpt>
      <trkpt lat="43.96934" lon="2.04559">
        <ele>210</ele>
        <time>2010-07-25T10:04:29Z</time>
      </trkpt>
      <trkpt lat="43.9695" lon="2.04566">
        <ele>210</ele>
        <time>2010-07-25T10:04:32Z</time>
      </trkpt>
      <trkpt lat="43.96975" lon="2.04579">
        <ele>211</ele>
        <time>2010-07-25T10:04:37Z</time>
      </trkpt>
      <trkpt lat="43.96988" lon="2.04585">
        <ele>211</ele>
        <time>2010-07-25T10:04:40Z</time>
      </trkpt>
      <trkpt lat="43.97005" lon="2.04595">
        <ele>213</ele>
        <time>2010-07-25T10:04:44Z</time>
      </trkpt>
      <trkpt lat="43.97019" lon="2.04602">
        <ele>213</ele>
        <time>2010-07-25T10:04:47Z</time>
      </trkpt>
      <trkpt lat="43.97037" lon="2.04612">
        <ele>214</ele>
        <time>2010-07-25T10:04:51Z</time>
      </trkpt>
      <trkpt lat="43.97084" lon="2.04643">
        <ele>216</ele>
        <time>2010-07-25T10:05:05Z</time>
      </trkpt>
      <trkpt lat="43.97119" lon="2.0467">
        <ele>216</ele>
        <time>2010-07-25T10:05:16Z</time>
      </trkpt>
      <trkpt lat="43.97142" lon="2.04682">
        <ele>216</ele>
        <time>2010-07-25T10:05:23Z</time>
      </trkpt>
      <trkpt lat="43.97171" lon="2.04691">
        <ele>216</ele>
        <time>2010-07-25T10:05:30Z</time>
      </trkpt>
      <trkpt lat="43.9719" lon="2.04697">
        <ele>215</ele>
        <time>2010-07-25T10:05:35Z</time>
      </trkpt>
      <trkpt lat="43.9721" lon="2.0475">
        <ele>215</ele>
        <time>2010-07-25T10:05:44Z</time>
      </trkpt>
      <trkpt lat="43.97212" lon="2.04758">
        <ele>215</ele>
        <time>2010-07-25T10:05:45Z</time>
      </trkpt>
      <trkpt lat="43.9725" lon="2.04814">
        <ele>215</ele>
        <time>2010-07-25T10:05:53Z</time>
      </trkpt>
      <trkpt lat="43.97282" lon="2.04852">
        <ele>216</ele>
        <time>2010-07-25T10:05:58Z</time>
      </trkpt>
      <trkpt lat="43.97329" lon="2.04902">
        <ele>218</ele>
        <time>2010-07-25T10:06:05Z</time>
      </trkpt>
      <trkpt lat="43.97364" lon="2.04954">
        <ele>221</ele>
        <time>2010-07-25T10:06:12Z</time>
      </trkpt>
      <trkpt lat="43.97389" lon="2.04995">
        <ele>220</ele>
        <time>2010-07-25T10:06:17Z</time>
      </trkpt>
      <trkpt lat="43.97416" lon="2.05019">
        <ele>219</ele>
        <time>2010-07-25T10:06:22Z</time>
      </trkpt>
      <trkpt lat="43.97437" lon="2.05024">
        <ele>221</ele>
        <time>2010-07-25T10:06:26Z</time>
      </trkpt>
      <trkpt lat="43.97465" lon="2.05021">
        <ele>221</ele>
        <time>2010-07-25T10:06:31Z</time>
      </trkpt>
      <trkpt lat="43.97544" lon="2.05048">
        <ele>225</ele>
        <time>2010-07-25T10:06:40Z</time>
      </trkpt>
      <trkpt lat="43.97568" lon="2.05059">
        <ele>228</ele>
        <time>2010-07-25T10:06:43Z</time>
      </trkpt>
      <trkpt lat="43.97619" lon="2.05079">
        <ele>238</ele>
        <time>2010-07-25T10:06:51Z</time>
      </trkpt>
      <trkpt lat="43.97628" lon="2.05086">
        <ele>240</ele>
        <time>2010-07-25T10:06:53Z</time>
      </trkpt>
      <trkpt lat="43.97662" lon="2.0512">
        <ele>245</ele>
        <time>2010-07-25T10:07:04Z</time>
      </trkpt>
      <trkpt lat="43.9767" lon="2.0513">
        <ele>246</ele>
        <time>2010-07-25T10:07:07Z</time>
      </trkpt>
      <trkpt lat="43.97667" lon="2.05173">
        <ele>251</ele>
        <time>2010-07-25T10:07:17Z</time>
      </trkpt>
      <trkpt lat="43.97684" lon="2.0521">
        <ele>251</ele>
        <time>2010-07-25T10:07:27Z</time>
      </trkpt>
      <trkpt lat="43.97724" lon="2.05247">
        <ele>259</ele>
        <time>2010-07-25T10:07:40Z</time>
      </trkpt>
      <trkpt lat="43.97744" lon="2.05271">
        <ele>264</ele>
        <time>2010-07-25T10:07:54Z</time>
      </trkpt>
      <trkpt lat="43.97764" lon="2.05296">
        <ele>267</ele>
        <time>2010-07-25T10:08:11Z</time>
      </trkpt>
      <trkpt lat="43.97781" lon="2.05317">
        <ele>269</ele>
        <time>2010-07-25T10:08:25Z</time>
      </trkpt>
      <trkpt lat="43.97785" lon="2.05321">
        <ele>269</ele>
        <time>2010-07-25T10:08:29Z</time>
      </trkpt>
      <trkpt lat="43.97806" lon="2.0534">
        <ele>270</ele>
        <time>2010-07-25T10:08:45Z</time>
      </trkpt>
      <trkpt lat="43.97841" lon="2.05374">
        <ele>275</ele>
        <time>2010-07-25T10:09:12Z</time>
      </trkpt>
      <trkpt lat="43.9786" lon="2.05393">
        <ele>277</ele>
        <time>2010-07-25T10:09:26Z</time>
      </trkpt>
      <trkpt lat="43.97877" lon="2.05414">
        <ele>278</ele>
        <time>2010-07-25T10:09:40Z</time>
      </trkpt>
      <trkpt lat="43.97898" lon="2.0545">
        <ele>280</ele>
        <time>2010-07-25T10:10:04Z</time>
      </trkpt>
      <trkpt lat="43.97912" lon="2.05473">
        <ele>282</ele>
        <time>2010-07-25T10:10:19Z</time>
      </trkpt>
      <trkpt lat="43.97926" lon="2.05497">
        <ele>283</ele>
        <time>2010-07-25T10:10:33Z</time>
      </trkpt>
      <trkpt lat="43.97928" lon="2.05501">
        <ele>283</ele>
        <time>2010-07-25T10:10:35Z</time>
      </trkpt>
      <trkpt lat="43.97937" lon="2.05522">
        <ele>284</ele>
        <time>2010-07-25T10:10:47Z</time>
      </trkpt>
      <trkpt lat="43.97938" lon="2.05524">
        <ele>285</ele>
        <time>2010-07-25T10:10:48Z</time>
      </trkpt>
      <trkpt lat="43.9795" lon="2.05548">
        <ele>286</ele>
        <time>2010-07-25T10:11:02Z</time>
      </trkpt>
      <trkpt lat="43.97972" lon="2.05577">
        <ele>292</ele>
        <time>2010-07-25T10:11:21Z</time>
      </trkpt>
      <trkpt lat="43.97994" lon="2.05593">
        <ele>294</ele>
        <time>2010-07-25T10:11:38Z</time>
      </trkpt>
      <trkpt lat="43.98037" lon="2.05611">
        <ele>292</ele>
        <time>2010-07-25T10:12:01Z</time>
      </trkpt>
      <trkpt lat="43.98058" lon="2.05639">
        <ele>290</ele>
        <time>2010-07-25T10:12:17Z</time>
      </trkpt>
      <trkpt lat="43.98068" lon="2.05653">
        <ele>293</ele>
        <time>2010-07-25T10:12:26Z</time>
      </trkpt>
      <trkpt lat="43.98075" lon="2.05663">
        <ele>293</ele>
        <time>2010-07-25T10:12:33Z</time>
      </trkpt>
      <trkpt lat="43.98093" lon="2.05697">
        <ele>299</ele>
        <time>2010-07-25T10:12:48Z</time>
      </trkpt>
      <trkpt lat="43.98115" lon="2.05734">
        <ele>301</ele>
        <time>2010-07-25T10:12:59Z</time>
      </trkpt>
      <trkpt lat="43.98148" lon="2.05784">
        <ele>305</ele>
        <time>2010-07-25T10:13:16Z</time>
      </trkpt>
      <trkpt lat="43.98202" lon="2.05865">
        <ele>308</ele>
        <time>2010-07-25T10:13:39Z</time>
      </trkpt>
      <trkpt lat="43.98241" lon="2.05954">
        <ele>311</ele>
        <time>2010-07-25T10:13:58Z</time>
      </trkpt>
      <trkpt lat="43.98256" lon="2.05985">
        <ele>313</ele>
        <time>2010-07-25T10:14:07Z</time>
      </trkpt>
      <trkpt lat="43.98261" lon="2.05982">
        <ele>312</ele>
        <time>2010-07-25T10:14:18Z</time>
      </trkpt>
      <trkpt lat="43.9828" lon="2.05955">
        <ele>314</ele>
        <time>2010-07-25T10:14:36Z</time>
      </trkpt>
      <trkpt lat="43.98282" lon="2.05955">
        <ele>314</ele>
        <time>2010-07-25T10:14:37Z</time>
      </trkpt>
      <trkpt lat="43.98309" lon="2.05932">
        <ele>314</ele>
        <time>2010-07-25T10:14:51Z</time>
      </trkpt>
      <trkpt lat="43.98336" lon="2.05918">
        <ele>314</ele>
        <time>2010-07-25T10:15:04Z</time>
      </trkpt>
      <trkpt lat="43.98349" lon="2.05938">
        <ele>314</ele>
        <time>2010-07-25T10:15:17Z</time>
      </trkpt>
      <trkpt lat="43.98379" lon="2.05967">
        <ele>312</ele>
        <time>2010-07-25T10:15:37Z</time>
      </trkpt>
      <trkpt lat="43.98414" lon="2.06002">
        <ele>311</ele>
        <time>2010-07-25T10:15:57Z</time>
      </trkpt>
      <trkpt lat="43.98443" lon="2.06034">
        <ele>309</ele>
        <time>2010-07-25T10:16:15Z</time>
      </trkpt>
      <trkpt lat="43.98475" lon="2.06068">
        <ele>305</ele>
        <time>2010-07-25T10:16:43Z</time>
      </trkpt>
      <trkpt lat="43.98489" lon="2.06042">
        <ele>306</ele>
        <time>2010-07-25T10:16:59Z</time>
      </trkpt>
      <trkpt lat="43.985" lon="2.05984">
        <ele>307</ele>
        <time>2010-07-25T10:17:25Z</time>
      </trkpt>
      <trkpt lat="43.98512" lon="2.05947">
        <ele>306</ele>
        <time>2010-07-25T10:17:43Z</time>
      </trkpt>
      <trkpt lat="43.98539" lon="2.05938">
        <ele>303</ele>
        <time>2010-07-25T10:18:03Z</time>
      </trkpt>
      <trkpt lat="43.98578" lon="2.05958">
        <ele>302</ele>
        <time>2010-07-25T10:18:29Z</time>
      </trkpt>
      <trkpt lat="43.98629" lon="2.05961">
        <ele>301</ele>
        <time>2010-07-25T10:19:02Z</time>
      </trkpt>
      <trkpt lat="43.98664" lon="2.05963">
        <ele>301</ele>
        <time>2010-07-25T10:19:24Z</time>
      </trkpt>
      <trkpt lat="43.98715" lon="2.05956">
        <ele>299</ele>
        <time>2010-07-25T10:19:57Z</time>
      </trkpt>
      <trkpt lat="43.98765" lon="2.05949">
        <ele>299</ele>
        <time>2010-07-25T10:20:30Z</time>
      </trkpt>
      <trkpt lat="43.98817" lon="2.05939">
        <ele>298</ele>
        <time>2010-07-25T10:21:02Z</time>
      </trkpt>
      <trkpt lat="43.98846" lon="2.0593">
        <ele>296</ele>
        <time>2010-07-25T10:21:21Z</time>
      </trkpt>
      <trkpt lat="43.98875" lon="2.05921">
        <ele>295</ele>
        <time>2010-07-25T10:21:40Z</time>
      </trkpt>
      <trkpt lat="43.9889" lon="2.05915">
        <ele>298</ele>
        <time>2010-07-25T10:21:52Z</time>
      </trkpt>
      <trkpt lat="43.98909" lon="2.05905">
        <ele>298</ele>
        <time>2010-07-25T10:22:05Z</time>
      </trkpt>
      <trkpt lat="43.98933" lon="2.05888">
        <ele>296</ele>
        <time>2010-07-25T10:22:23Z</time>
      </trkpt>
      <trkpt lat="43.98964" lon="2.05867">
        <ele>296</ele>
        <time>2010-07-25T10:22:46Z</time>
      </trkpt>
      <trkpt lat="43.98986" lon="2.05857">
        <ele>299</ele>
        <time>2010-07-25T10:23:01Z</time>
      </trkpt>
      <trkpt lat="43.98993" lon="2.05856">
        <ele>300</ele>
        <time>2010-07-25T10:23:05Z</time>
      </trkpt>
      <trkpt lat="43.99017" lon="2.05871">
        <ele>302</ele>
        <time>2010-07-25T10:23:23Z</time>
      </trkpt>
      <trkpt lat="43.99038" lon="2.05899">
        <ele>301</ele>
        <time>2010-07-25T10:23:40Z</time>
      </trkpt>
      <trkpt lat="43.99073" lon="2.05924">
        <ele>299</ele>
        <time>2010-07-25T10:24:01Z</time>
      </trkpt>
      <trkpt lat="43.99118" lon="2.05952">
        <ele>295</ele>
        <time>2010-07-25T10:24:27Z</time>
      </trkpt>
      <trkpt lat="43.9915" lon="2.05971">
        <ele>292</ele>
        <time>2010-07-25T10:24:47Z</time>
      </trkpt>
      <trkpt lat="43.99171" lon="2.05978">
        <ele>290</ele>
        <time>2010-07-25T10:25:00Z</time>
      </trkpt>
      <trkpt lat="43.99197" lon="2.05991">
        <ele>284</ele>
        <time>2010-07-25T10:25:15Z</time>
      </trkpt>
      <trkpt lat="43.99224" lon="2.06009">
        <ele>279</ele>
        <time>2010-07-25T10:25:32Z</time>
      </trkpt>
      <trkpt lat="43.9925" lon="2.06027">
        <ele>276</ele>
        <time>2010-07-25T10:25:50Z</time>
      </trkpt>
      <trkpt lat="43.99279" lon="2.06042">
        <ele>274</ele>
        <time>2010-07-25T10:26:08Z</time>
      </trkpt>
      <trkpt lat="43.9931" lon="2.06045">
        <ele>270</ele>
        <time>2010-07-25T10:26:28Z</time>
      </trkpt>
      <trkpt lat="43.99334" lon="2.0604">
        <ele>268</ele>
        <time>2010-07-25T10:26:43Z</time>
      </trkpt>
      <trkpt lat="43.99373" lon="2.06035">
        <ele>263</ele>
        <time>2010-07-25T10:27:07Z</time>
      </trkpt>
      <trkpt lat="43.99396" lon="2.06061">
        <ele>261</ele>
        <time>2010-07-25T10:27:19Z</time>
      </trkpt>
      <trkpt lat="43.99424" lon="2.061">
        <ele>262</ele>
        <time>2010-07-25T10:27:28Z</time>
      </trkpt>
      <trkpt lat="43.99447" lon="2.0612">
        <ele>264</ele>
        <time>2010-07-25T10:27:32Z</time>
      </trkpt>
      <trkpt lat="43.9948" lon="2.06129">
        <ele>264</ele>
        <time>2010-07-25T10:27:38Z</time>
      </trkpt>
      <trkpt lat="43.99545" lon="2.06153">
        <ele>260</ele>
        <time>2010-07-25T10:27:50Z</time>
      </trkpt>
      <trkpt lat="43.99557" lon="2.06157">
        <ele>258</ele>
        <time>2010-07-25T10:27:52Z</time>
      </trkpt>
      <trkpt lat="43.99568" lon="2.0616">
        <ele>260</ele>
        <time>2010-07-25T10:27:54Z</time>
      </trkpt>
      <trkpt lat="43.99598" lon="2.06159">
        <ele>260</ele>
        <time>2010-07-25T10:27:59Z</time>
      </trkpt>
      <trkpt lat="43.99616" lon="2.06161">
        <ele>258</ele>
        <time>2010-07-25T10:28:02Z</time>
      </trkpt>
      <trkpt lat="43.99635" lon="2.06171">
        <ele>255</ele>
        <time>2010-07-25T10:28:06Z</time>
      </trkpt>
      <trkpt lat="43.99661" lon="2.062">
        <ele>254</ele>
        <time>2010-07-25T10:28:12Z</time>
      </trkpt>
      <trkpt lat="43.99664" lon="2.06256">
        <ele>254</ele>
        <time>2010-07-25T10:28:20Z</time>
      </trkpt>
      <trkpt lat="43.99659" lon="2.06281">
        <ele>253</ele>
        <time>2010-07-25T10:28:24Z</time>
      </trkpt>
      <trkpt lat="43.99649" lon="2.06317">
        <ele>256</ele>
        <time>2010-07-25T10:28:29Z</time>
      </trkpt>
      <trkpt lat="43.9964" lon="2.06351">
        <ele>257</ele>
        <time>2010-07-25T10:28:33Z</time>
      </trkpt>
      <trkpt lat="43.99629" lon="2.0639">
        <ele>256</ele>
        <time>2010-07-25T10:28:38Z</time>
      </trkpt>
      <trkpt lat="43.99613" lon="2.06441">
        <ele>256</ele>
        <time>2010-07-25T10:28:49Z</time>
      </trkpt>
      <trkpt lat="43.99624" lon="2.06454">
        <ele>249</ele>
        <time>2010-07-25T10:28:57Z</time>
      </trkpt>
      <trkpt lat="43.99624" lon="2.06453">
        <ele>248</ele>
        <time>2010-07-25T10:29:00Z</time>
      </trkpt>
      <trkpt lat="43.9962" lon="2.06452">
        <ele>249</ele>
        <time>2010-07-25T10:29:05Z</time>
      </trkpt>
      <trkpt lat="43.996" lon="2.06479">
        <ele>254</ele>
        <time>2010-07-25T10:29:20Z</time>
      </trkpt>
      <trkpt lat="43.99591" lon="2.0649">
        <ele>255</ele>
        <time>2010-07-25T10:29:27Z</time>
      </trkpt>
      <trkpt lat="43.99581" lon="2.06507">
        <ele>256</ele>
        <time>2010-07-25T10:29:38Z</time>
      </trkpt>
      <trkpt lat="43.99569" lon="2.06534">
        <ele>255</ele>
        <time>2010-07-25T10:29:52Z</time>
      </trkpt>
      <trkpt lat="43.99567" lon="2.0654">
        <ele>255</ele>
        <time>2010-07-25T10:29:56Z</time>
      </trkpt>
      <trkpt lat="43.99553" lon="2.06578">
        <ele>254</ele>
        <time>2010-07-25T10:30:13Z</time>
      </trkpt>
      <trkpt lat="43.99546" lon="2.06609">
        <ele>254</ele>
        <time>2010-07-25T10:30:27Z</time>
      </trkpt>
      <trkpt lat="43.99544" lon="2.06622">
        <ele>254</ele>
        <time>2010-07-25T10:30:33Z</time>
      </trkpt>
      <trkpt lat="43.99542" lon="2.06649">
        <ele>254</ele>
        <time>2010-07-25T10:30:44Z</time>
      </trkpt>
      <trkpt lat="43.99541" lon="2.06679">
        <ele>252</ele>
        <time>2010-07-25T10:30:58Z</time>
      </trkpt>
      <trkpt lat="43.99541" lon="2.06708">
        <ele>251</ele>
        <time>2010-07-25T10:31:08Z</time>
      </trkpt>
      <trkpt lat="43.99538" lon="2.06725">
        <ele>250</ele>
        <time>2010-07-25T10:31:12Z</time>
      </trkpt>
      <trkpt lat="43.9954" lon="2.0675">
        <ele>250</ele>
        <time>2010-07-25T10:31:17Z</time>
      </trkpt>
      <trkpt lat="43.99541" lon="2.06775">
        <ele>249</ele>
        <time>2010-07-25T10:31:21Z</time>
      </trkpt>
      <trkpt lat="43.99542" lon="2.06796">
        <ele>248</ele>
        <time>2010-07-25T10:31:24Z</time>
      </trkpt>
      <trkpt lat="43.99545" lon="2.06848">
        <ele>251</ele>
        <time>2010-07-25T10:31:34Z</time>
      </trkpt>
      <trkpt lat="43.99556" lon="2.06896">
        <ele>252</ele>
        <time>2010-07-25T10:31:45Z</time>
      </trkpt>
      <trkpt lat="43.99563" lon="2.06937">
        <ele>252</ele>
        <time>2010-07-25T10:31:52Z</time>
      </trkpt>
      <trkpt lat="43.99576" lon="2.06991">
        <ele>253</ele>
        <time>2010-07-25T10:32:02Z</time>
      </trkpt>
      <trkpt lat="43.99588" lon="2.07048">
        <ele>252</ele>
        <time>2010-07-25T10:32:11Z</time>
      </trkpt>
      <trkpt lat="43.99589" lon="2.07062">
        <ele>253</ele>
        <time>2010-07-25T10:32:13Z</time>
      </trkpt>
      <trkpt lat="43.99587" lon="2.07092">
        <ele>253</ele>
        <time>2010-07-25T10:32:17Z</time>
      </trkpt>
      <trkpt lat="43.9957" lon="2.07184">
        <ele>253</ele>
        <time>2010-07-25T10:32:27Z</time>
      </trkpt>
      <trkpt lat="43.99562" lon="2.07217">
        <ele>254</ele>
        <time>2010-07-25T10:32:30Z</time>
      </trkpt>
      <trkpt lat="43.99557" lon="2.0726">
        <ele>255</ele>
        <time>2010-07-25T10:32:34Z</time>
      </trkpt>
      <trkpt lat="43.99557" lon="2.07286">
        <ele>255</ele>
        <time>2010-07-25T10:32:37Z</time>
      </trkpt>
      <trkpt lat="43.99549" lon="2.07306">
        <ele>255</ele>
        <time>2010-07-25T10:32:41Z</time>
      </trkpt>
      <trkpt lat="43.99456" lon="2.07318">
        <ele>258</ele>
        <time>2010-07-25T10:32:52Z</time>
      </trkpt>
      <trkpt lat="43.99447" lon="2.07321">
        <ele>259</ele>
        <time>2010-07-25T10:32:53Z</time>
      </trkpt>
      <trkpt lat="43.99429" lon="2.07328">
        <ele>257</ele>
        <time>2010-07-25T10:32:55Z</time>
      </trkpt>
      <trkpt lat="43.994" lon="2.07348">
        <ele>256</ele>
        <time>2010-07-25T10:32:59Z</time>
      </trkpt>
      <trkpt lat="43.9929" lon="2.07378">
        <ele>261</ele>
        <time>2010-07-25T10:33:10Z</time>
      </trkpt>
      <trkpt lat="43.99223" lon="2.07391">
        <ele>259</ele>
        <time>2010-07-25T10:33:20Z</time>
      </trkpt>
      <trkpt lat="43.99187" lon="2.07393">
        <ele>260</ele>
        <time>2010-07-25T10:33:30Z</time>
      </trkpt>
      <trkpt lat="43.99183" lon="2.07398">
        <ele>262</ele>
        <time>2010-07-25T10:33:37Z</time>
      </trkpt>
      <trkpt lat="43.99205" lon="2.07391">
        <ele>263</ele>
        <time>2010-07-25T10:33:49Z</time>
      </trkpt>
      <trkpt lat="43.99234" lon="2.07391">
        <ele>263</ele>
        <time>2010-07-25T10:34:07Z</time>
      </trkpt>
      <trkpt lat="43.99262" lon="2.07385">
        <ele>262</ele>
        <time>2010-07-25T10:34:24Z</time>
      </trkpt>
      <trkpt lat="43.99282" lon="2.07381">
        <ele>263</ele>
        <time>2010-07-25T10:34:35Z</time>
      </trkpt>
      <trkpt lat="43.99284" lon="2.07391">
        <ele>261</ele>
        <time>2010-07-25T10:34:40Z</time>
      </trkpt>
      <trkpt lat="43.99264" lon="2.07399">
        <ele>262</ele>
        <time>2010-07-25T10:34:54Z</time>
      </trkpt>
      <trkpt lat="43.99257" lon="2.07403">
        <ele>263</ele>
        <time>2010-07-25T10:34:59Z</time>
      </trkpt>
      <trkpt lat="43.99252" lon="2.07402">
        <ele>263</ele>
        <time>2010-07-25T10:35:04Z</time>
      </trkpt>
      <trkpt lat="43.99225" lon="2.07406">
        <ele>265</ele>
        <time>2010-07-25T10:35:23Z</time>
      </trkpt>
      <trkpt lat="43.992" lon="2.07409">
        <ele>266</ele>
        <time>2010-07-25T10:35:38Z</time>
      </trkpt>
      <trkpt lat="43.99185" lon="2.07416">
        <ele>268</ele>
        <time>2010-07-25T10:35:50Z</time>
      </trkpt>
      <trkpt lat="43.99185" lon="2.07426">
        <ele>267</ele>
        <time>2010-07-25T10:35:55Z</time>
      </trkpt>
      <trkpt lat="43.99173" lon="2.07446">
        <ele>267</ele>
        <time>2010-07-25T10:36:09Z</time>
      </trkpt>
      <trkpt lat="43.99147" lon="2.07451">
        <ele>267</ele>
        <time>2010-07-25T10:36:28Z</time>
      </trkpt>
      <trkpt lat="43.9913" lon="2.07459">
        <ele>264</ele>
        <time>2010-07-25T10:36:46Z</time>
      </trkpt>
      <trkpt lat="43.99128" lon="2.07463">
        <ele>264</ele>
        <time>2010-07-25T10:36:49Z</time>
      </trkpt>
      <trkpt lat="43.99122" lon="2.07476">
        <ele>265</ele>
        <time>2010-07-25T10:36:58Z</time>
      </trkpt>
      <trkpt lat="43.99116" lon="2.07492">
        <ele>267</ele>
        <time>2010-07-25T10:37:06Z</time>
      </trkpt>
      <trkpt lat="43.99102" lon="2.07521">
        <ele>269</ele>
        <time>2010-07-25T10:37:21Z</time>
      </trkpt>
      <trkpt lat="43.99099" lon="2.07531">
        <ele>269</ele>
        <time>2010-07-25T10:37:26Z</time>
      </trkpt>
      <trkpt lat="43.99086" lon="2.07551">
        <ele>270</ele>
        <time>2010-07-25T10:37:41Z</time>
      </trkpt>
      <trkpt lat="43.99081" lon="2.07556">
        <ele>271</ele>
        <time>2010-07-25T10:37:46Z</time>
      </trkpt>
      <trkpt lat="43.99067" lon="2.07582">
        <ele>273</ele>
        <time>2010-07-25T10:38:02Z</time>
      </trkpt>
      <trkpt lat="43.9907" lon="2.0761">
        <ele>275</ele>
        <time>2010-07-25T10:38:15Z</time>
      </trkpt>
      <trkpt lat="43.99072" lon="2.07666">
        <ele>277</ele>
        <time>2010-07-25T10:38:32Z</time>
      </trkpt>
      <trkpt lat="43.99077" lon="2.07773">
        <ele>283</ele>
        <time>2010-07-25T10:38:53Z</time>
      </trkpt>
      <trkpt lat="43.99075" lon="2.07822">
        <ele>285</ele>
        <time>2010-07-25T10:39:05Z</time>
      </trkpt>
      <trkpt lat="43.99081" lon="2.07863">
        <ele>283</ele>
        <time>2010-07-25T10:39:24Z</time>
      </trkpt>
      <trkpt lat="43.99103" lon="2.07912">
        <ele>281</ele>
        <time>2010-07-25T10:39:48Z</time>
      </trkpt>
      <trkpt lat="43.99121" lon="2.07952">
        <ele>277</ele>
        <time>2010-07-25T10:40:08Z</time>
      </trkpt>
      <trkpt lat="43.99149" lon="2.07999">
        <ele>276</ele>
        <time>2010-07-25T10:40:34Z</time>
      </trkpt>
      <trkpt lat="43.99164" lon="2.08067">
        <ele>270</ele>
        <time>2010-07-25T10:41:03Z</time>
      </trkpt>
      <trkpt lat="43.99181" lon="2.08114">
        <ele>267</ele>
        <time>2010-07-25T10:41:24Z</time>
      </trkpt>
      <trkpt lat="43.99206" lon="2.08161">
        <ele>270</ele>
        <time>2010-07-25T10:41:47Z</time>
      </trkpt>
      <trkpt lat="43.99224" lon="2.08193">
        <ele>272</ele>
        <time>2010-07-25T10:42:05Z</time>
      </trkpt>
      <trkpt lat="43.99236" lon="2.08237">
        <ele>277</ele>
        <time>2010-07-25T10:42:21Z</time>
      </trkpt>
      <trkpt lat="43.99232" lon="2.0828">
        <ele>278</ele>
        <time>2010-07-25T10:42:38Z</time>
      </trkpt>
      <trkpt lat="43.99233" lon="2.08306">
        <ele>278</ele>
        <time>2010-07-25T10:42:50Z</time>
      </trkpt>
      <trkpt lat="43.99255" lon="2.08293">
        <ele>277</ele>
        <time>2010-07-25T10:43:06Z</time>
      </trkpt>
      <trkpt lat="43.99271" lon="2.08274">
        <ele>275</ele>
        <time>2010-07-25T10:43:22Z</time>
      </trkpt>
      <trkpt lat="43.99294" lon="2.08255">
        <ele>272</ele>
        <time>2010-07-25T10:43:42Z</time>
      </trkpt>
      <trkpt lat="43.99313" lon="2.08245">
        <ele>269</ele>
        <time>2010-07-25T10:43:57Z</time>
      </trkpt>
      <trkpt lat="43.99334" lon="2.08263">
        <ele>267</ele>
        <time>2010-07-25T10:44:13Z</time>
      </trkpt>
      <trkpt lat="43.9935" lon="2.08293">
        <ele>264</ele>
        <time>2010-07-25T10:44:30Z</time>
      </trkpt>
      <trkpt lat="43.99369" lon="2.08323">
        <ele>265</ele>
        <time>2010-07-25T10:44:46Z</time>
      </trkpt>
      <trkpt lat="43.99386" lon="2.08369">
        <ele>267</ele>
        <time>2010-07-25T10:45:08Z</time>
      </trkpt>
      <trkpt lat="43.99392" lon="2.08388">
        <ele>268</ele>
        <time>2010-07-25T10:45:16Z</time>
      </trkpt>
      <trkpt lat="43.99412" lon="2.08411">
        <ele>272</ele>
        <time>2010-07-25T10:45:23Z</time>
      </trkpt>
      <trkpt lat="43.99461" lon="2.08405">
        <ele>278</ele>
        <time>2010-07-25T10:45:37Z</time>
      </trkpt>
      <trkpt lat="43.99474" lon="2.08422">
        <ele>276</ele>
        <time>2010-07-25T10:45:49Z</time>
      </trkpt>
      <trkpt lat="43.99491" lon="2.08446">
        <ele>273</ele>
        <time>2010-07-25T10:46:04Z</time>
      </trkpt>
      <trkpt lat="43.99497" lon="2.08472">
        <ele>273</ele>
        <time>2010-07-25T10:46:15Z</time>
      </trkpt>
      <trkpt lat="43.99504" lon="2.08481">
        <ele>272</ele>
        <time>2010-07-25T10:46:23Z</time>
      </trkpt>
      <trkpt lat="43.99507" lon="2.08479">
        <ele>272</ele>
        <time>2010-07-25T10:46:27Z</time>
      </trkpt>
      <trkpt lat="43.99515" lon="2.08475">
        <ele>271</ele>
        <time>2010-07-25T10:46:34Z</time>
      </trkpt>
      <trkpt lat="43.99528" lon="2.08494">
        <ele>269</ele>
        <time>2010-07-25T10:46:49Z</time>
      </trkpt>
      <trkpt lat="43.99535" lon="2.08486">
        <ele>269</ele>
        <time>2010-07-25T10:47:02Z</time>
      </trkpt>
      <trkpt lat="43.99535" lon="2.08485">
        <ele>268</ele>
        <time>2010-07-25T10:47:20Z</time>
      </trkpt>
      <trkpt lat="43.99536" lon="2.08486">
        <ele>268</ele>
        <time>2010-07-25T10:47:51Z</time>
      </trkpt>
      <trkpt lat="43.99536" lon="2.08485">
        <ele>268</ele>
        <time>2010-07-25T10:48:00Z</time>
      </trkpt>
      <trkpt lat="43.99536" lon="2.08486">
        <ele>268</ele>
        <time>2010-07-25T10:48:02Z</time>
      </trkpt>
      <trkpt lat="43.99538" lon="2.08502">
        <ele>269</ele>
        <time>2010-07-25T10:48:20Z</time>
      </trkpt>
      <trkpt lat="43.99535" lon="2.085">
        <ele>270</ele>
        <time>2010-07-25T10:48:33Z</time>
      </trkpt>
      <trkpt lat="43.99536" lon="2.08493">
        <ele>270</ele>
        <time>2010-07-25T10:48:46Z</time>
      </trkpt>
      <trkpt lat="43.99536" lon="2.08493">
        <ele>270</ele>
        <time>2010-07-25T10:48:58Z</time>
      </trkpt>
      <trkpt lat="43.99532" lon="2.08491">
        <ele>270</ele>
        <time>2010-07-25T10:49:03Z</time>
      </trkpt>
      <trkpt lat="43.99526" lon="2.08492">
        <ele>271</ele>
        <time>2010-07-25T10:49:09Z</time>
      </trkpt>
      <trkpt lat="43.99527" lon="2.085">
        <ele>270</ele>
        <time>2010-07-25T10:49:14Z</time>
      </trkpt>
      <trkpt lat="43.99531" lon="2.0851">
        <ele>269</ele>
        <time>2010-07-25T10:49:20Z</time>
      </trkpt>
      <trkpt lat="43.99534" lon="2.08527">
        <ele>266</ele>
        <time>2010-07-25T10:49:32Z</time>
      </trkpt>
      <trkpt lat="43.99539" lon="2.08542">
        <ele>264</ele>
        <time>2010-07-25T10:49:40Z</time>
      </trkpt>
      <trkpt lat="43.99546" lon="2.08557">
        <ele>264</ele>
        <time>2010-07-25T10:49:49Z</time>
      </trkpt>
      <trkpt lat="43.99552" lon="2.08576">
        <ele>266</ele>
        <time>2010-07-25T10:49:58Z</time>
      </trkpt>
      <trkpt lat="43.99554" lon="2.0859">
        <ele>267</ele>
        <time>2010-07-25T10:50:05Z</time>
      </trkpt>
      <trkpt lat="43.99561" lon="2.0863">
        <ele>268</ele>
        <time>2010-07-25T10:50:24Z</time>
      </trkpt>
      <trkpt lat="43.99565" lon="2.08668">
        <ele>268</ele>
        <time>2010-07-25T10:50:42Z</time>
      </trkpt>
      <trkpt lat="43.99564" lon="2.08691">
        <ele>269</ele>
        <time>2010-07-25T10:50:53Z</time>
      </trkpt>
      <trkpt lat="43.99565" lon="2.08729">
        <ele>268</ele>
        <time>2010-07-25T10:51:12Z</time>
      </trkpt>
      <trkpt lat="43.99568" lon="2.08772">
        <ele>269</ele>
        <time>2010-07-25T10:51:31Z</time>
      </trkpt>
      <trkpt lat="43.99564" lon="2.08825">
        <ele>265</ele>
        <time>2010-07-25T10:51:54Z</time>
      </trkpt>
      <trkpt lat="43.99565" lon="2.08855">
        <ele>264</ele>
        <time>2010-07-25T10:52:06Z</time>
      </trkpt>
      <trkpt lat="43.99566" lon="2.08872">
        <ele>264</ele>
        <time>2010-07-25T10:52:15Z</time>
      </trkpt>
      <trkpt lat="43.99566" lon="2.08873">
        <ele>264</ele>
        <time>2010-07-25T10:52:16Z</time>
      </trkpt>
      <trkpt lat="43.99563" lon="2.08906">
        <ele>264</ele>
        <time>2010-07-25T10:52:29Z</time>
      </trkpt>
      <trkpt lat="43.99561" lon="2.08916">
        <ele>264</ele>
        <time>2010-07-25T10:52:34Z</time>
      </trkpt>
      <trkpt lat="43.99554" lon="2.0895">
        <ele>261</ele>
        <time>2010-07-25T10:52:49Z</time>
      </trkpt>
      <trkpt lat="43.99551" lon="2.08965">
        <ele>260</ele>
        <time>2010-07-25T10:52:57Z</time>
      </trkpt>
      <trkpt lat="43.99545" lon="2.08989">
        <ele>259</ele>
        <time>2010-07-25T10:53:07Z</time>
      </trkpt>
      <trkpt lat="43.99545" lon="2.09007">
        <ele>261</ele>
        <time>2010-07-25T10:53:14Z</time>
      </trkpt>
      <trkpt lat="43.99545" lon="2.09014">
        <ele>262</ele>
        <time>2010-07-25T10:53:17Z</time>
      </trkpt>
      <trkpt lat="43.99545" lon="2.09032">
        <ele>264</ele>
        <time>2010-07-25T10:53:25Z</time>
      </trkpt>
      <trkpt lat="43.99546" lon="2.0906">
        <ele>269</ele>
        <time>2010-07-25T10:53:37Z</time>
      </trkpt>
      <trkpt lat="43.99545" lon="2.09068">
        <ele>269</ele>
        <time>2010-07-25T10:53:40Z</time>
      </trkpt>
      <trkpt lat="43.9954" lon="2.09074">
        <ele>269</ele>
        <time>2010-07-25T10:53:44Z</time>
      </trkpt>
      <trkpt lat="43.99539" lon="2.09079">
        <ele>269</ele>
        <time>2010-07-25T10:53:48Z</time>
      </trkpt>
      <trkpt lat="43.99539" lon="2.09085">
        <ele>269</ele>
        <time>2010-07-25T10:53:51Z</time>
      </trkpt>
      <trkpt lat="43.99558" lon="2.09088">
        <ele>270</ele>
        <time>2010-07-25T10:54:06Z</time>
      </trkpt>
      <trkpt lat="43.99584" lon="2.09098">
        <ele>269</ele>
        <time>2010-07-25T10:54:23Z</time>
      </trkpt>
      <trkpt lat="43.99592" lon="2.09104">
        <ele>268</ele>
        <time>2010-07-25T10:54:29Z</time>
      </trkpt>
      <trkpt lat="43.99585" lon="2.09123">
        <ele>271</ele>
        <time>2010-07-25T10:54:40Z</time>
      </trkpt>
      <trkpt lat="43.99561" lon="2.09152">
        <ele>276</ele>
        <time>2010-07-25T10:54:51Z</time>
      </trkpt>
      <trkpt lat="43.9953" lon="2.0922">
        <ele>282</ele>
        <time>2010-07-25T10:55:06Z</time>
      </trkpt>
      <trkpt lat="43.99506" lon="2.0927">
        <ele>286</ele>
        <time>2010-07-25T10:55:18Z</time>
      </trkpt>
      <trkpt lat="43.99498" lon="2.09288">
        <ele>286</ele>
        <time>2010-07-25T10:55:22Z</time>
      </trkpt>
      <trkpt lat="43.9948" lon="2.09301">
        <ele>285</ele>
        <time>2010-07-25T10:55:27Z</time>
      </trkpt>
      <trkpt lat="43.99445" lon="2.09306">
        <ele>287</ele>
        <time>2010-07-25T10:55:35Z</time>
      </trkpt>
      <trkpt lat="43.99425" lon="2.09312">
        <ele>287</ele>
        <time>2010-07-25T10:55:40Z</time>
      </trkpt>
      <trkpt lat="43.99375" lon="2.09346">
        <ele>288</ele>
        <time>2010-07-25T10:55:52Z</time>
      </trkpt>
      <trkpt lat="43.99344" lon="2.09363">
        <ele>289</ele>
        <time>2010-07-25T10:55:58Z</time>
      </trkpt>
      <trkpt lat="43.99301" lon="2.09395">
        <ele>292</ele>
        <time>2010-07-25T10:56:10Z</time>
      </trkpt>
      <trkpt lat="43.99263" lon="2.09446">
        <ele>293</ele>
        <time>2010-07-25T10:56:22Z</time>
      </trkpt>
      <trkpt lat="43.99253" lon="2.0946">
        <ele>293</ele>
        <time>2010-07-25T10:56:25Z</time>
      </trkpt>
      <trkpt lat="43.99235" lon="2.09473">
        <ele>296</ele>
        <time>2010-07-25T10:56:29Z</time>
      </trkpt>
      <trkpt lat="43.99191" lon="2.09481">
        <ele>299</ele>
        <time>2010-07-25T10:56:37Z</time>
      </trkpt>
      <trkpt lat="43.99163" lon="2.09486">
        <ele>299</ele>
        <time>2010-07-25T10:56:42Z</time>
      </trkpt>
      <trkpt lat="43.99136" lon="2.09496">
        <ele>301</ele>
        <time>2010-07-25T10:56:47Z</time>
      </trkpt>
      <trkpt lat="43.9912" lon="2.09505">
        <ele>301</ele>
        <time>2010-07-25T10:56:50Z</time>
      </trkpt>
      <trkpt lat="43.99101" lon="2.0952">
        <ele>300</ele>
        <time>2010-07-25T10:56:54Z</time>
      </trkpt>
      <trkpt lat="43.99062" lon="2.09549">
        <ele>296</ele>
        <time>2010-07-25T10:57:06Z</time>
      </trkpt>
      <trkpt lat="43.99047" lon="2.09567">
        <ele>295</ele>
        <time>2010-07-25T10:57:15Z</time>
      </trkpt>
      <trkpt lat="43.99031" lon="2.09586">
        <ele>296</ele>
        <time>2010-07-25T10:57:29Z</time>
      </trkpt>
      <trkpt lat="43.98999" lon="2.09595">
        <ele>294</ele>
        <time>2010-07-25T10:57:50Z</time>
      </trkpt>
      <trkpt lat="43.98958" lon="2.09599">
        <ele>293</ele>
        <time>2010-07-25T10:58:17Z</time>
      </trkpt>
      <trkpt lat="43.98925" lon="2.09602">
        <ele>292</ele>
        <time>2010-07-25T10:58:39Z</time>
      </trkpt>
      <trkpt lat="43.98887" lon="2.09605">
        <ele>291</ele>
        <time>2010-07-25T10:59:05Z</time>
      </trkpt>
      <trkpt lat="43.98837" lon="2.09612">
        <ele>292</ele>
        <time>2010-07-25T10:59:40Z</time>
      </trkpt>
      <trkpt lat="43.98812" lon="2.09635">
        <ele>292</ele>
        <time>2010-07-25T10:59:59Z</time>
      </trkpt>
      <trkpt lat="43.98807" lon="2.09642">
        <ele>291</ele>
        <time>2010-07-25T11:00:04Z</time>
      </trkpt>
      <trkpt lat="43.98804" lon="2.09649">
        <ele>292</ele>
        <time>2010-07-25T11:00:09Z</time>
      </trkpt>
      <trkpt lat="43.98799" lon="2.09667">
        <ele>291</ele>
        <time>2010-07-25T11:00:18Z</time>
      </trkpt>
      <trkpt lat="43.98785" lon="2.09694">
        <ele>291</ele>
        <time>2010-07-25T11:00:33Z</time>
      </trkpt>
      <trkpt lat="43.98776" lon="2.09701">
        <ele>292</ele>
        <time>2010-07-25T11:00:41Z</time>
      </trkpt>
      <trkpt lat="43.98761" lon="2.09716">
        <ele>293</ele>
        <time>2010-07-25T11:00:53Z</time>
      </trkpt>
      <trkpt lat="43.98757" lon="2.09721">
        <ele>293</ele>
        <time>2010-07-25T11:00:56Z</time>
      </trkpt>
      <trkpt lat="43.98747" lon="2.09735">
        <ele>293</ele>
        <time>2010-07-25T11:01:05Z</time>
      </trkpt>
      <trkpt lat="43.98742" lon="2.09734">
        <ele>293</ele>
        <time>2010-07-25T11:01:08Z</time>
      </trkpt>
      <trkpt lat="43.98719" lon="2.09752">
        <ele>289</ele>
        <time>2010-07-25T11:01:21Z</time>
      </trkpt>
      <trkpt lat="43.98719" lon="2.09754">
        <ele>289</ele>
        <time>2010-07-25T11:01:22Z</time>
      </trkpt>
      <trkpt lat="43.98716" lon="2.09768">
        <ele>287</ele>
        <time>2010-07-25T11:01:30Z</time>
      </trkpt>
      <trkpt lat="43.98736" lon="2.09792">
        <ele>286</ele>
        <time>2010-07-25T11:01:46Z</time>
      </trkpt>
      <trkpt lat="43.98753" lon="2.09803">
        <ele>285</ele>
        <time>2010-07-25T11:01:58Z</time>
      </trkpt>
      <trkpt lat="43.98762" lon="2.09808">
        <ele>287</ele>
        <time>2010-07-25T11:02:03Z</time>
      </trkpt>
      <trkpt lat="43.98772" lon="2.09843">
        <ele>284</ele>
        <time>2010-07-25T11:02:24Z</time>
      </trkpt>
      <trkpt lat="43.98774" lon="2.09849">
        <ele>283</ele>
        <time>2010-07-25T11:02:27Z</time>
      </trkpt>
      <trkpt lat="43.98779" lon="2.09862">
        <ele>283</ele>
        <time>2010-07-25T11:02:34Z</time>
      </trkpt>
      <trkpt lat="43.9878" lon="2.09896">
        <ele>282</ele>
        <time>2010-07-25T11:02:50Z</time>
      </trkpt>
      <trkpt lat="43.9878" lon="2.09918">
        <ele>280</ele>
        <time>2010-07-25T11:03:00Z</time>
      </trkpt>
      <trkpt lat="43.9878" lon="2.09927">
        <ele>280</ele>
        <time>2010-07-25T11:03:04Z</time>
      </trkpt>
      <trkpt lat="43.9878" lon="2.09957">
        <ele>280</ele>
        <time>2010-07-25T11:03:15Z</time>
      </trkpt>
      <trkpt lat="43.98773" lon="2.09994">
        <ele>278</ele>
        <time>2010-07-25T11:03:29Z</time>
      </trkpt>
      <trkpt lat="43.98763" lon="2.1002">
        <ele>277</ele>
        <time>2010-07-25T11:03:45Z</time>
      </trkpt>
      <trkpt lat="43.98753" lon="2.10033">
        <ele>277</ele>
        <time>2010-07-25T11:03:58Z</time>
      </trkpt>
      <trkpt lat="43.9875" lon="2.10034">
        <ele>277</ele>
        <time>2010-07-25T11:04:02Z</time>
      </trkpt>
      <trkpt lat="43.98736" lon="2.10063">
        <ele>278</ele>
        <time>2010-07-25T11:04:19Z</time>
      </trkpt>
      <trkpt lat="43.98723" lon="2.10115">
        <ele>283</ele>
        <time>2010-07-25T11:04:41Z</time>
      </trkpt>
      <trkpt lat="43.98705" lon="2.10153">
        <ele>288</ele>
        <time>2010-07-25T11:04:53Z</time>
      </trkpt>
      <trkpt lat="43.98684" lon="2.10184">
        <ele>291</ele>
        <time>2010-07-25T11:05:07Z</time>
      </trkpt>
      <trkpt lat="43.98664" lon="2.1022">
        <ele>292</ele>
        <time>2010-07-25T11:05:26Z</time>
      </trkpt>
      <trkpt lat="43.98655" lon="2.10241">
        <ele>291</ele>
        <time>2010-07-25T11:05:38Z</time>
      </trkpt>
      <trkpt lat="43.9863" lon="2.10283">
        <ele>290</ele>
        <time>2010-07-25T11:06:04Z</time>
      </trkpt>
      <trkpt lat="43.98611" lon="2.10334">
        <ele>289</ele>
        <time>2010-07-25T11:06:33Z</time>
      </trkpt>
      <trkpt lat="43.98615" lon="2.10386">
        <ele>289</ele>
        <time>2010-07-25T11:07:00Z</time>
      </trkpt>
      <trkpt lat="43.98619" lon="2.1043">
        <ele>290</ele>
        <time>2010-07-25T11:07:21Z</time>
      </trkpt>
      <trkpt lat="43.98624" lon="2.10488">
        <ele>292</ele>
        <time>2010-07-25T11:07:41Z</time>
      </trkpt>
      <trkpt lat="43.98626" lon="2.10519">
        <ele>292</ele>
        <time>2010-07-25T11:07:54Z</time>
      </trkpt>
      <trkpt lat="43.98633" lon="2.10565">
        <ele>291</ele>
        <time>2010-07-25T11:08:15Z</time>
      </trkpt>
      <trkpt lat="43.98637" lon="2.10595">
        <ele>290</ele>
        <time>2010-07-25T11:08:27Z</time>
      </trkpt>
      <trkpt lat="43.98637" lon="2.106">
        <ele>290</ele>
        <time>2010-07-25T11:08:30Z</time>
      </trkpt>
      <trkpt lat="43.98643" lon="2.10605">
        <ele>290</ele>
        <time>2010-07-25T11:08:37Z</time>
      </trkpt>
      <trkpt lat="43.98639" lon="2.10634">
        <ele>291</ele>
        <time>2010-07-25T11:08:54Z</time>
      </trkpt>
      <trkpt lat="43.98632" lon="2.10668">
        <ele>291</ele>
        <time>2010-07-25T11:09:13Z</time>
      </trkpt>
      <trkpt lat="43.98628" lon="2.1069">
        <ele>289</ele>
        <time>2010-07-25T11:09:26Z</time>
      </trkpt>
      <trkpt lat="43.98618" lon="2.10718">
        <ele>288</ele>
        <time>2010-07-25T11:09:37Z</time>
      </trkpt>
      <trkpt lat="43.98617" lon="2.10727">
        <ele>288</ele>
        <time>2010-07-25T11:09:41Z</time>
      </trkpt>
      <trkpt lat="43.98608" lon="2.10768">
        <ele>282</ele>
        <time>2010-07-25T11:09:59Z</time>
      </trkpt>
      <trkpt lat="43.98603" lon="2.1081">
        <ele>281</ele>
        <time>2010-07-25T11:10:18Z</time>
      </trkpt>
      <trkpt lat="43.98597" lon="2.10839">
        <ele>282</ele>
        <time>2010-07-25T11:10:33Z</time>
      </trkpt>
      <trkpt lat="43.98592" lon="2.10879">
        <ele>285</ele>
        <time>2010-07-25T11:10:51Z</time>
      </trkpt>
      <trkpt lat="43.98588" lon="2.10911">
        <ele>284</ele>
        <time>2010-07-25T11:11:07Z</time>
      </trkpt>
      <trkpt lat="43.98582" lon="2.10948">
        <ele>283</ele>
        <time>2010-07-25T11:11:25Z</time>
      </trkpt>
      <trkpt lat="43.98573" lon="2.10996">
        <ele>281</ele>
        <time>2010-07-25T11:11:48Z</time>
      </trkpt>
      <trkpt lat="43.98567" lon="2.11026">
        <ele>282</ele>
        <time>2010-07-25T11:12:04Z</time>
      </trkpt>
      <trkpt lat="43.9856" lon="2.11048">
        <ele>280</ele>
        <time>2010-07-25T11:12:15Z</time>
      </trkpt>
      <trkpt lat="43.98552" lon="2.11078">
        <ele>280</ele>
        <time>2010-07-25T11:12:32Z</time>
      </trkpt>
      <trkpt lat="43.98541" lon="2.11099">
        <ele>277</ele>
        <time>2010-07-25T11:12:47Z</time>
      </trkpt>
      <trkpt lat="43.98533" lon="2.11121">
        <ele>279</ele>
        <time>2010-07-25T11:12:59Z</time>
      </trkpt>
      <trkpt lat="43.98524" lon="2.11146">
        <ele>279</ele>
        <time>2010-07-25T11:13:13Z</time>
      </trkpt>
      <trkpt lat="43.98511" lon="2.1118">
        <ele>277</ele>
        <time>2010-07-25T11:13:31Z</time>
      </trkpt>
      <trkpt lat="43.98504" lon="2.11205">
        <ele>276</ele>
        <time>2010-07-25T11:13:45Z</time>
      </trkpt>
      <trkpt lat="43.98496" lon="2.11231">
        <ele>275</ele>
        <time>2010-07-25T11:14:00Z</time>
      </trkpt>
      <trkpt lat="43.98483" lon="2.11262">
        <ele>272</ele>
        <time>2010-07-25T11:14:16Z</time>
      </trkpt>
      <trkpt lat="43.9847" lon="2.11295">
        <ele>271</ele>
        <time>2010-07-25T11:14:35Z</time>
      </trkpt>
      <trkpt lat="43.98458" lon="2.11326">
        <ele>272</ele>
        <time>2010-07-25T11:14:52Z</time>
      </trkpt>
      <trkpt lat="43.98451" lon="2.1135">
        <ele>271</ele>
        <time>2010-07-25T11:15:05Z</time>
      </trkpt>
      <trkpt lat="43.98441" lon="2.1139">
        <ele>269</ele>
        <time>2010-07-25T11:15:26Z</time>
      </trkpt>
      <trkpt lat="43.98434" lon="2.11409">
        <ele>267</ele>
        <time>2010-07-25T11:15:39Z</time>
      </trkpt>
      <trkpt lat="43.98427" lon="2.1143">
        <ele>267</ele>
        <time>2010-07-25T11:15:51Z</time>
      </trkpt>
      <trkpt lat="43.98425" lon="2.11436">
        <ele>267</ele>
        <time>2010-07-25T11:15:55Z</time>
      </trkpt>
      <trkpt lat="43.98419" lon="2.11444">
        <ele>266</ele>
        <time>2010-07-25T11:16:02Z</time>
      </trkpt>
      <trkpt lat="43.98408" lon="2.11467">
        <ele>264</ele>
        <time>2010-07-25T11:16:17Z</time>
      </trkpt>
      <trkpt lat="43.98394" lon="2.11495">
        <ele>261</ele>
        <time>2010-07-25T11:16:33Z</time>
      </trkpt>
      <trkpt lat="43.98389" lon="2.11511">
        <ele>260</ele>
        <time>2010-07-25T11:16:41Z</time>
      </trkpt>
      <trkpt lat="43.98376" lon="2.11527">
        <ele>255</ele>
        <time>2010-07-25T11:16:55Z</time>
      </trkpt>
      <trkpt lat="43.98362" lon="2.11544">
        <ele>256</ele>
        <time>2010-07-25T11:17:07Z</time>
      </trkpt>
      <trkpt lat="43.98346" lon="2.1156">
        <ele>254</ele>
        <time>2010-07-25T11:17:19Z</time>
      </trkpt>
      <trkpt lat="43.98332" lon="2.11577">
        <ele>253</ele>
        <time>2010-07-25T11:17:31Z</time>
      </trkpt>
      <trkpt lat="43.9831" lon="2.11599">
        <ele>250</ele>
        <time>2010-07-25T11:17:45Z</time>
      </trkpt>
      <trkpt lat="43.98288" lon="2.11615">
        <ele>247</ele>
        <time>2010-07-25T11:17:59Z</time>
      </trkpt>
      <trkpt lat="43.98256" lon="2.11614">
        <ele>243</ele>
        <time>2010-07-25T11:18:15Z</time>
      </trkpt>
      <trkpt lat="43.98229" lon="2.11603">
        <ele>239</ele>
        <time>2010-07-25T11:18:29Z</time>
      </trkpt>
      <trkpt lat="43.98224" lon="2.11604">
        <ele>237</ele>
        <time>2010-07-25T11:18:34Z</time>
      </trkpt>
      <trkpt lat="43.98222" lon="2.11608">
        <ele>236</ele>
        <time>2010-07-25T11:18:37Z</time>
      </trkpt>
      <trkpt lat="43.98224" lon="2.11614">
        <ele>235</ele>
        <time>2010-07-25T11:18:41Z</time>
      </trkpt>
      <trkpt lat="43.98231" lon="2.11623">
        <ele>236</ele>
        <time>2010-07-25T11:18:46Z</time>
      </trkpt>
      <trkpt lat="43.98226" lon="2.11633">
        <ele>234</ele>
        <time>2010-07-25T11:18:53Z</time>
      </trkpt>
      <trkpt lat="43.98209" lon="2.11627">
        <ele>229</ele>
        <time>2010-07-25T11:19:02Z</time>
      </trkpt>
      <trkpt lat="43.98203" lon="2.11632">
        <ele>227</ele>
        <time>2010-07-25T11:19:06Z</time>
      </trkpt>
      <trkpt lat="43.98203" lon="2.11639">
        <ele>227</ele>
        <time>2010-07-25T11:19:10Z</time>
      </trkpt>
      <trkpt lat="43.98215" lon="2.11659">
        <ele>225</ele>
        <time>2010-07-25T11:19:20Z</time>
      </trkpt>
      <trkpt lat="43.98216" lon="2.11665">
        <ele>223</ele>
        <time>2010-07-25T11:19:23Z</time>
      </trkpt>
      <trkpt lat="43.98195" lon="2.11666">
        <ele>220</ele>
        <time>2010-07-25T11:19:34Z</time>
      </trkpt>
      <trkpt lat="43.9817" lon="2.11649">
        <ele>220</ele>
        <time>2010-07-25T11:19:48Z</time>
      </trkpt>
      <trkpt lat="43.98164" lon="2.11655">
        <ele>218</ele>
        <time>2010-07-25T11:19:55Z</time>
      </trkpt>
      <trkpt lat="43.98185" lon="2.11681">
        <ele>212</ele>
        <time>2010-07-25T11:20:11Z</time>
      </trkpt>
      <trkpt lat="43.98189" lon="2.11686">
        <ele>210</ele>
        <time>2010-07-25T11:20:14Z</time>
      </trkpt>
      <trkpt lat="43.98193" lon="2.11698">
        <ele>210</ele>
        <time>2010-07-25T11:20:19Z</time>
      </trkpt>
      <trkpt lat="43.98194" lon="2.11704">
        <ele>209</ele>
        <time>2010-07-25T11:20:22Z</time>
      </trkpt>
      <trkpt lat="43.9821" lon="2.11718">
        <ele>210</ele>
        <time>2010-07-25T11:20:33Z</time>
      </trkpt>
      <trkpt lat="43.98219" lon="2.11723">
        <ele>212</ele>
        <time>2010-07-25T11:20:43Z</time>
      </trkpt>
      <trkpt lat="43.9823" lon="2.11729">
        <ele>215</ele>
        <time>2010-07-25T11:20:53Z</time>
      </trkpt>
      <trkpt lat="43.98242" lon="2.11731">
        <ele>216</ele>
        <time>2010-07-25T11:20:57Z</time>
      </trkpt>
      <trkpt lat="43.98249" lon="2.11756">
        <ele>218</ele>
        <time>2010-07-25T11:21:06Z</time>
      </trkpt>
      <trkpt lat="43.98258" lon="2.1176">
        <ele>218</ele>
        <time>2010-07-25T11:21:17Z</time>
      </trkpt>
      <trkpt lat="43.98281" lon="2.11758">
        <ele>222</ele>
        <time>2010-07-25T11:21:34Z</time>
      </trkpt>
      <trkpt lat="43.98299" lon="2.11758">
        <ele>225</ele>
        <time>2010-07-25T11:21:46Z</time>
      </trkpt>
      <trkpt lat="43.98314" lon="2.11755">
        <ele>224</ele>
        <time>2010-07-25T11:21:57Z</time>
      </trkpt>
      <trkpt lat="43.98322" lon="2.11754">
        <ele>222</ele>
        <time>2010-07-25T11:22:03Z</time>
      </trkpt>
      <trkpt lat="43.98327" lon="2.11753">
        <ele>222</ele>
        <time>2010-07-25T11:22:08Z</time>
      </trkpt>
      <trkpt lat="43.9834" lon="2.11748">
        <ele>224</ele>
        <time>2010-07-25T11:22:17Z</time>
      </trkpt>
      <trkpt lat="43.98349" lon="2.11743">
        <ele>227</ele>
        <time>2010-07-25T11:22:22Z</time>
      </trkpt>
      <trkpt lat="43.98357" lon="2.11738">
        <ele>227</ele>
        <time>2010-07-25T11:22:28Z</time>
      </trkpt>
      <trkpt lat="43.9838" lon="2.11731">
        <ele>227</ele>
        <time>2010-07-25T11:22:43Z</time>
      </trkpt>
      <trkpt lat="43.98395" lon="2.11732">
        <ele>226</ele>
        <time>2010-07-25T11:22:52Z</time>
      </trkpt>
      <trkpt lat="43.984" lon="2.11731">
        <ele>225</ele>
        <time>2010-07-25T11:22:56Z</time>
      </trkpt>
      <trkpt lat="43.98415" lon="2.11718">
        <ele>224</ele>
        <time>2010-07-25T11:23:09Z</time>
      </trkpt>
      <trkpt lat="43.9844" lon="2.11709">
        <ele>225</ele>
        <time>2010-07-25T11:23:23Z</time>
      </trkpt>
      <trkpt lat="43.98447" lon="2.11736">
        <ele>234</ele>
        <time>2010-07-25T11:23:31Z</time>
      </trkpt>
      <trkpt lat="43.98441" lon="2.11776">
        <ele>241</ele>
        <time>2010-07-25T11:23:40Z</time>
      </trkpt>
      <trkpt lat="43.98447" lon="2.11778">
        <ele>242</ele>
        <time>2010-07-25T11:23:46Z</time>
      </trkpt>
      <trkpt lat="43.98451" lon="2.11774">
        <ele>241</ele>
        <time>2010-07-25T11:23:51Z</time>
      </trkpt>
      <trkpt lat="43.98456" lon="2.1177">
        <ele>242</ele>
        <time>2010-07-25T11:23:55Z</time>
      </trkpt>
      <trkpt lat="43.98463" lon="2.11768">
        <ele>242</ele>
        <time>2010-07-25T11:24:00Z</time>
      </trkpt>
      <trkpt lat="43.98468" lon="2.11772">
        <ele>245</ele>
        <time>2010-07-25T11:24:04Z</time>
      </trkpt>
      <trkpt lat="43.98464" lon="2.11788">
        <ele>247</ele>
        <time>2010-07-25T11:24:12Z</time>
      </trkpt>
      <trkpt lat="43.98459" lon="2.11809">
        <ele>250</ele>
        <time>2010-07-25T11:24:24Z</time>
      </trkpt>
      <trkpt lat="43.98446" lon="2.11828">
        <ele>251</ele>
        <time>2010-07-25T11:24:36Z</time>
      </trkpt>
      <trkpt lat="43.98431" lon="2.11845">
        <ele>251</ele>
        <time>2010-07-25T11:24:48Z</time>
      </trkpt>
      <trkpt lat="43.98429" lon="2.1185">
        <ele>251</ele>
        <time>2010-07-25T11:24:51Z</time>
      </trkpt>
      <trkpt lat="43.98431" lon="2.11863">
        <ele>254</ele>
        <time>2010-07-25T11:24:58Z</time>
      </trkpt>
      <trkpt lat="43.98433" lon="2.1187">
        <ele>256</ele>
        <time>2010-07-25T11:25:02Z</time>
      </trkpt>
      <trkpt lat="43.98433" lon="2.11893">
        <ele>258</ele>
        <time>2010-07-25T11:25:18Z</time>
      </trkpt>
      <trkpt lat="43.98434" lon="2.11901">
        <ele>259</ele>
        <time>2010-07-25T11:25:33Z</time>
      </trkpt>
      <trkpt lat="43.98434" lon="2.11904">
        <ele>259</ele>
        <time>2010-07-25T11:25:37Z</time>
      </trkpt>
      <trkpt lat="43.98423" lon="2.11918">
        <ele>260</ele>
        <time>2010-07-25T11:25:50Z</time>
      </trkpt>
      <trkpt lat="43.9841" lon="2.11927">
        <ele>258</ele>
        <time>2010-07-25T11:26:03Z</time>
      </trkpt>
      <trkpt lat="43.9841" lon="2.11925">
        <ele>258</ele>
        <time>2010-07-25T11:26:22Z</time>
      </trkpt>
      <trkpt lat="43.98408" lon="2.11926">
        <ele>257</ele>
        <time>2010-07-25T11:26:40Z</time>
      </trkpt>
      <trkpt lat="43.98405" lon="2.11924">
        <ele>256</ele>
        <time>2010-07-25T11:27:07Z</time>
      </trkpt>
      <trkpt lat="43.98397" lon="2.11931">
        <ele>255</ele>
        <time>2010-07-25T11:27:23Z</time>
      </trkpt>
      <trkpt lat="43.98374" lon="2.11952">
        <ele>253</ele>
        <time>2010-07-25T11:27:40Z</time>
      </trkpt>
      <trkpt lat="43.9835" lon="2.11961">
        <ele>254</ele>
        <time>2010-07-25T11:27:58Z</time>
      </trkpt>
      <trkpt lat="43.98329" lon="2.11973">
        <ele>255</ele>
        <time>2010-07-25T11:28:15Z</time>
      </trkpt>
      <trkpt lat="43.98306" lon="2.11985">
        <ele>252</ele>
        <time>2010-07-25T11:28:31Z</time>
      </trkpt>
      <trkpt lat="43.98289" lon="2.11991">
        <ele>253</ele>
        <time>2010-07-25T11:28:44Z</time>
      </trkpt>
      <trkpt lat="43.98271" lon="2.11998">
        <ele>260</ele>
        <time>2010-07-25T11:28:57Z</time>
      </trkpt>
      <trkpt lat="43.98265" lon="2.12001">
        <ele>260</ele>
        <time>2010-07-25T11:29:02Z</time>
      </trkpt>
      <trkpt lat="43.9826" lon="2.12016">
        <ele>258</ele>
        <time>2010-07-25T11:29:12Z</time>
      </trkpt>
      <trkpt lat="43.98265" lon="2.12047">
        <ele>256</ele>
        <time>2010-07-25T11:29:29Z</time>
      </trkpt>
      <trkpt lat="43.98264" lon="2.12053">
        <ele>256</ele>
        <time>2010-07-25T11:29:32Z</time>
      </trkpt>
      <trkpt lat="43.98261" lon="2.12061">
        <ele>256</ele>
        <time>2010-07-25T11:29:36Z</time>
      </trkpt>
      <trkpt lat="43.98251" lon="2.12084">
        <ele>256</ele>
        <time>2010-07-25T11:29:47Z</time>
      </trkpt>
      <trkpt lat="43.98235" lon="2.12098">
        <ele>258</ele>
        <time>2010-07-25T11:30:01Z</time>
      </trkpt>
      <trkpt lat="43.98217" lon="2.12104">
        <ele>259</ele>
        <time>2010-07-25T11:30:14Z</time>
      </trkpt>
      <trkpt lat="43.98191" lon="2.12112">
        <ele>258</ele>
        <time>2010-07-25T11:30:30Z</time>
      </trkpt>
      <trkpt lat="43.98171" lon="2.1212">
        <ele>255</ele>
        <time>2010-07-25T11:30:43Z</time>
      </trkpt>
      <trkpt lat="43.98153" lon="2.12129">
        <ele>254</ele>
        <time>2010-07-25T11:30:57Z</time>
      </trkpt>
      <trkpt lat="43.98149" lon="2.12131">
        <ele>255</ele>
        <time>2010-07-25T11:31:00Z</time>
      </trkpt>
      <trkpt lat="43.98132" lon="2.12137">
        <ele>257</ele>
        <time>2010-07-25T11:31:13Z</time>
      </trkpt>
      <trkpt lat="43.98117" lon="2.12144">
        <ele>258</ele>
        <time>2010-07-25T11:31:25Z</time>
      </trkpt>
      <trkpt lat="43.98099" lon="2.12149">
        <ele>260</ele>
        <time>2010-07-25T11:31:37Z</time>
      </trkpt>
      <trkpt lat="43.98077" lon="2.12157">
        <ele>260</ele>
        <time>2010-07-25T11:31:49Z</time>
      </trkpt>
      <trkpt lat="43.98057" lon="2.12167">
        <ele>261</ele>
        <time>2010-07-25T11:32:05Z</time>
      </trkpt>
      <trkpt lat="43.98039" lon="2.12173">
        <ele>262</ele>
        <time>2010-07-25T11:32:17Z</time>
      </trkpt>
      <trkpt lat="43.98023" lon="2.12179">
        <ele>264</ele>
        <time>2010-07-25T11:32:28Z</time>
      </trkpt>
      <trkpt lat="43.98" lon="2.12189">
        <ele>266</ele>
        <time>2010-07-25T11:32:45Z</time>
      </trkpt>
      <trkpt lat="43.97977" lon="2.12195">
        <ele>267</ele>
        <time>2010-07-25T11:33:02Z</time>
      </trkpt>
      <trkpt lat="43.97961" lon="2.12192">
        <ele>270</ele>
        <time>2010-07-25T11:33:18Z</time>
      </trkpt>
      <trkpt lat="43.97957" lon="2.12181">
        <ele>271</ele>
        <time>2010-07-25T11:33:33Z</time>
      </trkpt>
      <trkpt lat="43.97956" lon="2.12177">
        <ele>271</ele>
        <time>2010-07-25T11:33:45Z</time>
      </trkpt>
      <trkpt lat="43.97954" lon="2.12165">
        <ele>267</ele>
        <time>2010-07-25T11:34:05Z</time>
      </trkpt>
      <trkpt lat="43.97941" lon="2.12159">
        <ele>265</ele>
        <time>2010-07-25T11:34:25Z</time>
      </trkpt>
      <trkpt lat="43.97938" lon="2.12161">
        <ele>265</ele>
        <time>2010-07-25T11:34:27Z</time>
      </trkpt>
      <trkpt lat="43.9793" lon="2.12166">
        <ele>263</ele>
        <time>2010-07-25T11:34:33Z</time>
      </trkpt>
      <trkpt lat="43.97917" lon="2.12176">
        <ele>260</ele>
        <time>2010-07-25T11:34:46Z</time>
      </trkpt>
      <trkpt lat="43.97915" lon="2.12175">
        <ele>260</ele>
        <time>2010-07-25T11:35:01Z</time>
      </trkpt>
      <trkpt lat="43.97914" lon="2.12174">
        <ele>260</ele>
        <time>2010-07-25T11:35:04Z</time>
      </trkpt>
      <trkpt lat="43.97895" lon="2.12177">
        <ele>258</ele>
        <time>2010-07-25T11:35:18Z</time>
      </trkpt>
      <trkpt lat="43.9788" lon="2.12182">
        <ele>259</ele>
        <time>2010-07-25T11:35:26Z</time>
      </trkpt>
      <trkpt lat="43.97872" lon="2.12181">
        <ele>259</ele>
        <time>2010-07-25T11:35:31Z</time>
      </trkpt>
      <trkpt lat="43.97863" lon="2.12172">
        <ele>259</ele>
        <time>2010-07-25T11:35:38Z</time>
      </trkpt>
      <trkpt lat="43.97855" lon="2.12175">
        <ele>259</ele>
        <time>2010-07-25T11:35:44Z</time>
      </trkpt>
      <trkpt lat="43.9785" lon="2.12178">
        <ele>260</ele>
        <time>2010-07-25T11:35:48Z</time>
      </trkpt>
      <trkpt lat="43.97844" lon="2.12182">
        <ele>259</ele>
        <time>2010-07-25T11:35:54Z</time>
      </trkpt>
      <trkpt lat="43.97833" lon="2.12185">
        <ele>259</ele>
        <time>2010-07-25T11:36:02Z</time>
      </trkpt>
      <trkpt lat="43.97812" lon="2.12195">
        <ele>261</ele>
        <time>2010-07-25T11:36:15Z</time>
      </trkpt>
      <trkpt lat="43.97807" lon="2.12195">
        <ele>262</ele>
        <time>2010-07-25T11:36:18Z</time>
      </trkpt>
      <trkpt lat="43.97791" lon="2.12196">
        <ele>261</ele>
        <time>2010-07-25T11:36:30Z</time>
      </trkpt>
      <trkpt lat="43.97787" lon="2.12197">
        <ele>261</ele>
        <time>2010-07-25T11:36:33Z</time>
      </trkpt>
      <trkpt lat="43.97778" lon="2.12195">
        <ele>262</ele>
        <time>2010-07-25T11:36:39Z</time>
      </trkpt>
      <trkpt lat="43.97763" lon="2.12194">
        <ele>259</ele>
        <time>2010-07-25T11:36:50Z</time>
      </trkpt>
      <trkpt lat="43.97757" lon="2.12194">
        <ele>262</ele>
        <time>2010-07-25T11:36:58Z</time>
      </trkpt>
      <trkpt lat="43.97752" lon="2.12196">
        <ele>262</ele>
        <time>2010-07-25T11:37:02Z</time>
      </trkpt>
      <trkpt lat="43.97736" lon="2.12207">
        <ele>264</ele>
        <time>2010-07-25T11:37:15Z</time>
      </trkpt>
      <trkpt lat="43.97718" lon="2.12214">
        <ele>262</ele>
        <time>2010-07-25T11:37:28Z</time>
      </trkpt>
      <trkpt lat="43.97709" lon="2.12221">
        <ele>262</ele>
        <time>2010-07-25T11:37:36Z</time>
      </trkpt>
      <trkpt lat="43.97694" lon="2.12239">
        <ele>260</ele>
        <time>2010-07-25T11:37:46Z</time>
      </trkpt>
      <trkpt lat="43.97691" lon="2.12243">
        <ele>260</ele>
        <time>2010-07-25T11:37:48Z</time>
      </trkpt>
      <trkpt lat="43.97672" lon="2.12264">
        <ele>257</ele>
        <time>2010-07-25T11:38:03Z</time>
      </trkpt>
      <trkpt lat="43.97651" lon="2.123">
        <ele>252</ele>
        <time>2010-07-25T11:38:20Z</time>
      </trkpt>
      <trkpt lat="43.97644" lon="2.12309">
        <ele>249</ele>
        <time>2010-07-25T11:38:25Z</time>
      </trkpt>
      <trkpt lat="43.97636" lon="2.12332">
        <ele>247</ele>
        <time>2010-07-25T11:38:36Z</time>
      </trkpt>
      <trkpt lat="43.97628" lon="2.1235">
        <ele>245</ele>
        <time>2010-07-25T11:38:44Z</time>
      </trkpt>
      <trkpt lat="43.97623" lon="2.12373">
        <ele>243</ele>
        <time>2010-07-25T11:38:57Z</time>
      </trkpt>
      <trkpt lat="43.97623" lon="2.12368">
        <ele>251</ele>
        <time>2010-07-25T11:39:12Z</time>
      </trkpt>
      <trkpt lat="43.97621" lon="2.12361">
        <ele>257</ele>
        <time>2010-07-25T11:39:27Z</time>
      </trkpt>
      <trkpt lat="43.97623" lon="2.12347">
        <ele>258</ele>
        <time>2010-07-25T11:39:42Z</time>
      </trkpt>
      <trkpt lat="43.97623" lon="2.12348">
        <ele>258</ele>
        <time>2010-07-25T11:39:54Z</time>
      </trkpt>
      <trkpt lat="43.97637" lon="2.12313">
        <ele>256</ele>
        <time>2010-07-25T11:40:06Z</time>
      </trkpt>
      <trkpt lat="43.97643" lon="2.12297">
        <ele>255</ele>
        <time>2010-07-25T11:40:12Z</time>
      </trkpt>
      <trkpt lat="43.9765" lon="2.12286">
        <ele>253</ele>
        <time>2010-07-25T11:40:21Z</time>
      </trkpt>
      <trkpt lat="43.9765" lon="2.12278">
        <ele>252</ele>
        <time>2010-07-25T11:40:28Z</time>
      </trkpt>
      <trkpt lat="43.97662" lon="2.12251">
        <ele>250</ele>
        <time>2010-07-25T11:40:44Z</time>
      </trkpt>
      <trkpt lat="43.97663" lon="2.12248">
        <ele>250</ele>
        <time>2010-07-25T11:40:46Z</time>
      </trkpt>
      <trkpt lat="43.9767" lon="2.12233">
        <ele>251</ele>
        <time>2010-07-25T11:40:54Z</time>
      </trkpt>
      <trkpt lat="43.97671" lon="2.12227">
        <ele>252</ele>
        <time>2010-07-25T11:40:57Z</time>
      </trkpt>
      <trkpt lat="43.97689" lon="2.12205">
        <ele>253</ele>
        <time>2010-07-25T11:41:16Z</time>
      </trkpt>
      <trkpt lat="43.97709" lon="2.12198">
        <ele>251</ele>
        <time>2010-07-25T11:41:29Z</time>
      </trkpt>
      <trkpt lat="43.97724" lon="2.12191">
        <ele>251</ele>
        <time>2010-07-25T11:41:38Z</time>
      </trkpt>
      <trkpt lat="43.97733" lon="2.12186">
        <ele>252</ele>
        <time>2010-07-25T11:41:44Z</time>
      </trkpt>
      <trkpt lat="43.9775" lon="2.12173">
        <ele>255</ele>
        <time>2010-07-25T11:41:56Z</time>
      </trkpt>
      <trkpt lat="43.97754" lon="2.12165">
        <ele>254</ele>
        <time>2010-07-25T11:42:00Z</time>
      </trkpt>
      <trkpt lat="43.97747" lon="2.12163">
        <ele>253</ele>
        <time>2010-07-25T11:42:10Z</time>
      </trkpt>
      <trkpt lat="43.9774" lon="2.12168">
        <ele>252</ele>
        <time>2010-07-25T11:42:16Z</time>
      </trkpt>
      <trkpt lat="43.97736" lon="2.12171">
        <ele>252</ele>
        <time>2010-07-25T11:42:20Z</time>
      </trkpt>
      <trkpt lat="43.97703" lon="2.1218">
        <ele>252</ele>
        <time>2010-07-25T11:42:39Z</time>
      </trkpt>
      <trkpt lat="43.97669" lon="2.12186">
        <ele>252</ele>
        <time>2010-07-25T11:42:58Z</time>
      </trkpt>
      <trkpt lat="43.97646" lon="2.1219">
        <ele>256</ele>
        <time>2010-07-25T11:43:12Z</time>
      </trkpt>
      <trkpt lat="43.97626" lon="2.12195">
        <ele>258</ele>
        <time>2010-07-25T11:43:25Z</time>
      </trkpt>
      <trkpt lat="43.97601" lon="2.12203">
        <ele>257</ele>
        <time>2010-07-25T11:43:41Z</time>
      </trkpt>
      <trkpt lat="43.97584" lon="2.12209">
        <ele>255</ele>
        <time>2010-07-25T11:43:52Z</time>
      </trkpt>
      <trkpt lat="43.97555" lon="2.12225">
        <ele>246</ele>
        <time>2010-07-25T11:44:08Z</time>
      </trkpt>
      <trkpt lat="43.97526" lon="2.12241">
        <ele>250</ele>
        <time>2010-07-25T11:44:25Z</time>
      </trkpt>
      <trkpt lat="43.97511" lon="2.12249">
        <ele>251</ele>
        <time>2010-07-25T11:44:37Z</time>
      </trkpt>
      <trkpt lat="43.97496" lon="2.12259">
        <ele>252</ele>
        <time>2010-07-25T11:44:48Z</time>
      </trkpt>
      <trkpt lat="43.97473" lon="2.12273">
        <ele>255</ele>
        <time>2010-07-25T11:45:03Z</time>
      </trkpt>
      <trkpt lat="43.97439" lon="2.12292">
        <ele>256</ele>
        <time>2010-07-25T11:45:25Z</time>
      </trkpt>
      <trkpt lat="43.97412" lon="2.12308">
        <ele>253</ele>
        <time>2010-07-25T11:45:43Z</time>
      </trkpt>
      <trkpt lat="43.9739" lon="2.12319">
        <ele>253</ele>
        <time>2010-07-25T11:45:56Z</time>
      </trkpt>
      <trkpt lat="43.97368" lon="2.12328">
        <ele>252</ele>
        <time>2010-07-25T11:46:10Z</time>
      </trkpt>
      <trkpt lat="43.97341" lon="2.12343">
        <ele>251</ele>
        <time>2010-07-25T11:46:27Z</time>
      </trkpt>
      <trkpt lat="43.97304" lon="2.12369">
        <ele>254</ele>
        <time>2010-07-25T11:46:51Z</time>
      </trkpt>
      <trkpt lat="43.9728" lon="2.12382">
        <ele>252</ele>
        <time>2010-07-25T11:47:06Z</time>
      </trkpt>
      <trkpt lat="43.97255" lon="2.12398">
        <ele>250</ele>
        <time>2010-07-25T11:47:22Z</time>
      </trkpt>
      <trkpt lat="43.9723" lon="2.12412">
        <ele>251</ele>
        <time>2010-07-25T11:47:37Z</time>
      </trkpt>
      <trkpt lat="43.9721" lon="2.12421">
        <ele>249</ele>
        <time>2010-07-25T11:47:49Z</time>
      </trkpt>
      <trkpt lat="43.97188" lon="2.12434">
        <ele>252</ele>
        <time>2010-07-25T11:48:04Z</time>
      </trkpt>
      <trkpt lat="43.97166" lon="2.12443">
        <ele>249</ele>
        <time>2010-07-25T11:48:17Z</time>
      </trkpt>
      <trkpt lat="43.97161" lon="2.1245">
        <ele>251</ele>
        <time>2010-07-25T11:48:24Z</time>
      </trkpt>
      <trkpt lat="43.97151" lon="2.12458">
        <ele>250</ele>
        <time>2010-07-25T11:48:36Z</time>
      </trkpt>
      <trkpt lat="43.9715" lon="2.12462">
        <ele>249</ele>
        <time>2010-07-25T11:48:39Z</time>
      </trkpt>
      <trkpt lat="43.97138" lon="2.12484">
        <ele>249</ele>
        <time>2010-07-25T11:48:53Z</time>
      </trkpt>
      <trkpt lat="43.97106" lon="2.12501">
        <ele>254</ele>
        <time>2010-07-25T11:49:13Z</time>
      </trkpt>
      <trkpt lat="43.97078" lon="2.12508">
        <ele>255</ele>
        <time>2010-07-25T11:49:33Z</time>
      </trkpt>
      <trkpt lat="43.97079" lon="2.12507">
        <ele>254</ele>
        <time>2010-07-25T11:50:06Z</time>
      </trkpt>
      <trkpt lat="43.97078" lon="2.12507">
        <ele>254</ele>
        <time>2010-07-25T11:50:34Z</time>
      </trkpt>
      <trkpt lat="43.97079" lon="2.12507">
        <ele>254</ele>
        <time>2010-07-25T11:50:40Z</time>
      </trkpt>
      <trkpt lat="43.97112" lon="2.12494">
        <ele>249</ele>
        <time>2010-07-25T11:50:53Z</time>
      </trkpt>
      <trkpt lat="43.97156" lon="2.12491">
        <ele>248</ele>
        <time>2010-07-25T11:51:06Z</time>
      </trkpt>
      <trkpt lat="43.97164" lon="2.12489">
        <ele>248</ele>
        <time>2010-07-25T11:51:08Z</time>
      </trkpt>
      <trkpt lat="43.97216" lon="2.12502">
        <ele>250</ele>
        <time>2010-07-25T11:51:19Z</time>
      </trkpt>
      <trkpt lat="43.97219" lon="2.12508">
        <ele>250</ele>
        <time>2010-07-25T11:51:26Z</time>
      </trkpt>
      <trkpt lat="43.97223" lon="2.12507">
        <ele>250</ele>
        <time>2010-07-25T11:51:34Z</time>
      </trkpt>
      <trkpt lat="43.97221" lon="2.1252">
        <ele>251</ele>
        <time>2010-07-25T11:51:47Z</time>
      </trkpt>
      <trkpt lat="43.97221" lon="2.12522">
        <ele>252</ele>
        <time>2010-07-25T11:51:58Z</time>
      </trkpt>
      <trkpt lat="43.9722" lon="2.12523">
        <ele>251</ele>
        <time>2010-07-25T11:52:08Z</time>
      </trkpt>
      <trkpt lat="43.9722" lon="2.12524">
        <ele>252</ele>
        <time>2010-07-25T11:52:12Z</time>
      </trkpt>
      <trkpt lat="43.97224" lon="2.12523">
        <ele>252</ele>
        <time>2010-07-25T11:52:16Z</time>
      </trkpt>
      <trkpt lat="43.9722" lon="2.12524">
        <ele>252</ele>
        <time>2010-07-25T11:52:29Z</time>
      </trkpt>
      <trkpt lat="43.9722" lon="2.12523">
        <ele>252</ele>
        <time>2010-07-25T11:52:39Z</time>
      </trkpt>
      <trkpt lat="43.97219" lon="2.12527">
        <ele>255</ele>
        <time>2010-07-25T11:52:50Z</time>
      </trkpt>
      <trkpt lat="43.97221" lon="2.12521">
        <ele>254</ele>
        <time>2010-07-25T11:53:01Z</time>
      </trkpt>
      <trkpt lat="43.97219" lon="2.12519">
        <ele>253</ele>
        <time>2010-07-25T11:53:18Z</time>
      </trkpt>
      <trkpt lat="43.97221" lon="2.12518">
        <ele>254</ele>
        <time>2010-07-25T11:53:34Z</time>
      </trkpt>
      <trkpt lat="43.97222" lon="2.12519">
        <ele>254</ele>
        <time>2010-07-25T11:53:48Z</time>
      </trkpt>
      <trkpt lat="43.97223" lon="2.1252">
        <ele>254</ele>
        <time>2010-07-25T11:53:50Z</time>
      </trkpt>
      <trkpt lat="43.97221" lon="2.12525">
        <ele>255</ele>
        <time>2010-07-25T11:54:02Z</time>
      </trkpt>
      <trkpt lat="43.97219" lon="2.12524">
        <ele>256</ele>
        <time>2010-07-25T11:54:13Z</time>
      </trkpt>
      <trkpt lat="43.9722" lon="2.12523">
        <ele>256</ele>
        <time>2010-07-25T11:54:14Z</time>
      </trkpt>
      <trkpt lat="43.97221" lon="2.12522">
        <ele>255</ele>
        <time>2010-07-25T11:54:35Z</time>
      </trkpt>
      <trkpt lat="43.97218" lon="2.12524">
        <ele>256</ele>
        <time>2010-07-25T11:54:53Z</time>
      </trkpt>
      <trkpt lat="43.97217" lon="2.12523">
        <ele>256</ele>
        <time>2010-07-25T11:54:59Z</time>
      </trkpt>
    </trkseg>
  </trk>
</gpx>